<?xml version="1.0" encoding="UTF-8"?>
<gpx version="1.0" creator="Trackator" xmlns:xsi="http://www.w3.org/2001/XMLSchema-instance" xmlns="http://www.topografix.com/GPX/1/0" xmlns:topografix="http://www.topografix.com/GPX/Private/TopoGrafix/0/1" xsi:schemaLocation="http://www.topografix.com/GPX/1/0 http://www.topografix.com/GPX/1/0/gpx.xsd http://www.topografix.com/GPX/Private/TopoGrafix/0/1 http://www.topografix.com/GPX/Private/TopoGrafix/0/1/topografix.xsd">
<metadata>
<link href="http://www.trackalia.com/trackatorweb.php">
<text>Trackator</text>
</link>
</metadata>
<time>2017-12-04T11:18:20Z</time>
<trk>
<name>Track: </name>
<desc></desc>
<trkseg>
<trkpt lat="53.3484624" lon="18.4445410">
<ele>127</ele>
<time>2017-12-04T11:18:20Z</time>
</trkpt>
<trkpt lat="53.3484684" lon="18.4445526">
<ele>123</ele>
<time>2017-12-04T11:18:26Z</time>
</trkpt>
<trkpt lat="53.3483715" lon="18.4445755">
<ele>102</ele>
<time>2017-12-04T11:18:32Z</time>
</trkpt>
<trkpt lat="53.3483334" lon="18.4447088">
<ele>98</ele>
<time>2017-12-04T11:18:38Z</time>
</trkpt>
<trkpt lat="53.3483885" lon="18.4448616">
<ele>98</ele>
<time>2017-12-04T11:18:44Z</time>
</trkpt>
<trkpt lat="53.3485833" lon="18.4449511">
<ele>98</ele>
<time>2017-12-04T11:18:50Z</time>
</trkpt>
<trkpt lat="53.3488131" lon="18.4450230">
<ele>97</ele>
<time>2017-12-04T11:18:56Z</time>
</trkpt>
<trkpt lat="53.3490985" lon="18.4451270">
<ele>97</ele>
<time>2017-12-04T11:19:02Z</time>
</trkpt>
<trkpt lat="53.3494329" lon="18.4456566">
<ele>97</ele>
<time>2017-12-04T11:19:14Z</time>
</trkpt>
<trkpt lat="53.3496295" lon="18.4460212">
<ele>97</ele>
<time>2017-12-04T11:19:20Z</time>
</trkpt>
<trkpt lat="53.3499441" lon="18.4466148">
<ele>96</ele>
<time>2017-12-04T11:19:26Z</time>
</trkpt>
<trkpt lat="53.3502715" lon="18.4472734">
<ele>93</ele>
<time>2017-12-04T11:19:32Z</time>
</trkpt>
<trkpt lat="53.3506542" lon="18.4480205">
<ele>90</ele>
<time>2017-12-04T11:19:38Z</time>
</trkpt>
<trkpt lat="53.3511043" lon="18.4488512">
<ele>87</ele>
<time>2017-12-04T11:19:44Z</time>
</trkpt>
<trkpt lat="53.3514436" lon="18.4494961">
<ele>86</ele>
<time>2017-12-04T11:19:50Z</time>
</trkpt>
<trkpt lat="53.3515894" lon="18.4499060">
<ele>84</ele>
<time>2017-12-04T11:19:56Z</time>
</trkpt>
<trkpt lat="53.3517496" lon="18.4503377">
<ele>83</ele>
<time>2017-12-04T11:20:02Z</time>
</trkpt>
<trkpt lat="53.3519454" lon="18.4508158">
<ele>82</ele>
<time>2017-12-04T11:20:08Z</time>
</trkpt>
<trkpt lat="53.3522033" lon="18.4510025">
<ele>81</ele>
<time>2017-12-04T11:20:14Z</time>
</trkpt>
<trkpt lat="53.3526110" lon="18.4506593">
<ele>78</ele>
<time>2017-12-04T11:20:20Z</time>
</trkpt>
<trkpt lat="53.3531324" lon="18.4501277">
<ele>74</ele>
<time>2017-12-04T11:20:26Z</time>
</trkpt>
<trkpt lat="53.3537280" lon="18.4493443">
<ele>69</ele>
<time>2017-12-04T11:20:32Z</time>
</trkpt>
<trkpt lat="53.3543347" lon="18.4483428">
<ele>63</ele>
<time>2017-12-04T11:20:38Z</time>
</trkpt>
<trkpt lat="53.3550449" lon="18.4471522">
<ele>58</ele>
<time>2017-12-04T11:20:44Z</time>
</trkpt>
<trkpt lat="53.3557760" lon="18.4458985">
<ele>57</ele>
<time>2017-12-04T11:20:50Z</time>
</trkpt>
<trkpt lat="53.3565088" lon="18.4446497">
<ele>56</ele>
<time>2017-12-04T11:20:56Z</time>
</trkpt>
<trkpt lat="53.3572410" lon="18.4434053">
<ele>56</ele>
<time>2017-12-04T11:21:02Z</time>
</trkpt>
<trkpt lat="53.3579575" lon="18.4421918">
<ele>55</ele>
<time>2017-12-04T11:21:08Z</time>
</trkpt>
<trkpt lat="53.3585442" lon="18.4411752">
<ele>54</ele>
<time>2017-12-04T11:21:14Z</time>
</trkpt>
<trkpt lat="53.3591837" lon="18.4400980">
<ele>55</ele>
<time>2017-12-04T11:21:20Z</time>
</trkpt>
<trkpt lat="53.3598430" lon="18.4389723">
<ele>55</ele>
<time>2017-12-04T11:21:26Z</time>
</trkpt>
<trkpt lat="53.3605068" lon="18.4378453">
<ele>56</ele>
<time>2017-12-04T11:21:32Z</time>
</trkpt>
<trkpt lat="53.3612242" lon="18.4367938">
<ele>57</ele>
<time>2017-12-04T11:21:38Z</time>
</trkpt>
<trkpt lat="53.3620558" lon="18.4359121">
<ele>57</ele>
<time>2017-12-04T11:21:44Z</time>
</trkpt>
<trkpt lat="53.3629083" lon="18.4350300">
<ele>58</ele>
<time>2017-12-04T11:21:50Z</time>
</trkpt>
<trkpt lat="53.3637576" lon="18.4341425">
<ele>59</ele>
<time>2017-12-04T11:21:56Z</time>
</trkpt>
<trkpt lat="53.3646090" lon="18.4332416">
<ele>60</ele>
<time>2017-12-04T11:22:02Z</time>
</trkpt>
<trkpt lat="53.3654818" lon="18.4323395">
<ele>61</ele>
<time>2017-12-04T11:22:08Z</time>
</trkpt>
<trkpt lat="53.3663420" lon="18.4314458">
<ele>63</ele>
<time>2017-12-04T11:22:14Z</time>
</trkpt>
<trkpt lat="53.3671817" lon="18.4305902">
<ele>65</ele>
<time>2017-12-04T11:22:20Z</time>
</trkpt>
<trkpt lat="53.3680243" lon="18.4297391">
<ele>66</ele>
<time>2017-12-04T11:22:26Z</time>
</trkpt>
<trkpt lat="53.3688649" lon="18.4288668">
<ele>66</ele>
<time>2017-12-04T11:22:32Z</time>
</trkpt>
<trkpt lat="53.3697141" lon="18.4279826">
<ele>67</ele>
<time>2017-12-04T11:22:38Z</time>
</trkpt>
<trkpt lat="53.3705868" lon="18.4270700">
<ele>66</ele>
<time>2017-12-04T11:22:44Z</time>
</trkpt>
<trkpt lat="53.3714529" lon="18.4261642">
<ele>66</ele>
<time>2017-12-04T11:22:50Z</time>
</trkpt>
<trkpt lat="53.3722991" lon="18.4252810">
<ele>65</ele>
<time>2017-12-04T11:22:56Z</time>
</trkpt>
<trkpt lat="53.3731447" lon="18.4244101">
<ele>64</ele>
<time>2017-12-04T11:23:02Z</time>
</trkpt>
<trkpt lat="53.3739878" lon="18.4235459">
<ele>62</ele>
<time>2017-12-04T11:23:08Z</time>
</trkpt>
<trkpt lat="53.3747670" lon="18.4227613">
<ele>60</ele>
<time>2017-12-04T11:23:14Z</time>
</trkpt>
<trkpt lat="53.3755469" lon="18.4219552">
<ele>59</ele>
<time>2017-12-04T11:23:20Z</time>
</trkpt>
<trkpt lat="53.3763501" lon="18.4211162">
<ele>58</ele>
<time>2017-12-04T11:23:26Z</time>
</trkpt>
<trkpt lat="53.3771457" lon="18.4202807">
<ele>58</ele>
<time>2017-12-04T11:23:32Z</time>
</trkpt>
<trkpt lat="53.3779674" lon="18.4194244">
<ele>59</ele>
<time>2017-12-04T11:23:38Z</time>
</trkpt>
<trkpt lat="53.3788495" lon="18.4184912">
<ele>58</ele>
<time>2017-12-04T11:23:44Z</time>
</trkpt>
<trkpt lat="53.3797958" lon="18.4175100">
<ele>59</ele>
<time>2017-12-04T11:23:50Z</time>
</trkpt>
<trkpt lat="53.3807620" lon="18.4165159">
<ele>59</ele>
<time>2017-12-04T11:23:56Z</time>
</trkpt>
<trkpt lat="53.3817377" lon="18.4155055">
<ele>59</ele>
<time>2017-12-04T11:24:02Z</time>
</trkpt>
<trkpt lat="53.3827267" lon="18.4144756">
<ele>58</ele>
<time>2017-12-04T11:24:08Z</time>
</trkpt>
<trkpt lat="53.3837484" lon="18.4134255">
<ele>58</ele>
<time>2017-12-04T11:24:14Z</time>
</trkpt>
<trkpt lat="53.3847789" lon="18.4123656">
<ele>58</ele>
<time>2017-12-04T11:24:20Z</time>
</trkpt>
<trkpt lat="53.3857881" lon="18.4113238">
<ele>58</ele>
<time>2017-12-04T11:24:26Z</time>
</trkpt>
<trkpt lat="53.3867780" lon="18.4103008">
<ele>58</ele>
<time>2017-12-04T11:24:32Z</time>
</trkpt>
<trkpt lat="53.3877524" lon="18.4092838">
<ele>58</ele>
<time>2017-12-04T11:24:38Z</time>
</trkpt>
<trkpt lat="53.3887191" lon="18.4082705">
<ele>58</ele>
<time>2017-12-04T11:24:44Z</time>
</trkpt>
<trkpt lat="53.3896617" lon="18.4073261">
<ele>57</ele>
<time>2017-12-04T11:24:50Z</time>
</trkpt>
<trkpt lat="53.3905827" lon="18.4064176">
<ele>56</ele>
<time>2017-12-04T11:24:56Z</time>
</trkpt>
<trkpt lat="53.3915041" lon="18.4054909">
<ele>55</ele>
<time>2017-12-04T11:25:02Z</time>
</trkpt>
<trkpt lat="53.3924576" lon="18.4045531">
<ele>54</ele>
<time>2017-12-04T11:25:08Z</time>
</trkpt>
<trkpt lat="53.3934393" lon="18.4036672">
<ele>54</ele>
<time>2017-12-04T11:25:14Z</time>
</trkpt>
<trkpt lat="53.3944291" lon="18.4029253">
<ele>57</ele>
<time>2017-12-04T11:25:20Z</time>
</trkpt>
<trkpt lat="53.3954184" lon="18.4023343">
<ele>60</ele>
<time>2017-12-04T11:25:26Z</time>
</trkpt>
<trkpt lat="53.3964007" lon="18.4018023">
<ele>63</ele>
<time>2017-12-04T11:25:32Z</time>
</trkpt>
<trkpt lat="53.3973739" lon="18.4012823">
<ele>65</ele>
<time>2017-12-04T11:25:38Z</time>
</trkpt>
<trkpt lat="53.3983400" lon="18.4007541">
<ele>68</ele>
<time>2017-12-04T11:25:44Z</time>
</trkpt>
<trkpt lat="53.3992990" lon="18.4002297">
<ele>69</ele>
<time>2017-12-04T11:25:50Z</time>
</trkpt>
<trkpt lat="53.4002583" lon="18.3996550">
<ele>70</ele>
<time>2017-12-04T11:25:56Z</time>
</trkpt>
<trkpt lat="53.4012160" lon="18.3988780">
<ele>71</ele>
<time>2017-12-04T11:26:02Z</time>
</trkpt>
<trkpt lat="53.4020983" lon="18.3978771">
<ele>70</ele>
<time>2017-12-04T11:26:08Z</time>
</trkpt>
<trkpt lat="53.4028842" lon="18.3966787">
<ele>70</ele>
<time>2017-12-04T11:26:14Z</time>
</trkpt>
<trkpt lat="53.4035757" lon="18.3953665">
<ele>71</ele>
<time>2017-12-04T11:26:20Z</time>
</trkpt>
<trkpt lat="53.4040881" lon="18.3943553">
<ele>71</ele>
<time>2017-12-04T11:26:26Z</time>
</trkpt>
<trkpt lat="53.4043528" lon="18.3938215">
<ele>72</ele>
<time>2017-12-04T11:26:32Z</time>
</trkpt>
<trkpt lat="53.4044060" lon="18.3937058">
<ele>72</ele>
<time>2017-12-04T11:26:38Z</time>
</trkpt>
<trkpt lat="53.4044060" lon="18.3937058">
<ele>72</ele>
<time>2017-12-04T11:26:44Z</time>
</trkpt>
<trkpt lat="53.4044086" lon="18.3937001">
<ele>72</ele>
<time>2017-12-04T11:26:50Z</time>
</trkpt>
<trkpt lat="53.4046030" lon="18.3933243">
<ele>73</ele>
<time>2017-12-04T11:26:56Z</time>
</trkpt>
<trkpt lat="53.4048961" lon="18.3927588">
<ele>73</ele>
<time>2017-12-04T11:27:02Z</time>
</trkpt>
<trkpt lat="53.4053494" lon="18.3918641">
<ele>73</ele>
<time>2017-12-04T11:27:08Z</time>
</trkpt>
<trkpt lat="53.4058227" lon="18.3908404">
<ele>74</ele>
<time>2017-12-04T11:27:14Z</time>
</trkpt>
<trkpt lat="53.4062556" lon="18.3896802">
<ele>75</ele>
<time>2017-12-04T11:27:20Z</time>
</trkpt>
<trkpt lat="53.4066081" lon="18.3884411">
<ele>76</ele>
<time>2017-12-04T11:27:26Z</time>
</trkpt>
<trkpt lat="53.4069553" lon="18.3870215">
<ele>77</ele>
<time>2017-12-04T11:27:32Z</time>
</trkpt>
<trkpt lat="53.4073502" lon="18.3855033">
<ele>78</ele>
<time>2017-12-04T11:27:38Z</time>
</trkpt>
<trkpt lat="53.4077402" lon="18.3839713">
<ele>80</ele>
<time>2017-12-04T11:27:44Z</time>
</trkpt>
<trkpt lat="53.4081241" lon="18.3824403">
<ele>81</ele>
<time>2017-12-04T11:27:50Z</time>
</trkpt>
<trkpt lat="53.4085057" lon="18.3809343">
<ele>80</ele>
<time>2017-12-04T11:27:56Z</time>
</trkpt>
<trkpt lat="53.4088661" lon="18.3793750">
<ele>80</ele>
<time>2017-12-04T11:28:02Z</time>
</trkpt>
<trkpt lat="53.4093369" lon="18.3778399">
<ele>80</ele>
<time>2017-12-04T11:28:08Z</time>
</trkpt>
<trkpt lat="53.4098856" lon="18.3765469">
<ele>82</ele>
<time>2017-12-04T11:28:14Z</time>
</trkpt>
<trkpt lat="53.4104846" lon="18.3754255">
<ele>85</ele>
<time>2017-12-04T11:28:20Z</time>
</trkpt>
<trkpt lat="53.4110852" lon="18.3742955">
<ele>87</ele>
<time>2017-12-04T11:28:26Z</time>
</trkpt>
<trkpt lat="53.4117145" lon="18.3731719">
<ele>88</ele>
<time>2017-12-04T11:28:32Z</time>
</trkpt>
<trkpt lat="53.4123341" lon="18.3719456">
<ele>89</ele>
<time>2017-12-04T11:28:38Z</time>
</trkpt>
<trkpt lat="53.4128449" lon="18.3706236">
<ele>89</ele>
<time>2017-12-04T11:28:44Z</time>
</trkpt>
<trkpt lat="53.4135589" lon="18.3675747">
<ele>92</ele>
<time>2017-12-04T11:28:56Z</time>
</trkpt>
<trkpt lat="53.4132603" lon="18.3691433">
<ele>90</ele>
<time>2017-12-04T11:28:50Z</time>
</trkpt>
<trkpt lat="53.4138474" lon="18.3660217">
<ele>94</ele>
<time>2017-12-04T11:29:02Z</time>
</trkpt>
<trkpt lat="53.4141578" lon="18.3645238">
<ele>96</ele>
<time>2017-12-04T11:29:08Z</time>
</trkpt>
<trkpt lat="53.4145687" lon="18.3631371">
<ele>99</ele>
<time>2017-12-04T11:29:14Z</time>
</trkpt>
<trkpt lat="53.4150803" lon="18.3618742">
<ele>101</ele>
<time>2017-12-04T11:29:20Z</time>
</trkpt>
<trkpt lat="53.4156720" lon="18.3606897">
<ele>102</ele>
<time>2017-12-04T11:29:26Z</time>
</trkpt>
<trkpt lat="53.4162822" lon="18.3594353">
<ele>104</ele>
<time>2017-12-04T11:29:32Z</time>
</trkpt>
<trkpt lat="53.4168657" lon="18.3580558">
<ele>105</ele>
<time>2017-12-04T11:29:38Z</time>
</trkpt>
<trkpt lat="53.4173550" lon="18.3565541">
<ele>106</ele>
<time>2017-12-04T11:29:44Z</time>
</trkpt>
<trkpt lat="53.4177006" lon="18.3548991">
<ele>108</ele>
<time>2017-12-04T11:29:50Z</time>
</trkpt>
<trkpt lat="53.4179926" lon="18.3532048">
<ele>110</ele>
<time>2017-12-04T11:29:56Z</time>
</trkpt>
<trkpt lat="53.4182735" lon="18.3515140">
<ele>112</ele>
<time>2017-12-04T11:30:02Z</time>
</trkpt>
<trkpt lat="53.4185517" lon="18.3499660">
<ele>114</ele>
<time>2017-12-04T11:30:08Z</time>
</trkpt>
<trkpt lat="53.4188784" lon="18.3484860">
<ele>116</ele>
<time>2017-12-04T11:30:14Z</time>
</trkpt>
<trkpt lat="53.4192775" lon="18.3469998">
<ele>118</ele>
<time>2017-12-04T11:30:20Z</time>
</trkpt>
<trkpt lat="53.4197201" lon="18.3455773">
<ele>119</ele>
<time>2017-12-04T11:30:26Z</time>
</trkpt>
<trkpt lat="53.4201819" lon="18.3441698">
<ele>121</ele>
<time>2017-12-04T11:30:32Z</time>
</trkpt>
<trkpt lat="53.4206508" lon="18.3427220">
<ele>122</ele>
<time>2017-12-04T11:30:38Z</time>
</trkpt>
<trkpt lat="53.4211291" lon="18.3411972">
<ele>123</ele>
<time>2017-12-04T11:30:44Z</time>
</trkpt>
<trkpt lat="53.4216118" lon="18.3396660">
<ele>123</ele>
<time>2017-12-04T11:30:50Z</time>
</trkpt>
<trkpt lat="53.4220804" lon="18.3381427">
<ele>123</ele>
<time>2017-12-04T11:30:56Z</time>
</trkpt>
<trkpt lat="53.4225570" lon="18.3367043">
<ele>124</ele>
<time>2017-12-04T11:31:02Z</time>
</trkpt>
<trkpt lat="53.4230168" lon="18.3353494">
<ele>124</ele>
<time>2017-12-04T11:31:08Z</time>
</trkpt>
<trkpt lat="53.4234562" lon="18.3339513">
<ele>125</ele>
<time>2017-12-04T11:31:14Z</time>
</trkpt>
<trkpt lat="53.4239077" lon="18.3324635">
<ele>125</ele>
<time>2017-12-04T11:31:20Z</time>
</trkpt>
<trkpt lat="53.4244167" lon="18.3309349">
<ele>126</ele>
<time>2017-12-04T11:31:26Z</time>
</trkpt>
<trkpt lat="53.4249332" lon="18.3294204">
<ele>125</ele>
<time>2017-12-04T11:31:32Z</time>
</trkpt>
<trkpt lat="53.4254919" lon="18.3277506">
<ele>124</ele>
<time>2017-12-04T11:31:38Z</time>
</trkpt>
<trkpt lat="53.4260399" lon="18.3260152">
<ele>122</ele>
<time>2017-12-04T11:31:44Z</time>
</trkpt>
<trkpt lat="53.4266136" lon="18.3242354">
<ele>121</ele>
<time>2017-12-04T11:31:50Z</time>
</trkpt>
<trkpt lat="53.4271918" lon="18.3224289">
<ele>120</ele>
<time>2017-12-04T11:31:56Z</time>
</trkpt>
<trkpt lat="53.4277346" lon="18.3207371">
<ele>116</ele>
<time>2017-12-04T11:32:02Z</time>
</trkpt>
<trkpt lat="53.4293" lon="18.3158">
<ele>117</ele>
<time>2017-12-04T11:32:20Z</time>
</trkpt>
<trkpt lat="53.4298" lon="18.3142">
<ele>120</ele>
<time>2017-12-04T11:32:26Z</time>
</trkpt>
<trkpt lat="53.4303" lon="18.3127">
<ele>121</ele>
<time>2017-12-04T11:32:32Z</time>
</trkpt>
<trkpt lat="53.4306945" lon="18.3115184">
<ele>123</ele>
<time>2017-12-04T11:32:38Z</time>
</trkpt>
<trkpt lat="53.4310612" lon="18.3105057">
<ele>123</ele>
<time>2017-12-04T11:32:44Z</time>
</trkpt>
<trkpt lat="53.4313927" lon="18.3093970">
<ele>123</ele>
<time>2017-12-04T11:32:50Z</time>
</trkpt>
<trkpt lat="53.4317545" lon="18.3082535">
<ele>124</ele>
<time>2017-12-04T11:32:56Z</time>
</trkpt>
<trkpt lat="53.4321483" lon="18.3070309">
<ele>123</ele>
<time>2017-12-04T11:33:02Z</time>
</trkpt>
<trkpt lat="53.4325685" lon="18.3057483">
<ele>122</ele>
<time>2017-12-04T11:33:08Z</time>
</trkpt>
<trkpt lat="53.4329919" lon="18.3044208">
<ele>121</ele>
<time>2017-12-04T11:33:14Z</time>
</trkpt>
<trkpt lat="53.4334253" lon="18.3030586">
<ele>119</ele>
<time>2017-12-04T11:33:20Z</time>
</trkpt>
<trkpt lat="53.4338607" lon="18.3016755">
<ele>118</ele>
<time>2017-12-04T11:33:26Z</time>
</trkpt>
<trkpt lat="53.4343456" lon="18.3001962">
<ele>120</ele>
<time>2017-12-04T11:33:32Z</time>
</trkpt>
<trkpt lat="53.4348592" lon="18.2986467">
<ele>120</ele>
<time>2017-12-04T11:33:38Z</time>
</trkpt>
<trkpt lat="53.4353833" lon="18.2969991">
<ele>119</ele>
<time>2017-12-04T11:33:44Z</time>
</trkpt>
<trkpt lat="53.4359061" lon="18.2953670">
<ele>118</ele>
<time>2017-12-04T11:33:50Z</time>
</trkpt>
<trkpt lat="53.4364139" lon="18.2937556">
<ele>119</ele>
<time>2017-12-04T11:33:56Z</time>
</trkpt>
<trkpt lat="53.4369177" lon="18.2922085">
<ele>121</ele>
<time>2017-12-04T11:34:02Z</time>
</trkpt>
<trkpt lat="53.4374310" lon="18.2906962">
<ele>123</ele>
<time>2017-12-04T11:34:08Z</time>
</trkpt>
<trkpt lat="53.4379412" lon="18.2891100">
<ele>124</ele>
<time>2017-12-04T11:34:14Z</time>
</trkpt>
<trkpt lat="53.4384119" lon="18.2876816">
<ele>124</ele>
<time>2017-12-04T11:34:20Z</time>
</trkpt>
<trkpt lat="53.4387776" lon="18.2865225">
<ele>126</ele>
<time>2017-12-04T11:34:26Z</time>
</trkpt>
<trkpt lat="53.4390904" lon="18.2855579">
<ele>125</ele>
<time>2017-12-04T11:34:32Z</time>
</trkpt>
<trkpt lat="53.4393680" lon="18.2847135">
<ele>127</ele>
<time>2017-12-04T11:34:38Z</time>
</trkpt>
<trkpt lat="53.4397088" lon="18.2836382">
<ele>128</ele>
<time>2017-12-04T11:34:44Z</time>
</trkpt>
<trkpt lat="53.4401092" lon="18.2823297">
<ele>130</ele>
<time>2017-12-04T11:34:50Z</time>
</trkpt>
<trkpt lat="53.4405944" lon="18.2809016">
<ele>130</ele>
<time>2017-12-04T11:34:56Z</time>
</trkpt>
<trkpt lat="53.4410624" lon="18.2794014">
<ele>130</ele>
<time>2017-12-04T11:35:02Z</time>
</trkpt>
<trkpt lat="53.4415830" lon="18.2777652">
<ele>128</ele>
<time>2017-12-04T11:35:08Z</time>
</trkpt>
<trkpt lat="53.4421466" lon="18.2760203">
<ele>127</ele>
<time>2017-12-04T11:35:14Z</time>
</trkpt>
<trkpt lat="53.4427176" lon="18.2742334">
<ele>125</ele>
<time>2017-12-04T11:35:20Z</time>
</trkpt>
<trkpt lat="53.4432991" lon="18.2724368">
<ele>125</ele>
<time>2017-12-04T11:35:26Z</time>
</trkpt>
<trkpt lat="53.4439029" lon="18.2706087">
<ele>123</ele>
<time>2017-12-04T11:35:32Z</time>
</trkpt>
<trkpt lat="53.4444713" lon="18.2687376">
<ele>124</ele>
<time>2017-12-04T11:35:38Z</time>
</trkpt>
<trkpt lat="53.4450441" lon="18.2668569">
<ele>124</ele>
<time>2017-12-04T11:35:44Z</time>
</trkpt>
<trkpt lat="53.4456360" lon="18.2649710">
<ele>123</ele>
<time>2017-12-04T11:35:50Z</time>
</trkpt>
<trkpt lat="53.4461848" lon="18.2631100">
<ele>124</ele>
<time>2017-12-04T11:35:56Z</time>
</trkpt>
<trkpt lat="53.4467218" lon="18.2613130">
<ele>123</ele>
<time>2017-12-04T11:36:02Z</time>
</trkpt>
<trkpt lat="53.4469939" lon="18.2593432">
<ele>120</ele>
<time>2017-12-04T11:36:08Z</time>
</trkpt>
<trkpt lat="53.4471956" lon="18.2572843">
<ele>128</ele>
<time>2017-12-04T11:36:14Z</time>
</trkpt>
<trkpt lat="53.4474392" lon="18.2552352">
<ele>130</ele>
<time>2017-12-04T11:36:20Z</time>
</trkpt>
<trkpt lat="53.4476918" lon="18.2532226">
<ele>133</ele>
<time>2017-12-04T11:36:26Z</time>
</trkpt>
<trkpt lat="53.4479982" lon="18.2512741">
<ele>133</ele>
<time>2017-12-04T11:36:32Z</time>
</trkpt>
<trkpt lat="53.4482879" lon="18.2493444">
<ele>135</ele>
<time>2017-12-04T11:36:38Z</time>
</trkpt>
<trkpt lat="53.4485712" lon="18.2474795">
<ele>137</ele>
<time>2017-12-04T11:36:44Z</time>
</trkpt>
<trkpt lat="53.4488551" lon="18.2458121">
<ele>139</ele>
<time>2017-12-04T11:36:50Z</time>
</trkpt>
<trkpt lat="53.4490941" lon="18.2442102">
<ele>141</ele>
<time>2017-12-04T11:36:56Z</time>
</trkpt>
<trkpt lat="53.4493329" lon="18.2425397">
<ele>140</ele>
<time>2017-12-04T11:37:02Z</time>
</trkpt>
<trkpt lat="53.4496146" lon="18.2407242">
<ele>139</ele>
<time>2017-12-04T11:37:08Z</time>
</trkpt>
<trkpt lat="53.4499125" lon="18.2387885">
<ele>139</ele>
<time>2017-12-04T11:37:14Z</time>
</trkpt>
<trkpt lat="53.4502246" lon="18.2368437">
<ele>140</ele>
<time>2017-12-04T11:37:20Z</time>
</trkpt>
<trkpt lat="53.4505469" lon="18.2348646">
<ele>140</ele>
<time>2017-12-04T11:37:26Z</time>
</trkpt>
<trkpt lat="53.4508383" lon="18.2329242">
<ele>141</ele>
<time>2017-12-04T11:37:32Z</time>
</trkpt>
<trkpt lat="53.4511172" lon="18.2310386">
<ele>143</ele>
<time>2017-12-04T11:37:38Z</time>
</trkpt>
<trkpt lat="53.4514014" lon="18.2292011">
<ele>144</ele>
<time>2017-12-04T11:37:44Z</time>
</trkpt>
<trkpt lat="53.4517072" lon="18.2273872">
<ele>142</ele>
<time>2017-12-04T11:37:50Z</time>
</trkpt>
<trkpt lat="53.4520057" lon="18.2255292">
<ele>143</ele>
<time>2017-12-04T11:37:56Z</time>
</trkpt>
<trkpt lat="53.4523056" lon="18.2236437">
<ele>142</ele>
<time>2017-12-04T11:38:02Z</time>
</trkpt>
<trkpt lat="53.4526121" lon="18.2217515">
<ele>143</ele>
<time>2017-12-04T11:38:08Z</time>
</trkpt>
<trkpt lat="53.4528486" lon="18.2199238">
<ele>143</ele>
<time>2017-12-04T11:38:14Z</time>
</trkpt>
<trkpt lat="53.4530210" lon="18.2180887">
<ele>143</ele>
<time>2017-12-04T11:38:20Z</time>
</trkpt>
<trkpt lat="53.4531895" lon="18.2162172">
<ele>142</ele>
<time>2017-12-04T11:38:26Z</time>
</trkpt>
<trkpt lat="53.4533492" lon="18.2142937">
<ele>141</ele>
<time>2017-12-04T11:38:32Z</time>
</trkpt>
<trkpt lat="53.4535083" lon="18.2123521">
<ele>141</ele>
<time>2017-12-04T11:38:38Z</time>
</trkpt>
<trkpt lat="53.4536734" lon="18.2104204">
<ele>142</ele>
<time>2017-12-04T11:38:44Z</time>
</trkpt>
<trkpt lat="53.4538536" lon="18.2085055">
<ele>140</ele>
<time>2017-12-04T11:38:50Z</time>
</trkpt>
<trkpt lat="53.4540256" lon="18.2065776">
<ele>140</ele>
<time>2017-12-04T11:38:56Z</time>
</trkpt>
<trkpt lat="53.4542069" lon="18.2046618">
<ele>140</ele>
<time>2017-12-04T11:39:02Z</time>
</trkpt>
<trkpt lat="53.4545466" lon="18.2028664">
<ele>141</ele>
<time>2017-12-04T11:39:08Z</time>
</trkpt>
<trkpt lat="53.4552000" lon="18.2012805">
<ele>140</ele>
<time>2017-12-04T11:39:14Z</time>
</trkpt>
<trkpt lat="53.4558640" lon="18.1996279">
<ele>139</ele>
<time>2017-12-04T11:39:20Z</time>
</trkpt>
<trkpt lat="53.4565480" lon="18.1979036">
<ele>137</ele>
<time>2017-12-04T11:39:26Z</time>
</trkpt>
<trkpt lat="53.4572445" lon="18.1961799">
<ele>136</ele>
<time>2017-12-04T11:39:32Z</time>
</trkpt>
<trkpt lat="53.4579210" lon="18.1944722">
<ele>136</ele>
<time>2017-12-04T11:39:38Z</time>
</trkpt>
<trkpt lat="53.4586143" lon="18.1927811">
<ele>136</ele>
<time>2017-12-04T11:39:44Z</time>
</trkpt>
<trkpt lat="53.4592998" lon="18.1910853">
<ele>135</ele>
<time>2017-12-04T11:39:50Z</time>
</trkpt>
<trkpt lat="53.4599694" lon="18.1894029">
<ele>133</ele>
<time>2017-12-04T11:39:56Z</time>
</trkpt>
<trkpt lat="53.4606305" lon="18.1877314">
<ele>132</ele>
<time>2017-12-04T11:40:02Z</time>
</trkpt>
<trkpt lat="53.4612998" lon="18.1860795">
<ele>133</ele>
<time>2017-12-04T11:40:08Z</time>
</trkpt>
<trkpt lat="53.4619652" lon="18.1844426">
<ele>134</ele>
<time>2017-12-04T11:40:14Z</time>
</trkpt>
<trkpt lat="53.4626290" lon="18.1828010">
<ele>133</ele>
<time>2017-12-04T11:40:20Z</time>
</trkpt>
<trkpt lat="53.4633009" lon="18.1811047">
<ele>135</ele>
<time>2017-12-04T11:40:26Z</time>
</trkpt>
<trkpt lat="53.4639933" lon="18.1794016">
<ele>134</ele>
<time>2017-12-04T11:40:32Z</time>
</trkpt>
<trkpt lat="53.4646963" lon="18.1776767">
<ele>131</ele>
<time>2017-12-04T11:40:38Z</time>
</trkpt>
<trkpt lat="53.4654118" lon="18.1758751">
<ele>128</ele>
<time>2017-12-04T11:40:44Z</time>
</trkpt>
<trkpt lat="53.4661042" lon="18.1741913">
<ele>130</ele>
<time>2017-12-04T11:40:50Z</time>
</trkpt>
<trkpt lat="53.4667802" lon="18.1725394">
<ele>130</ele>
<time>2017-12-04T11:40:56Z</time>
</trkpt>
<trkpt lat="53.4674881" lon="18.1708251">
<ele>130</ele>
<time>2017-12-04T11:41:02Z</time>
</trkpt>
<trkpt lat="53.4682152" lon="18.1690396">
<ele>130</ele>
<time>2017-12-04T11:41:08Z</time>
</trkpt>
<trkpt lat="53.4689482" lon="18.1672836">
<ele>132</ele>
<time>2017-12-04T11:41:14Z</time>
</trkpt>
<trkpt lat="53.4696454" lon="18.1656202">
<ele>133</ele>
<time>2017-12-04T11:41:20Z</time>
</trkpt>
<trkpt lat="53.4703448" lon="18.1639717">
<ele>134</ele>
<time>2017-12-04T11:41:26Z</time>
</trkpt>
<trkpt lat="53.4710321" lon="18.1623089">
<ele>136</ele>
<time>2017-12-04T11:41:32Z</time>
</trkpt>
<trkpt lat="53.4717222" lon="18.1606176">
<ele>137</ele>
<time>2017-12-04T11:41:38Z</time>
</trkpt>
<trkpt lat="53.4724162" lon="18.1589310">
<ele>138</ele>
<time>2017-12-04T11:41:44Z</time>
</trkpt>
<trkpt lat="53.4731206" lon="18.1572336">
<ele>137</ele>
<time>2017-12-04T11:41:50Z</time>
</trkpt>
<trkpt lat="53.4737900" lon="18.1555520">
<ele>139</ele>
<time>2017-12-04T11:41:56Z</time>
</trkpt>
<trkpt lat="53.4771" lon="18.1472">
<ele>143</ele>
<time>2017-12-04T11:42:26Z</time>
</trkpt>
<trkpt lat="53.4777" lon="18.1455">
<ele>143</ele>
<time>2017-12-04T11:42:32Z</time>
</trkpt>
<trkpt lat="53.4784" lon="18.1439">
<ele>143</ele>
<time>2017-12-04T11:42:38Z</time>
</trkpt>
<trkpt lat="53.479" lon="18.1422">
<ele>143</ele>
<time>2017-12-04T11:42:44Z</time>
</trkpt>
<trkpt lat="53.4797" lon="18.1405">
<ele>141</ele>
<time>2017-12-04T11:42:50Z</time>
</trkpt>
<trkpt lat="53.4804" lon="18.1388">
<ele>140</ele>
<time>2017-12-04T11:42:56Z</time>
</trkpt>
<trkpt lat="53.481" lon="18.1372">
<ele>140</ele>
<time>2017-12-04T11:43:02Z</time>
</trkpt>
<trkpt lat="53.4817" lon="18.1356">
<ele>140</ele>
<time>2017-12-04T11:43:08Z</time>
</trkpt>
<trkpt lat="53.4822718" lon="18.1339574">
<ele>139</ele>
<time>2017-12-04T11:43:14Z</time>
</trkpt>
<trkpt lat="53.4828972" lon="18.1323602">
<ele>139</ele>
<time>2017-12-04T11:43:20Z</time>
</trkpt>
<trkpt lat="53.4835992" lon="18.1307133">
<ele>138</ele>
<time>2017-12-04T11:43:26Z</time>
</trkpt>
<trkpt lat="53.4842871" lon="18.1291021">
<ele>138</ele>
<time>2017-12-04T11:43:32Z</time>
</trkpt>
<trkpt lat="53.4853666" lon="18.1260472">
<ele>139</ele>
<time>2017-12-04T11:43:44Z</time>
</trkpt>
<trkpt lat="53.4848960" lon="18.1276207">
<ele>137</ele>
<time>2017-12-04T11:43:38Z</time>
</trkpt>
<trkpt lat="53.4855066" lon="18.1249548">
<ele>141</ele>
<time>2017-12-04T11:43:50Z</time>
</trkpt>
<trkpt lat="53.4856716" lon="18.1238829">
<ele>143</ele>
<time>2017-12-04T11:43:56Z</time>
</trkpt>
<trkpt lat="53.4858418" lon="18.1229239">
<ele>142</ele>
<time>2017-12-04T11:44:02Z</time>
</trkpt>
<trkpt lat="53.4860304" lon="18.1217896">
<ele>140</ele>
<time>2017-12-04T11:44:08Z</time>
</trkpt>
<trkpt lat="53.4862387" lon="18.1204361">
<ele>141</ele>
<time>2017-12-04T11:44:14Z</time>
</trkpt>
<trkpt lat="53.4867687" lon="18.1172373">
<ele>140</ele>
<time>2017-12-04T11:44:26Z</time>
</trkpt>
<trkpt lat="53.4864954" lon="18.1189117">
<ele>140</ele>
<time>2017-12-04T11:44:20Z</time>
</trkpt>
<trkpt lat="53.4870383" lon="18.1154943">
<ele>138</ele>
<time>2017-12-04T11:44:32Z</time>
</trkpt>
<trkpt lat="53.4873248" lon="18.1137215">
<ele>139</ele>
<time>2017-12-04T11:44:38Z</time>
</trkpt>
<trkpt lat="53.4876251" lon="18.1118891">
<ele>138</ele>
<time>2017-12-04T11:44:44Z</time>
</trkpt>
<trkpt lat="53.4879304" lon="18.1100157">
<ele>137</ele>
<time>2017-12-04T11:44:50Z</time>
</trkpt>
<trkpt lat="53.4882475" lon="18.1080879">
<ele>136</ele>
<time>2017-12-04T11:44:56Z</time>
</trkpt>
<trkpt lat="53.4885639" lon="18.1061530">
<ele>136</ele>
<time>2017-12-04T11:45:02Z</time>
</trkpt>
<trkpt lat="53.4888594" lon="18.1042091">
<ele>138</ele>
<time>2017-12-04T11:45:08Z</time>
</trkpt>
<trkpt lat="53.4891528" lon="18.1023097">
<ele>137</ele>
<time>2017-12-04T11:45:14Z</time>
</trkpt>
<trkpt lat="53.4894596" lon="18.1003922">
<ele>138</ele>
<time>2017-12-04T11:45:20Z</time>
</trkpt>
<trkpt lat="53.4897844" lon="18.0984189">
<ele>138</ele>
<time>2017-12-04T11:45:26Z</time>
</trkpt>
<trkpt lat="53.4901059" lon="18.0964377">
<ele>136</ele>
<time>2017-12-04T11:45:32Z</time>
</trkpt>
<trkpt lat="53.4905848" lon="18.0945261">
<ele>135</ele>
<time>2017-12-04T11:45:38Z</time>
</trkpt>
<trkpt lat="53.4911052" lon="18.0926198">
<ele>134</ele>
<time>2017-12-04T11:45:44Z</time>
</trkpt>
<trkpt lat="53.4915972" lon="18.0907646">
<ele>134</ele>
<time>2017-12-04T11:45:50Z</time>
</trkpt>
<trkpt lat="53.4921251" lon="18.0889436">
<ele>138</ele>
<time>2017-12-04T11:45:56Z</time>
</trkpt>
<trkpt lat="53.4926086" lon="18.0871336">
<ele>141</ele>
<time>2017-12-04T11:46:02Z</time>
</trkpt>
<trkpt lat="53.4930892" lon="18.0853430">
<ele>144</ele>
<time>2017-12-04T11:46:08Z</time>
</trkpt>
<trkpt lat="53.4935832" lon="18.0835456">
<ele>145</ele>
<time>2017-12-04T11:46:14Z</time>
</trkpt>
<trkpt lat="53.4940729" lon="18.0817298">
<ele>144</ele>
<time>2017-12-04T11:46:20Z</time>
</trkpt>
<trkpt lat="53.4943511" lon="18.0797624">
<ele>143</ele>
<time>2017-12-04T11:46:26Z</time>
</trkpt>
<trkpt lat="53.4945570" lon="18.0777775">
<ele>145</ele>
<time>2017-12-04T11:46:32Z</time>
</trkpt>
<trkpt lat="53.4947651" lon="18.0758354">
<ele>145</ele>
<time>2017-12-04T11:46:38Z</time>
</trkpt>
<trkpt lat="53.4949649" lon="18.0738930">
<ele>147</ele>
<time>2017-12-04T11:46:44Z</time>
</trkpt>
<trkpt lat="53.4951579" lon="18.0719786">
<ele>149</ele>
<time>2017-12-04T11:46:50Z</time>
</trkpt>
<trkpt lat="53.4953467" lon="18.0700735">
<ele>151</ele>
<time>2017-12-04T11:46:56Z</time>
</trkpt>
<trkpt lat="53.4955593" lon="18.0682013">
<ele>149</ele>
<time>2017-12-04T11:47:02Z</time>
</trkpt>
<trkpt lat="53.4957632" lon="18.0663711">
<ele>146</ele>
<time>2017-12-04T11:47:08Z</time>
</trkpt>
<trkpt lat="53.4959738" lon="18.0645273">
<ele>144</ele>
<time>2017-12-04T11:47:14Z</time>
</trkpt>
<trkpt lat="53.4961389" lon="18.0626372">
<ele>141</ele>
<time>2017-12-04T11:47:20Z</time>
</trkpt>
<trkpt lat="53.4962192" lon="18.0606872">
<ele>141</ele>
<time>2017-12-04T11:47:26Z</time>
</trkpt>
<trkpt lat="53.4962909" lon="18.0587823">
<ele>140</ele>
<time>2017-12-04T11:47:32Z</time>
</trkpt>
<trkpt lat="53.4963617" lon="18.0569048">
<ele>141</ele>
<time>2017-12-04T11:47:38Z</time>
</trkpt>
<trkpt lat="53.4964372" lon="18.0550534">
<ele>142</ele>
<time>2017-12-04T11:47:44Z</time>
</trkpt>
<trkpt lat="53.4965193" lon="18.0531557">
<ele>141</ele>
<time>2017-12-04T11:47:50Z</time>
</trkpt>
<trkpt lat="53.4966684" lon="18.0512564">
<ele>140</ele>
<time>2017-12-04T11:47:56Z</time>
</trkpt>
<trkpt lat="53.4969102" lon="18.0493749">
<ele>140</ele>
<time>2017-12-04T11:48:02Z</time>
</trkpt>
<trkpt lat="53.4972291" lon="18.0475067">
<ele>139</ele>
<time>2017-12-04T11:48:08Z</time>
</trkpt>
<trkpt lat="53.4975974" lon="18.0455949">
<ele>139</ele>
<time>2017-12-04T11:48:14Z</time>
</trkpt>
<trkpt lat="53.4979689" lon="18.0436369">
<ele>140</ele>
<time>2017-12-04T11:48:20Z</time>
</trkpt>
<trkpt lat="53.4983386" lon="18.0416731">
<ele>141</ele>
<time>2017-12-04T11:48:26Z</time>
</trkpt>
<trkpt lat="53.4986983" lon="18.0397161">
<ele>141</ele>
<time>2017-12-04T11:48:32Z</time>
</trkpt>
<trkpt lat="53.4994295" lon="18.0357855">
<ele>142</ele>
<time>2017-12-04T11:48:44Z</time>
</trkpt>
<trkpt lat="53.4997883" lon="18.0338165">
<ele>142</ele>
<time>2017-12-04T11:48:50Z</time>
</trkpt>
<trkpt lat="53.5001460" lon="18.0318608">
<ele>143</ele>
<time>2017-12-04T11:48:56Z</time>
</trkpt>
<trkpt lat="53.5005051" lon="18.0299338">
<ele>143</ele>
<time>2017-12-04T11:49:02Z</time>
</trkpt>
<trkpt lat="53.5008573" lon="18.0280009">
<ele>142</ele>
<time>2017-12-04T11:49:08Z</time>
</trkpt>
<trkpt lat="53.5012233" lon="18.0260380">
<ele>143</ele>
<time>2017-12-04T11:49:14Z</time>
</trkpt>
<trkpt lat="53.5015898" lon="18.0240912">
<ele>143</ele>
<time>2017-12-04T11:49:20Z</time>
</trkpt>
<trkpt lat="53.5019655" lon="18.0221301">
<ele>144</ele>
<time>2017-12-04T11:49:26Z</time>
</trkpt>
<trkpt lat="53.5023221" lon="18.0202011">
<ele>143</ele>
<time>2017-12-04T11:49:32Z</time>
</trkpt>
<trkpt lat="53.5026426" lon="18.0184511">
<ele>144</ele>
<time>2017-12-04T11:49:38Z</time>
</trkpt>
<trkpt lat="53.5029336" lon="18.0168792">
<ele>143</ele>
<time>2017-12-04T11:49:44Z</time>
</trkpt>
<trkpt lat="53.5032481" lon="18.0152663">
<ele>143</ele>
<time>2017-12-04T11:49:50Z</time>
</trkpt>
<trkpt lat="53.5035727" lon="18.0135654">
<ele>143</ele>
<time>2017-12-04T11:49:56Z</time>
</trkpt>
<trkpt lat="53.5038827" lon="18.0118594">
<ele>145</ele>
<time>2017-12-04T11:50:02Z</time>
</trkpt>
<trkpt lat="53.5041581" lon="18.0103371">
<ele>146</ele>
<time>2017-12-04T11:50:08Z</time>
</trkpt>
<trkpt lat="53.5048" lon="18.0071">
<ele>144</ele>
<time>2017-12-04T11:50:26Z</time>
</trkpt>
<trkpt lat="53.5048" lon="18.0067">
<ele>143</ele>
<time>2017-12-04T11:50:32Z</time>
</trkpt>
<trkpt lat="53.5048" lon="18.0067">
<ele>142</ele>
<time>2017-12-04T11:50:38Z</time>
</trkpt>
<trkpt lat="53.5048" lon="18.0067">
<ele>142</ele>
<time>2017-12-04T11:50:44Z</time>
</trkpt>
<trkpt lat="53.5048378" lon="18.0066877">
<ele>142</ele>
<time>2017-12-04T11:50:50Z</time>
</trkpt>
<trkpt lat="53.5048" lon="18.0067">
<ele>142</ele>
<time>2017-12-04T11:51:08Z</time>
</trkpt>
<trkpt lat="53.5048" lon="18.0067">
<ele>142</ele>
<time>2017-12-04T11:51:14Z</time>
</trkpt>
<trkpt lat="53.5049" lon="18.0063">
<ele>141</ele>
<time>2017-12-04T11:51:20Z</time>
</trkpt>
<trkpt lat="53.5049" lon="18.0061">
<ele>141</ele>
<time>2017-12-04T11:51:26Z</time>
</trkpt>
<trkpt lat="53.5049" lon="18.0061">
<ele>141</ele>
<time>2017-12-04T11:51:32Z</time>
</trkpt>
<trkpt lat="53.5049" lon="18.0061">
<ele>141</ele>
<time>2017-12-04T11:51:50Z</time>
</trkpt>
<trkpt lat="53.5049" lon="18.0061">
<ele>141</ele>
<time>2017-12-04T11:51:56Z</time>
</trkpt>
<trkpt lat="53.5049" lon="18.0061">
<ele>141</ele>
<time>2017-12-04T11:52:02Z</time>
</trkpt>
<trkpt lat="53.5049349" lon="18.0061055">
<ele>141</ele>
<time>2017-12-04T11:52:08Z</time>
</trkpt>
<trkpt lat="53.5049349" lon="18.0061055">
<ele>141</ele>
<time>2017-12-04T11:52:14Z</time>
</trkpt>
<trkpt lat="53.505" lon="18.0059">
<ele>139</ele>
<time>2017-12-04T11:52:32Z</time>
</trkpt>
<trkpt lat="53.505" lon="18.0057">
<ele>139</ele>
<time>2017-12-04T11:52:38Z</time>
</trkpt>
<trkpt lat="53.505" lon="18.0056">
<ele>138</ele>
<time>2017-12-04T11:52:44Z</time>
</trkpt>
<trkpt lat="53.5050482" lon="18.0054986">
<ele>138</ele>
<time>2017-12-04T11:52:50Z</time>
</trkpt>
<trkpt lat="53.5050718" lon="18.0052113">
<ele>139</ele>
<time>2017-12-04T11:52:56Z</time>
</trkpt>
<trkpt lat="53.5051325" lon="18.0047635">
<ele>138</ele>
<time>2017-12-04T11:53:02Z</time>
</trkpt>
<trkpt lat="53.5054" lon="18.0032">
<ele>137</ele>
<time>2017-12-04T11:53:20Z</time>
</trkpt>
<trkpt lat="53.5055" lon="18.0027">
<ele>132</ele>
<time>2017-12-04T11:53:26Z</time>
</trkpt>
<trkpt lat="53.5057" lon="18.0018">
<ele>133</ele>
<time>2017-12-04T11:53:32Z</time>
</trkpt>
<trkpt lat="53.5059" lon="18.0007">
<ele>131</ele>
<time>2017-12-04T11:53:38Z</time>
</trkpt>
<trkpt lat="53.5061034" lon="17.9994231">
<ele>133</ele>
<time>2017-12-04T11:53:44Z</time>
</trkpt>
<trkpt lat="53.5062150" lon="17.9982768">
<ele>134</ele>
<time>2017-12-04T11:53:50Z</time>
</trkpt>
<trkpt lat="53.5063087" lon="17.9972546">
<ele>135</ele>
<time>2017-12-04T11:53:56Z</time>
</trkpt>
<trkpt lat="53.5066541" lon="17.9962343">
<ele>134</ele>
<time>2017-12-04T11:54:02Z</time>
</trkpt>
<trkpt lat="53.5069605" lon="17.9951558">
<ele>134</ele>
<time>2017-12-04T11:54:08Z</time>
</trkpt>
<trkpt lat="53.5072622" lon="17.9941255">
<ele>135</ele>
<time>2017-12-04T11:54:14Z</time>
</trkpt>
<trkpt lat="53.5073479" lon="17.9930047">
<ele>134</ele>
<time>2017-12-04T11:54:20Z</time>
</trkpt>
<trkpt lat="53.5073252" lon="17.9917215">
<ele>133</ele>
<time>2017-12-04T11:54:26Z</time>
</trkpt>
<trkpt lat="53.5073087" lon="17.9904279">
<ele>132</ele>
<time>2017-12-04T11:54:32Z</time>
</trkpt>
<trkpt lat="53.5068794" lon="17.9893457">
<ele>133</ele>
<time>2017-12-04T11:54:38Z</time>
</trkpt>
<trkpt lat="53.5062730" lon="17.9885545">
<ele>133</ele>
<time>2017-12-04T11:54:44Z</time>
</trkpt>
<trkpt lat="53.5058176" lon="17.9875132">
<ele>131</ele>
<time>2017-12-04T11:54:50Z</time>
</trkpt>
<trkpt lat="53.5055285" lon="17.9862842">
<ele>133</ele>
<time>2017-12-04T11:54:56Z</time>
</trkpt>
<trkpt lat="53.5056729" lon="17.9849443">
<ele>137</ele>
<time>2017-12-04T11:55:02Z</time>
</trkpt>
<trkpt lat="53.5059886" lon="17.9836890">
<ele>136</ele>
<time>2017-12-04T11:55:08Z</time>
</trkpt>
<trkpt lat="53.5062617" lon="17.9825210">
<ele>137</ele>
<time>2017-12-04T11:55:14Z</time>
</trkpt>
<trkpt lat="53.5064604" lon="17.9816316">
<ele>137</ele>
<time>2017-12-04T11:55:20Z</time>
</trkpt>
<trkpt lat="53.5065849" lon="17.9810227">
<ele>136</ele>
<time>2017-12-04T11:55:26Z</time>
</trkpt>
<trkpt lat="53.5069955" lon="17.9793018">
<ele>135</ele>
<time>2017-12-04T11:55:38Z</time>
</trkpt>
<trkpt lat="53.5072723" lon="17.9781149">
<ele>136</ele>
<time>2017-12-04T11:55:44Z</time>
</trkpt>
<trkpt lat="53.5076818" lon="17.9771402">
<ele>136</ele>
<time>2017-12-04T11:55:50Z</time>
</trkpt>
<trkpt lat="53.5084237" lon="17.9763841">
<ele>135</ele>
<time>2017-12-04T11:55:56Z</time>
</trkpt>
<trkpt lat="53.5092896" lon="17.9757849">
<ele>135</ele>
<time>2017-12-04T11:56:02Z</time>
</trkpt>
<trkpt lat="53.5101519" lon="17.9751809">
<ele>136</ele>
<time>2017-12-04T11:56:08Z</time>
</trkpt>
<trkpt lat="53.5109689" lon="17.9745520">
<ele>137</ele>
<time>2017-12-04T11:56:14Z</time>
</trkpt>
<trkpt lat="53.5116758" lon="17.9734432">
<ele>141</ele>
<time>2017-12-04T11:56:20Z</time>
</trkpt>
<trkpt lat="53.5122637" lon="17.9721472">
<ele>141</ele>
<time>2017-12-04T11:56:26Z</time>
</trkpt>
<trkpt lat="53.5128542" lon="17.9708373">
<ele>142</ele>
<time>2017-12-04T11:56:32Z</time>
</trkpt>
<trkpt lat="53.5134554" lon="17.9695275">
<ele>142</ele>
<time>2017-12-04T11:56:38Z</time>
</trkpt>
<trkpt lat="53.5140665" lon="17.9681984">
<ele>141</ele>
<time>2017-12-04T11:56:44Z</time>
</trkpt>
<trkpt lat="53.5146087" lon="17.9667657">
<ele>141</ele>
<time>2017-12-04T11:56:50Z</time>
</trkpt>
<trkpt lat="53.5149419" lon="17.9651640">
<ele>141</ele>
<time>2017-12-04T11:56:56Z</time>
</trkpt>
<trkpt lat="53.5152554" lon="17.9635257">
<ele>141</ele>
<time>2017-12-04T11:57:02Z</time>
</trkpt>
<trkpt lat="53.5155594" lon="17.9619982">
<ele>141</ele>
<time>2017-12-04T11:57:08Z</time>
</trkpt>
<trkpt lat="53.5158540" lon="17.9604139">
<ele>142</ele>
<time>2017-12-04T11:57:14Z</time>
</trkpt>
<trkpt lat="53.5161666" lon="17.9587809">
<ele>142</ele>
<time>2017-12-04T11:57:20Z</time>
</trkpt>
<trkpt lat="53.5164839" lon="17.9571333">
<ele>141</ele>
<time>2017-12-04T11:57:26Z</time>
</trkpt>
<trkpt lat="53.5168459" lon="17.9555343">
<ele>139</ele>
<time>2017-12-04T11:57:32Z</time>
</trkpt>
<trkpt lat="53.5173524" lon="17.9541757">
<ele>138</ele>
<time>2017-12-04T11:57:38Z</time>
</trkpt>
<trkpt lat="53.5180398" lon="17.9531738">
<ele>137</ele>
<time>2017-12-04T11:57:44Z</time>
</trkpt>
<trkpt lat="53.5188678" lon="17.9524969">
<ele>138</ele>
<time>2017-12-04T11:57:50Z</time>
</trkpt>
<trkpt lat="53.5197855" lon="17.9519468">
<ele>138</ele>
<time>2017-12-04T11:57:56Z</time>
</trkpt>
<trkpt lat="53.5207781" lon="17.9513548">
<ele>139</ele>
<time>2017-12-04T11:58:02Z</time>
</trkpt>
<trkpt lat="53.5218109" lon="17.9507415">
<ele>139</ele>
<time>2017-12-04T11:58:08Z</time>
</trkpt>
<trkpt lat="53.525" lon="17.9489">
<ele>142</ele>
<time>2017-12-04T11:58:26Z</time>
</trkpt>
<trkpt lat="53.526" lon="17.9483">
<ele>141</ele>
<time>2017-12-04T11:58:32Z</time>
</trkpt>
<trkpt lat="53.5271" lon="17.9477">
<ele>143</ele>
<time>2017-12-04T11:58:38Z</time>
</trkpt>
<trkpt lat="53.5280043" lon="17.9472174">
<ele>143</ele>
<time>2017-12-04T11:58:44Z</time>
</trkpt>
<trkpt lat="53.5289135" lon="17.9467201">
<ele>141</ele>
<time>2017-12-04T11:58:50Z</time>
</trkpt>
<trkpt lat="53.5298125" lon="17.9462221">
<ele>139</ele>
<time>2017-12-04T11:58:56Z</time>
</trkpt>
<trkpt lat="53.5306668" lon="17.9454777">
<ele>137</ele>
<time>2017-12-04T11:59:02Z</time>
</trkpt>
<trkpt lat="53.5315352" lon="17.9448192">
<ele>137</ele>
<time>2017-12-04T11:59:08Z</time>
</trkpt>
<trkpt lat="53.5342" lon="17.943">
<ele>138</ele>
<time>2017-12-04T11:59:26Z</time>
</trkpt>
<trkpt lat="53.535" lon="17.9426">
<ele>139</ele>
<time>2017-12-04T11:59:32Z</time>
</trkpt>
<trkpt lat="53.5358" lon="17.9419">
<ele>139</ele>
<time>2017-12-04T11:59:38Z</time>
</trkpt>
<trkpt lat="53.5365337" lon="17.9410276">
<ele>138</ele>
<time>2017-12-04T11:59:44Z</time>
</trkpt>
<trkpt lat="53.5372550" lon="17.9401473">
<ele>136</ele>
<time>2017-12-04T11:59:50Z</time>
</trkpt>
<trkpt lat="53.5380107" lon="17.9392565">
<ele>136</ele>
<time>2017-12-04T11:59:56Z</time>
</trkpt>
<trkpt lat="53.5387691" lon="17.9383371">
<ele>136</ele>
<time>2017-12-04T12:00:02Z</time>
</trkpt>
<trkpt lat="53.5396267" lon="17.9373375">
<ele>136</ele>
<time>2017-12-04T12:00:08Z</time>
</trkpt>
<trkpt lat="53.5405383" lon="17.9362582">
<ele>137</ele>
<time>2017-12-04T12:00:14Z</time>
</trkpt>
<trkpt lat="53.5414377" lon="17.9352073">
<ele>137</ele>
<time>2017-12-04T12:00:20Z</time>
</trkpt>
<trkpt lat="53.5425" lon="17.934">
<ele>136</ele>
<time>2017-12-04T12:00:38Z</time>
</trkpt>
<trkpt lat="53.5425" lon="17.934">
<ele>136</ele>
<time>2017-12-04T12:00:44Z</time>
</trkpt>
<trkpt lat="53.5425" lon="17.934">
<ele>136</ele>
<time>2017-12-04T12:00:50Z</time>
</trkpt>
<trkpt lat="53.5425" lon="17.934">
<ele>136</ele>
<time>2017-12-04T12:00:56Z</time>
</trkpt>
<trkpt lat="53.5424615" lon="17.9339936">
<ele>136</ele>
<time>2017-12-04T12:01:02Z</time>
</trkpt>
<trkpt lat="53.5425" lon="17.934">
<ele>136</ele>
<time>2017-12-04T12:01:20Z</time>
</trkpt>
<trkpt lat="53.5425" lon="17.934">
<ele>136</ele>
<time>2017-12-04T12:01:26Z</time>
</trkpt>
<trkpt lat="53.5425" lon="17.934">
<ele>136</ele>
<time>2017-12-04T12:01:32Z</time>
</trkpt>
<trkpt lat="53.5425" lon="17.934">
<ele>136</ele>
<time>2017-12-04T12:01:38Z</time>
</trkpt>
<trkpt lat="53.5425" lon="17.934">
<ele>136</ele>
<time>2017-12-04T12:01:44Z</time>
</trkpt>
<trkpt lat="53.5424615" lon="17.9339936">
<ele>136</ele>
<time>2017-12-04T12:01:50Z</time>
</trkpt>
<trkpt lat="53.5424615" lon="17.9339936">
<ele>136</ele>
<time>2017-12-04T12:01:56Z</time>
</trkpt>
<trkpt lat="53.5424615" lon="17.9339936">
<ele>136</ele>
<time>2017-12-04T12:02:02Z</time>
</trkpt>
<trkpt lat="53.5424615" lon="17.9339936">
<ele>136</ele>
<time>2017-12-04T12:02:08Z</time>
</trkpt>
<trkpt lat="53.5425" lon="17.934">
<ele>136</ele>
<time>2017-12-04T12:02:26Z</time>
</trkpt>
<trkpt lat="53.5425" lon="17.934">
<ele>136</ele>
<time>2017-12-04T12:02:32Z</time>
</trkpt>
<trkpt lat="53.5425" lon="17.934">
<ele>136</ele>
<time>2017-12-04T12:02:38Z</time>
</trkpt>
<trkpt lat="53.5424615" lon="17.9339936">
<ele>136</ele>
<time>2017-12-04T12:02:44Z</time>
</trkpt>
<trkpt lat="53.5424615" lon="17.9339936">
<ele>136</ele>
<time>2017-12-04T12:02:50Z</time>
</trkpt>
<trkpt lat="53.5424615" lon="17.9339936">
<ele>136</ele>
<time>2017-12-04T12:02:56Z</time>
</trkpt>
<trkpt lat="53.5424615" lon="17.9339936">
<ele>136</ele>
<time>2017-12-04T12:03:02Z</time>
</trkpt>
<trkpt lat="53.5424615" lon="17.9339936">
<ele>136</ele>
<time>2017-12-04T12:03:08Z</time>
</trkpt>
<trkpt lat="53.5425" lon="17.934">
<ele>136</ele>
<time>2017-12-04T12:03:26Z</time>
</trkpt>
<trkpt lat="53.5426" lon="17.9338">
<ele>138</ele>
<time>2017-12-04T12:03:32Z</time>
</trkpt>
<trkpt lat="53.5429" lon="17.9335">
<ele>139</ele>
<time>2017-12-04T12:03:38Z</time>
</trkpt>
<trkpt lat="53.5432" lon="17.9331">
<ele>140</ele>
<time>2017-12-04T12:03:44Z</time>
</trkpt>
<trkpt lat="53.5437" lon="17.9326">
<ele>139</ele>
<time>2017-12-04T12:03:50Z</time>
</trkpt>
<trkpt lat="53.5440859" lon="17.9321516">
<ele>140</ele>
<time>2017-12-04T12:03:56Z</time>
</trkpt>
<trkpt lat="53.5445111" lon="17.9316909">
<ele>140</ele>
<time>2017-12-04T12:04:02Z</time>
</trkpt>
<trkpt lat="53.5449424" lon="17.9311914">
<ele>139</ele>
<time>2017-12-04T12:04:08Z</time>
</trkpt>
<trkpt lat="53.5455350" lon="17.9304971">
<ele>141</ele>
<time>2017-12-04T12:04:14Z</time>
</trkpt>
<trkpt lat="53.5461862" lon="17.9297307">
<ele>141</ele>
<time>2017-12-04T12:04:20Z</time>
</trkpt>
<trkpt lat="53.5468669" lon="17.9289488">
<ele>140</ele>
<time>2017-12-04T12:04:26Z</time>
</trkpt>
<trkpt lat="53.5475153" lon="17.9282123">
<ele>139</ele>
<time>2017-12-04T12:04:32Z</time>
</trkpt>
<trkpt lat="53.5481808" lon="17.9274597">
<ele>138</ele>
<time>2017-12-04T12:04:38Z</time>
</trkpt>
<trkpt lat="53.5488470" lon="17.9267416">
<ele>136</ele>
<time>2017-12-04T12:04:44Z</time>
</trkpt>
<trkpt lat="53.5494510" lon="17.9260536">
<ele>134</ele>
<time>2017-12-04T12:04:50Z</time>
</trkpt>
<trkpt lat="53.5501283" lon="17.9252573">
<ele>135</ele>
<time>2017-12-04T12:04:56Z</time>
</trkpt>
<trkpt lat="53.5507805" lon="17.9244605">
<ele>137</ele>
<time>2017-12-04T12:05:02Z</time>
</trkpt>
<trkpt lat="53.5512790" lon="17.9234950">
<ele>138</ele>
<time>2017-12-04T12:05:08Z</time>
</trkpt>
<trkpt lat="53.5516252" lon="17.9223113">
<ele>138</ele>
<time>2017-12-04T12:05:14Z</time>
</trkpt>
<trkpt lat="53.5519187" lon="17.9209043">
<ele>136</ele>
<time>2017-12-04T12:05:20Z</time>
</trkpt>
<trkpt lat="53.5522299" lon="17.9193410">
<ele>133</ele>
<time>2017-12-04T12:05:26Z</time>
</trkpt>
<trkpt lat="53.5525613" lon="17.9177046">
<ele>131</ele>
<time>2017-12-04T12:05:32Z</time>
</trkpt>
<trkpt lat="53.5529021" lon="17.9160042">
<ele>130</ele>
<time>2017-12-04T12:05:38Z</time>
</trkpt>
<trkpt lat="53.5532146" lon="17.9143383">
<ele>131</ele>
<time>2017-12-04T12:05:44Z</time>
</trkpt>
<trkpt lat="53.5534940" lon="17.9128030">
<ele>133</ele>
<time>2017-12-04T12:05:50Z</time>
</trkpt>
<trkpt lat="53.5537578" lon="17.9113681">
<ele>133</ele>
<time>2017-12-04T12:05:56Z</time>
</trkpt>
<trkpt lat="53.5540216" lon="17.9098961">
<ele>132</ele>
<time>2017-12-04T12:06:02Z</time>
</trkpt>
<trkpt lat="53.5542984" lon="17.9084316">
<ele>131</ele>
<time>2017-12-04T12:06:08Z</time>
</trkpt>
<trkpt lat="53.5544814" lon="17.9069190">
<ele>132</ele>
<time>2017-12-04T12:06:14Z</time>
</trkpt>
<trkpt lat="53.5543994" lon="17.9053655">
<ele>130</ele>
<time>2017-12-04T12:06:20Z</time>
</trkpt>
<trkpt lat="53.5543330" lon="17.9037327">
<ele>126</ele>
<time>2017-12-04T12:06:26Z</time>
</trkpt>
<trkpt lat="53.5546497" lon="17.9021923">
<ele>127</ele>
<time>2017-12-04T12:06:32Z</time>
</trkpt>
<trkpt lat="53.5552861" lon="17.9012721">
<ele>126</ele>
<time>2017-12-04T12:06:38Z</time>
</trkpt>
<trkpt lat="53.5560886" lon="17.9011846">
<ele>127</ele>
<time>2017-12-04T12:06:44Z</time>
</trkpt>
<trkpt lat="53.5569215" lon="17.9012905">
<ele>129</ele>
<time>2017-12-04T12:06:50Z</time>
</trkpt>
<trkpt lat="53.5576981" lon="17.9013932">
<ele>134</ele>
<time>2017-12-04T12:06:56Z</time>
</trkpt>
<trkpt lat="53.5584189" lon="17.9015056">
<ele>135</ele>
<time>2017-12-04T12:07:02Z</time>
</trkpt>
<trkpt lat="53.5592610" lon="17.9016428">
<ele>134</ele>
<time>2017-12-04T12:07:08Z</time>
</trkpt>
<trkpt lat="53.5601032" lon="17.9016541">
<ele>131</ele>
<time>2017-12-04T12:07:14Z</time>
</trkpt>
<trkpt lat="53.5609544" lon="17.9013595">
<ele>126</ele>
<time>2017-12-04T12:07:20Z</time>
</trkpt>
<trkpt lat="53.5617490" lon="17.9010528">
<ele>124</ele>
<time>2017-12-04T12:07:26Z</time>
</trkpt>
<trkpt lat="53.5625504" lon="17.9009874">
<ele>125</ele>
<time>2017-12-04T12:07:32Z</time>
</trkpt>
<trkpt lat="53.5632854" lon="17.9007690">
<ele>127</ele>
<time>2017-12-04T12:07:38Z</time>
</trkpt>
<trkpt lat="53.5637330" lon="17.8998756">
<ele>127</ele>
<time>2017-12-04T12:07:44Z</time>
</trkpt>
<trkpt lat="53.5640822" lon="17.8989531">
<ele>124</ele>
<time>2017-12-04T12:07:50Z</time>
</trkpt>
<trkpt lat="53.5645182" lon="17.8981850">
<ele>125</ele>
<time>2017-12-04T12:07:56Z</time>
</trkpt>
<trkpt lat="53.5650016" lon="17.8974526">
<ele>128</ele>
<time>2017-12-04T12:08:02Z</time>
</trkpt>
<trkpt lat="53.5655064" lon="17.8967047">
<ele>129</ele>
<time>2017-12-04T12:08:08Z</time>
</trkpt>
<trkpt lat="53.5660343" lon="17.8959103">
<ele>129</ele>
<time>2017-12-04T12:08:14Z</time>
</trkpt>
<trkpt lat="53.5665757" lon="17.8950956">
<ele>130</ele>
<time>2017-12-04T12:08:20Z</time>
</trkpt>
<trkpt lat="53.5671261" lon="17.8942818">
<ele>131</ele>
<time>2017-12-04T12:08:26Z</time>
</trkpt>
<trkpt lat="53.5676879" lon="17.8934529">
<ele>132</ele>
<time>2017-12-04T12:08:32Z</time>
</trkpt>
<trkpt lat="53.5682666" lon="17.8926028">
<ele>133</ele>
<time>2017-12-04T12:08:38Z</time>
</trkpt>
<trkpt lat="53.5688662" lon="17.8917082">
<ele>134</ele>
<time>2017-12-04T12:08:44Z</time>
</trkpt>
<trkpt lat="53.5694858" lon="17.8907927">
<ele>134</ele>
<time>2017-12-04T12:08:50Z</time>
</trkpt>
<trkpt lat="53.5701262" lon="17.8898374">
<ele>134</ele>
<time>2017-12-04T12:08:56Z</time>
</trkpt>
<trkpt lat="53.5707826" lon="17.8888634">
<ele>135</ele>
<time>2017-12-04T12:09:02Z</time>
</trkpt>
<trkpt lat="53.5714148" lon="17.8879183">
<ele>136</ele>
<time>2017-12-04T12:09:08Z</time>
</trkpt>
<trkpt lat="53.5720011" lon="17.8870682">
<ele>137</ele>
<time>2017-12-04T12:09:14Z</time>
</trkpt>
<trkpt lat="53.5725774" lon="17.8862350">
<ele>137</ele>
<time>2017-12-04T12:09:20Z</time>
</trkpt>
<trkpt lat="53.5731523" lon="17.8853822">
<ele>137</ele>
<time>2017-12-04T12:09:26Z</time>
</trkpt>
<trkpt lat="53.5737623" lon="17.8844736">
<ele>139</ele>
<time>2017-12-04T12:09:32Z</time>
</trkpt>
<trkpt lat="53.5743715" lon="17.8835399">
<ele>140</ele>
<time>2017-12-04T12:09:38Z</time>
</trkpt>
<trkpt lat="53.5749771" lon="17.8826289">
<ele>141</ele>
<time>2017-12-04T12:09:44Z</time>
</trkpt>
<trkpt lat="53.5755914" lon="17.8816975">
<ele>142</ele>
<time>2017-12-04T12:09:50Z</time>
</trkpt>
<trkpt lat="53.5762249" lon="17.8807652">
<ele>141</ele>
<time>2017-12-04T12:09:56Z</time>
</trkpt>
<trkpt lat="53.5768414" lon="17.8798779">
<ele>141</ele>
<time>2017-12-04T12:10:02Z</time>
</trkpt>
<trkpt lat="53.5773683" lon="17.8791070">
<ele>141</ele>
<time>2017-12-04T12:10:08Z</time>
</trkpt>
<trkpt lat="53.5776724" lon="17.8786304">
<ele>141</ele>
<time>2017-12-04T12:10:14Z</time>
</trkpt>
<trkpt lat="53.5778117" lon="17.8784199">
<ele>141</ele>
<time>2017-12-04T12:10:20Z</time>
</trkpt>
<trkpt lat="53.5778132" lon="17.8784138">
<ele>141</ele>
<time>2017-12-04T12:10:26Z</time>
</trkpt>
<trkpt lat="53.5778132" lon="17.8784138">
<ele>141</ele>
<time>2017-12-04T12:10:32Z</time>
</trkpt>
<trkpt lat="53.5778132" lon="17.8784138">
<ele>141</ele>
<time>2017-12-04T12:10:38Z</time>
</trkpt>
<trkpt lat="53.5778132" lon="17.8784138">
<ele>141</ele>
<time>2017-12-04T12:10:44Z</time>
</trkpt>
<trkpt lat="53.5778132" lon="17.8784138">
<ele>141</ele>
<time>2017-12-04T12:10:50Z</time>
</trkpt>
<trkpt lat="53.5778132" lon="17.8784138">
<ele>141</ele>
<time>2017-12-04T12:10:56Z</time>
</trkpt>
<trkpt lat="53.5778132" lon="17.8784138">
<ele>141</ele>
<time>2017-12-04T12:11:02Z</time>
</trkpt>
<trkpt lat="53.5778132" lon="17.8784138">
<ele>141</ele>
<time>2017-12-04T12:11:08Z</time>
</trkpt>
<trkpt lat="53.5778132" lon="17.8784138">
<ele>141</ele>
<time>2017-12-04T12:11:14Z</time>
</trkpt>
<trkpt lat="53.5778132" lon="17.8784138">
<ele>141</ele>
<time>2017-12-04T12:11:20Z</time>
</trkpt>
<trkpt lat="53.5778132" lon="17.8784138">
<ele>141</ele>
<time>2017-12-04T12:11:26Z</time>
</trkpt>
<trkpt lat="53.5778132" lon="17.8784138">
<ele>141</ele>
<time>2017-12-04T12:11:32Z</time>
</trkpt>
<trkpt lat="53.5778132" lon="17.8784138">
<ele>141</ele>
<time>2017-12-04T12:11:38Z</time>
</trkpt>
<trkpt lat="53.5778132" lon="17.8784138">
<ele>141</ele>
<time>2017-12-04T12:11:44Z</time>
</trkpt>
<trkpt lat="53.5778132" lon="17.8784138">
<ele>141</ele>
<time>2017-12-04T12:11:50Z</time>
</trkpt>
<trkpt lat="53.5778132" lon="17.8784138">
<ele>141</ele>
<time>2017-12-04T12:11:56Z</time>
</trkpt>
<trkpt lat="53.5778132" lon="17.8784138">
<ele>141</ele>
<time>2017-12-04T12:12:02Z</time>
</trkpt>
<trkpt lat="53.5778132" lon="17.8784138">
<ele>141</ele>
<time>2017-12-04T12:12:08Z</time>
</trkpt>
<trkpt lat="53.5778132" lon="17.8784138">
<ele>141</ele>
<time>2017-12-04T12:12:14Z</time>
</trkpt>
<trkpt lat="53.5778132" lon="17.8784138">
<ele>141</ele>
<time>2017-12-04T12:12:20Z</time>
</trkpt>
<trkpt lat="53.5778834" lon="17.8783383">
<ele>141</ele>
<time>2017-12-04T12:12:26Z</time>
</trkpt>
<trkpt lat="53.5780528" lon="17.8780986">
<ele>141</ele>
<time>2017-12-04T12:12:32Z</time>
</trkpt>
<trkpt lat="53.5782428" lon="17.8778458">
<ele>141</ele>
<time>2017-12-04T12:12:38Z</time>
</trkpt>
<trkpt lat="53.5783199" lon="17.8777554">
<ele>140</ele>
<time>2017-12-04T12:12:44Z</time>
</trkpt>
<trkpt lat="53.5784544" lon="17.8775521">
<ele>139</ele>
<time>2017-12-04T12:12:50Z</time>
</trkpt>
<trkpt lat="53.5786419" lon="17.8771920">
<ele>139</ele>
<time>2017-12-04T12:12:56Z</time>
</trkpt>
<trkpt lat="53.5788664" lon="17.8767001">
<ele>140</ele>
<time>2017-12-04T12:13:02Z</time>
</trkpt>
<trkpt lat="53.5791224" lon="17.8761029">
<ele>141</ele>
<time>2017-12-04T12:13:08Z</time>
</trkpt>
<trkpt lat="53.5793639" lon="17.8755282">
<ele>142</ele>
<time>2017-12-04T12:13:14Z</time>
</trkpt>
<trkpt lat="53.5795702" lon="17.8750465">
<ele>141</ele>
<time>2017-12-04T12:13:20Z</time>
</trkpt>
<trkpt lat="53.5797471" lon="17.8746395">
<ele>142</ele>
<time>2017-12-04T12:13:26Z</time>
</trkpt>
<trkpt lat="53.5799491" lon="17.8741804">
<ele>141</ele>
<time>2017-12-04T12:13:32Z</time>
</trkpt>
<trkpt lat="53.5802038" lon="17.8736223">
<ele>141</ele>
<time>2017-12-04T12:13:38Z</time>
</trkpt>
<trkpt lat="53.5804738" lon="17.8730408">
<ele>141</ele>
<time>2017-12-04T12:13:44Z</time>
</trkpt>
<trkpt lat="53.5807248" lon="17.8724745">
<ele>140</ele>
<time>2017-12-04T12:13:50Z</time>
</trkpt>
<trkpt lat="53.5809615" lon="17.8719286">
<ele>141</ele>
<time>2017-12-04T12:13:56Z</time>
</trkpt>
<trkpt lat="53.5811637" lon="17.8715068">
<ele>141</ele>
<time>2017-12-04T12:14:02Z</time>
</trkpt>
<trkpt lat="53.5813922" lon="17.8713325">
<ele>141</ele>
<time>2017-12-04T12:14:08Z</time>
</trkpt>
<trkpt lat="53.5814745" lon="17.8714839">
<ele>140</ele>
<time>2017-12-04T12:14:14Z</time>
</trkpt>
<trkpt lat="53.5816614" lon="17.8716750">
<ele>139</ele>
<time>2017-12-04T12:14:20Z</time>
</trkpt>
<trkpt lat="53.5820058" lon="17.8721014">
<ele>139</ele>
<time>2017-12-04T12:14:26Z</time>
</trkpt>
<trkpt lat="53.5824318" lon="17.8726446">
<ele>140</ele>
<time>2017-12-04T12:14:32Z</time>
</trkpt>
<trkpt lat="53.5828770" lon="17.8732309">
<ele>141</ele>
<time>2017-12-04T12:14:38Z</time>
</trkpt>
<trkpt lat="53.5833092" lon="17.8737663">
<ele>142</ele>
<time>2017-12-04T12:14:44Z</time>
</trkpt>
<trkpt lat="53.5837188" lon="17.8742653">
<ele>144</ele>
<time>2017-12-04T12:14:50Z</time>
</trkpt>
<trkpt lat="53.5841145" lon="17.8747522">
<ele>144</ele>
<time>2017-12-04T12:14:56Z</time>
</trkpt>
<trkpt lat="53.5845317" lon="17.8752668">
<ele>146</ele>
<time>2017-12-04T12:15:02Z</time>
</trkpt>
<trkpt lat="53.5849108" lon="17.8757892">
<ele>146</ele>
<time>2017-12-04T12:15:08Z</time>
</trkpt>
<trkpt lat="53.5852783" lon="17.8761078">
<ele>147</ele>
<time>2017-12-04T12:15:14Z</time>
</trkpt>
<trkpt lat="53.5856062" lon="17.8755847">
<ele>146</ele>
<time>2017-12-04T12:15:20Z</time>
</trkpt>
<trkpt lat="53.5858319" lon="17.8748630">
<ele>145</ele>
<time>2017-12-04T12:15:26Z</time>
</trkpt>
<trkpt lat="53.5860282" lon="17.8742126">
<ele>144</ele>
<time>2017-12-04T12:15:32Z</time>
</trkpt>
<trkpt lat="53.5861470" lon="17.8738648">
<ele>145</ele>
<time>2017-12-04T12:15:38Z</time>
</trkpt>
<trkpt lat="53.5863401" lon="17.8732725">
<ele>145</ele>
<time>2017-12-04T12:15:44Z</time>
</trkpt>
<trkpt lat="53.5865645" lon="17.8725503">
<ele>145</ele>
<time>2017-12-04T12:15:50Z</time>
</trkpt>
<trkpt lat="53.5868089" lon="17.8719306">
<ele>145</ele>
<time>2017-12-04T12:15:56Z</time>
</trkpt>
<trkpt lat="53.5869611" lon="17.8715858">
<ele>144</ele>
<time>2017-12-04T12:16:02Z</time>
</trkpt>
<trkpt lat="53.5870356" lon="17.8716355">
<ele>144</ele>
<time>2017-12-04T12:16:08Z</time>
</trkpt>
<trkpt lat="53.5870533" lon="17.8716716">
<ele>143</ele>
<time>2017-12-04T12:16:14Z</time>
</trkpt>
<trkpt lat="53.5870482" lon="17.8717236">
<ele>143</ele>
<time>2017-12-04T12:16:20Z</time>
</trkpt>
<trkpt lat="53.5870482" lon="17.8717236">
<ele>143</ele>
<time>2017-12-04T12:16:26Z</time>
</trkpt>
<trkpt lat="53.5870482" lon="17.8717236">
<ele>143</ele>
<time>2017-12-04T12:16:32Z</time>
</trkpt>
<trkpt lat="53.5870482" lon="17.8717236">
<ele>143</ele>
<time>2017-12-04T12:16:38Z</time>
</trkpt>
<trkpt lat="53.5870482" lon="17.8717236">
<ele>143</ele>
<time>2017-12-04T12:16:44Z</time>
</trkpt>
<trkpt lat="53.5870551" lon="17.8717302">
<ele>143</ele>
<time>2017-12-04T12:16:50Z</time>
</trkpt>
<trkpt lat="53.5870551" lon="17.8717302">
<ele>143</ele>
<time>2017-12-04T12:16:56Z</time>
</trkpt>
<trkpt lat="53.5870551" lon="17.8717302">
<ele>143</ele>
<time>2017-12-04T12:17:02Z</time>
</trkpt>
<trkpt lat="53.5870551" lon="17.8717302">
<ele>143</ele>
<time>2017-12-04T12:17:08Z</time>
</trkpt>
<trkpt lat="53.5870551" lon="17.8717302">
<ele>143</ele>
<time>2017-12-04T12:17:14Z</time>
</trkpt>
<trkpt lat="53.5870551" lon="17.8717302">
<ele>143</ele>
<time>2017-12-04T12:17:20Z</time>
</trkpt>
<trkpt lat="53.5870551" lon="17.8717302">
<ele>143</ele>
<time>2017-12-04T12:17:26Z</time>
</trkpt>
<trkpt lat="53.5870551" lon="17.8717302">
<ele>143</ele>
<time>2017-12-04T12:17:32Z</time>
</trkpt>
<trkpt lat="53.5870551" lon="17.8717302">
<ele>143</ele>
<time>2017-12-04T12:17:38Z</time>
</trkpt>
<trkpt lat="53.5870551" lon="17.8717302">
<ele>143</ele>
<time>2017-12-04T12:17:44Z</time>
</trkpt>
<trkpt lat="53.5870551" lon="17.8717302">
<ele>143</ele>
<time>2017-12-04T12:17:50Z</time>
</trkpt>
<trkpt lat="53.5870551" lon="17.8717302">
<ele>143</ele>
<time>2017-12-04T12:17:56Z</time>
</trkpt>
<trkpt lat="53.5870551" lon="17.8717302">
<ele>143</ele>
<time>2017-12-04T12:18:02Z</time>
</trkpt>
<trkpt lat="53.5870551" lon="17.8717302">
<ele>143</ele>
<time>2017-12-04T12:18:08Z</time>
</trkpt>
<trkpt lat="53.5870551" lon="17.8717302">
<ele>143</ele>
<time>2017-12-04T12:18:14Z</time>
</trkpt>
<trkpt lat="53.5870551" lon="17.8717302">
<ele>143</ele>
<time>2017-12-04T12:18:20Z</time>
</trkpt>
<trkpt lat="53.5870551" lon="17.8717302">
<ele>143</ele>
<time>2017-12-04T12:18:26Z</time>
</trkpt>
<trkpt lat="53.5870551" lon="17.8717302">
<ele>143</ele>
<time>2017-12-04T12:18:32Z</time>
</trkpt>
<trkpt lat="53.5870551" lon="17.8717302">
<ele>143</ele>
<time>2017-12-04T12:18:38Z</time>
</trkpt>
<trkpt lat="53.5870551" lon="17.8717302">
<ele>143</ele>
<time>2017-12-04T12:18:44Z</time>
</trkpt>
<trkpt lat="53.5870551" lon="17.8717302">
<ele>143</ele>
<time>2017-12-04T12:18:50Z</time>
</trkpt>
<trkpt lat="53.5870551" lon="17.8717302">
<ele>143</ele>
<time>2017-12-04T12:18:56Z</time>
</trkpt>
<trkpt lat="53.5870901" lon="17.8717439">
<ele>143</ele>
<time>2017-12-04T12:19:02Z</time>
</trkpt>
<trkpt lat="53.5871522" lon="17.8716745">
<ele>143</ele>
<time>2017-12-04T12:19:08Z</time>
</trkpt>
<trkpt lat="53.5871850" lon="17.8715936">
<ele>142</ele>
<time>2017-12-04T12:19:14Z</time>
</trkpt>
<trkpt lat="53.5872025" lon="17.8715574">
<ele>141</ele>
<time>2017-12-04T12:19:20Z</time>
</trkpt>
<trkpt lat="53.5872311" lon="17.8715054">
<ele>141</ele>
<time>2017-12-04T12:19:26Z</time>
</trkpt>
<trkpt lat="53.5872747" lon="17.8714301">
<ele>142</ele>
<time>2017-12-04T12:19:32Z</time>
</trkpt>
<trkpt lat="53.5873109" lon="17.8713594">
<ele>141</ele>
<time>2017-12-04T12:19:38Z</time>
</trkpt>
<trkpt lat="53.5873600" lon="17.8713616">
<ele>141</ele>
<time>2017-12-04T12:19:44Z</time>
</trkpt>
<trkpt lat="53.5873648" lon="17.8713673">
<ele>140</ele>
<time>2017-12-04T12:19:50Z</time>
</trkpt>
<trkpt lat="53.5873648" lon="17.8713673">
<ele>140</ele>
<time>2017-12-04T12:19:56Z</time>
</trkpt>
<trkpt lat="53.5873357" lon="17.8713664">
<ele>140</ele>
<time>2017-12-04T12:20:02Z</time>
</trkpt>
<trkpt lat="53.5873357" lon="17.8713664">
<ele>140</ele>
<time>2017-12-04T12:20:08Z</time>
</trkpt>
<trkpt lat="53.5873357" lon="17.8713664">
<ele>140</ele>
<time>2017-12-04T12:20:14Z</time>
</trkpt>
<trkpt lat="53.5873357" lon="17.8713664">
<ele>140</ele>
<time>2017-12-04T12:20:20Z</time>
</trkpt>
<trkpt lat="53.5873357" lon="17.8713664">
<ele>140</ele>
<time>2017-12-04T12:20:26Z</time>
</trkpt>
<trkpt lat="53.5873357" lon="17.8713664">
<ele>140</ele>
<time>2017-12-04T12:20:32Z</time>
</trkpt>
<trkpt lat="53.5873357" lon="17.8713664">
<ele>140</ele>
<time>2017-12-04T12:20:38Z</time>
</trkpt>
<trkpt lat="53.5873357" lon="17.8713664">
<ele>140</ele>
<time>2017-12-04T12:20:44Z</time>
</trkpt>
<trkpt lat="53.5873357" lon="17.8713664">
<ele>140</ele>
<time>2017-12-04T12:20:50Z</time>
</trkpt>
<trkpt lat="53.5873357" lon="17.8713664">
<ele>140</ele>
<time>2017-12-04T12:20:56Z</time>
</trkpt>
<trkpt lat="53.5873493" lon="17.8713636">
<ele>140</ele>
<time>2017-12-04T12:21:02Z</time>
</trkpt>
<trkpt lat="53.5873890" lon="17.8713453">
<ele>141</ele>
<time>2017-12-04T12:21:08Z</time>
</trkpt>
<trkpt lat="53.5873890" lon="17.8713453">
<ele>141</ele>
<time>2017-12-04T12:21:14Z</time>
</trkpt>
<trkpt lat="53.5874089" lon="17.8713566">
<ele>143</ele>
<time>2017-12-04T12:21:20Z</time>
</trkpt>
<trkpt lat="53.5874089" lon="17.8713566">
<ele>143</ele>
<time>2017-12-04T12:21:26Z</time>
</trkpt>
<trkpt lat="53.5874089" lon="17.8713566">
<ele>143</ele>
<time>2017-12-04T12:21:32Z</time>
</trkpt>
<trkpt lat="53.5874089" lon="17.8713566">
<ele>143</ele>
<time>2017-12-04T12:21:38Z</time>
</trkpt>
<trkpt lat="53.5874089" lon="17.8713566">
<ele>143</ele>
<time>2017-12-04T12:21:44Z</time>
</trkpt>
<trkpt lat="53.5874119" lon="17.8713682">
<ele>143</ele>
<time>2017-12-04T12:21:50Z</time>
</trkpt>
<trkpt lat="53.5874421" lon="17.8714355">
<ele>145</ele>
<time>2017-12-04T12:21:56Z</time>
</trkpt>
<trkpt lat="53.5874421" lon="17.8714355">
<ele>145</ele>
<time>2017-12-04T12:22:02Z</time>
</trkpt>
<trkpt lat="53.5874421" lon="17.8714355">
<ele>145</ele>
<time>2017-12-04T12:22:08Z</time>
</trkpt>
<trkpt lat="53.5874421" lon="17.8714355">
<ele>145</ele>
<time>2017-12-04T12:22:14Z</time>
</trkpt>
<trkpt lat="53.5874421" lon="17.8714355">
<ele>145</ele>
<time>2017-12-04T12:22:20Z</time>
</trkpt>
<trkpt lat="53.5874421" lon="17.8714355">
<ele>145</ele>
<time>2017-12-04T12:22:26Z</time>
</trkpt>
<trkpt lat="53.5874421" lon="17.8714355">
<ele>145</ele>
<time>2017-12-04T12:22:32Z</time>
</trkpt>
<trkpt lat="53.5874421" lon="17.8714355">
<ele>145</ele>
<time>2017-12-04T12:22:38Z</time>
</trkpt>
<trkpt lat="53.5874421" lon="17.8714355">
<ele>145</ele>
<time>2017-12-04T12:22:44Z</time>
</trkpt>
<trkpt lat="53.5874421" lon="17.8714355">
<ele>145</ele>
<time>2017-12-04T12:22:50Z</time>
</trkpt>
<trkpt lat="53.5874421" lon="17.8714355">
<ele>145</ele>
<time>2017-12-04T12:22:56Z</time>
</trkpt>
<trkpt lat="53.5874421" lon="17.8714355">
<ele>145</ele>
<time>2017-12-04T12:23:02Z</time>
</trkpt>
<trkpt lat="53.5874421" lon="17.8714355">
<ele>145</ele>
<time>2017-12-04T12:23:08Z</time>
</trkpt>
<trkpt lat="53.5874421" lon="17.8714355">
<ele>145</ele>
<time>2017-12-04T12:23:14Z</time>
</trkpt>
<trkpt lat="53.5874676" lon="17.8714413">
<ele>147</ele>
<time>2017-12-04T12:23:20Z</time>
</trkpt>
<trkpt lat="53.5874676" lon="17.8714413">
<ele>147</ele>
<time>2017-12-04T12:23:26Z</time>
</trkpt>
<trkpt lat="53.5874676" lon="17.8714413">
<ele>147</ele>
<time>2017-12-04T12:23:32Z</time>
</trkpt>
<trkpt lat="53.5874676" lon="17.8714413">
<ele>147</ele>
<time>2017-12-04T12:23:38Z</time>
</trkpt>
<trkpt lat="53.5874676" lon="17.8714413">
<ele>147</ele>
<time>2017-12-04T12:23:44Z</time>
</trkpt>
<trkpt lat="53.5874676" lon="17.8714413">
<ele>147</ele>
<time>2017-12-04T12:23:50Z</time>
</trkpt>
<trkpt lat="53.5874676" lon="17.8714413">
<ele>147</ele>
<time>2017-12-04T12:23:56Z</time>
</trkpt>
<trkpt lat="53.5874676" lon="17.8714413">
<ele>147</ele>
<time>2017-12-04T12:24:02Z</time>
</trkpt>
<trkpt lat="53.5874676" lon="17.8714413">
<ele>147</ele>
<time>2017-12-04T12:24:08Z</time>
</trkpt>
<trkpt lat="53.5874676" lon="17.8714413">
<ele>147</ele>
<time>2017-12-04T12:24:14Z</time>
</trkpt>
<trkpt lat="53.5874676" lon="17.8714413">
<ele>147</ele>
<time>2017-12-04T12:24:20Z</time>
</trkpt>
<trkpt lat="53.5874676" lon="17.8714413">
<ele>147</ele>
<time>2017-12-04T12:24:26Z</time>
</trkpt>
<trkpt lat="53.5874676" lon="17.8714413">
<ele>147</ele>
<time>2017-12-04T12:24:32Z</time>
</trkpt>
<trkpt lat="53.5874676" lon="17.8714413">
<ele>147</ele>
<time>2017-12-04T12:24:38Z</time>
</trkpt>
<trkpt lat="53.5874799" lon="17.8714503">
<ele>147</ele>
<time>2017-12-04T12:24:44Z</time>
</trkpt>
<trkpt lat="53.5874865" lon="17.8714468">
<ele>147</ele>
<time>2017-12-04T12:24:50Z</time>
</trkpt>
<trkpt lat="53.5874865" lon="17.8714468">
<ele>147</ele>
<time>2017-12-04T12:24:56Z</time>
</trkpt>
<trkpt lat="53.5874865" lon="17.8714468">
<ele>147</ele>
<time>2017-12-04T12:25:02Z</time>
</trkpt>
<trkpt lat="53.5874865" lon="17.8714468">
<ele>147</ele>
<time>2017-12-04T12:25:08Z</time>
</trkpt>
<trkpt lat="53.5874865" lon="17.8714468">
<ele>147</ele>
<time>2017-12-04T12:25:14Z</time>
</trkpt>
<trkpt lat="53.5874865" lon="17.8714468">
<ele>147</ele>
<time>2017-12-04T12:25:20Z</time>
</trkpt>
<trkpt lat="53.5874865" lon="17.8714468">
<ele>147</ele>
<time>2017-12-04T12:25:26Z</time>
</trkpt>
<trkpt lat="53.5874865" lon="17.8714468">
<ele>147</ele>
<time>2017-12-04T12:25:32Z</time>
</trkpt>
<trkpt lat="53.5874865" lon="17.8714468">
<ele>147</ele>
<time>2017-12-04T12:25:38Z</time>
</trkpt>
<trkpt lat="53.5874865" lon="17.8714468">
<ele>147</ele>
<time>2017-12-04T12:25:44Z</time>
</trkpt>
<trkpt lat="53.5874865" lon="17.8714468">
<ele>147</ele>
<time>2017-12-04T12:25:50Z</time>
</trkpt>
<trkpt lat="53.5874865" lon="17.8714468">
<ele>147</ele>
<time>2017-12-04T12:25:56Z</time>
</trkpt>
<trkpt lat="53.5874865" lon="17.8714468">
<ele>147</ele>
<time>2017-12-04T12:26:02Z</time>
</trkpt>
<trkpt lat="53.5874865" lon="17.8714468">
<ele>147</ele>
<time>2017-12-04T12:26:08Z</time>
</trkpt>
<trkpt lat="53.5874865" lon="17.8714468">
<ele>147</ele>
<time>2017-12-04T12:26:14Z</time>
</trkpt>
<trkpt lat="53.5874865" lon="17.8714468">
<ele>147</ele>
<time>2017-12-04T12:26:20Z</time>
</trkpt>
<trkpt lat="53.5874865" lon="17.8714468">
<ele>147</ele>
<time>2017-12-04T12:26:26Z</time>
</trkpt>
<trkpt lat="53.5874865" lon="17.8714468">
<ele>147</ele>
<time>2017-12-04T12:26:32Z</time>
</trkpt>
<trkpt lat="53.5874865" lon="17.8714468">
<ele>147</ele>
<time>2017-12-04T12:26:38Z</time>
</trkpt>
<trkpt lat="53.5874865" lon="17.8714468">
<ele>147</ele>
<time>2017-12-04T12:26:44Z</time>
</trkpt>
<trkpt lat="53.5874865" lon="17.8714468">
<ele>147</ele>
<time>2017-12-04T12:26:50Z</time>
</trkpt>
<trkpt lat="53.5874865" lon="17.8714468">
<ele>147</ele>
<time>2017-12-04T12:26:56Z</time>
</trkpt>
<trkpt lat="53.5874865" lon="17.8714468">
<ele>147</ele>
<time>2017-12-04T12:27:02Z</time>
</trkpt>
<trkpt lat="53.5874865" lon="17.8714468">
<ele>147</ele>
<time>2017-12-04T12:27:08Z</time>
</trkpt>
<trkpt lat="53.5874865" lon="17.8714468">
<ele>147</ele>
<time>2017-12-04T12:27:14Z</time>
</trkpt>
<trkpt lat="53.5874865" lon="17.8714468">
<ele>147</ele>
<time>2017-12-04T12:27:20Z</time>
</trkpt>
<trkpt lat="53.5874865" lon="17.8714468">
<ele>147</ele>
<time>2017-12-04T12:27:26Z</time>
</trkpt>
<trkpt lat="53.5875145" lon="17.8714594">
<ele>146</ele>
<time>2017-12-04T12:27:32Z</time>
</trkpt>
<trkpt lat="53.5875342" lon="17.8714866">
<ele>146</ele>
<time>2017-12-04T12:27:38Z</time>
</trkpt>
<trkpt lat="53.5875342" lon="17.8714866">
<ele>146</ele>
<time>2017-12-04T12:27:44Z</time>
</trkpt>
<trkpt lat="53.5875342" lon="17.8714866">
<ele>146</ele>
<time>2017-12-04T12:27:50Z</time>
</trkpt>
<trkpt lat="53.5875342" lon="17.8714866">
<ele>146</ele>
<time>2017-12-04T12:27:56Z</time>
</trkpt>
<trkpt lat="53.5875342" lon="17.8714866">
<ele>146</ele>
<time>2017-12-04T12:28:02Z</time>
</trkpt>
<trkpt lat="53.5875342" lon="17.8714866">
<ele>146</ele>
<time>2017-12-04T12:28:08Z</time>
</trkpt>
<trkpt lat="53.5875342" lon="17.8714866">
<ele>146</ele>
<time>2017-12-04T12:28:14Z</time>
</trkpt>
<trkpt lat="53.5875342" lon="17.8714866">
<ele>146</ele>
<time>2017-12-04T12:28:20Z</time>
</trkpt>
<trkpt lat="53.5875342" lon="17.8714866">
<ele>146</ele>
<time>2017-12-04T12:28:26Z</time>
</trkpt>
<trkpt lat="53.5875351" lon="17.8715051">
<ele>145</ele>
<time>2017-12-04T12:28:32Z</time>
</trkpt>
<trkpt lat="53.5875352" lon="17.8715231">
<ele>145</ele>
<time>2017-12-04T12:28:38Z</time>
</trkpt>
<trkpt lat="53.5875352" lon="17.8715231">
<ele>145</ele>
<time>2017-12-04T12:28:44Z</time>
</trkpt>
<trkpt lat="53.5875416" lon="17.8714866">
<ele>144</ele>
<time>2017-12-04T12:28:50Z</time>
</trkpt>
<trkpt lat="53.5875416" lon="17.8714866">
<ele>144</ele>
<time>2017-12-04T12:28:56Z</time>
</trkpt>
<trkpt lat="53.5875416" lon="17.8714866">
<ele>144</ele>
<time>2017-12-04T12:29:02Z</time>
</trkpt>
<trkpt lat="53.5875416" lon="17.8714866">
<ele>144</ele>
<time>2017-12-04T12:29:08Z</time>
</trkpt>
<trkpt lat="53.5875416" lon="17.8714866">
<ele>144</ele>
<time>2017-12-04T12:29:14Z</time>
</trkpt>
<trkpt lat="53.5875416" lon="17.8714866">
<ele>144</ele>
<time>2017-12-04T12:29:20Z</time>
</trkpt>
<trkpt lat="53.5875636" lon="17.8714954">
<ele>145</ele>
<time>2017-12-04T12:29:26Z</time>
</trkpt>
<trkpt lat="53.5875733" lon="17.8715050">
<ele>145</ele>
<time>2017-12-04T12:29:32Z</time>
</trkpt>
<trkpt lat="53.5875733" lon="17.8715050">
<ele>145</ele>
<time>2017-12-04T12:29:38Z</time>
</trkpt>
<trkpt lat="53.5875733" lon="17.8715050">
<ele>145</ele>
<time>2017-12-04T12:29:44Z</time>
</trkpt>
<trkpt lat="53.5875645" lon="17.8714975">
<ele>145</ele>
<time>2017-12-04T12:29:50Z</time>
</trkpt>
<trkpt lat="53.5875645" lon="17.8714975">
<ele>145</ele>
<time>2017-12-04T12:29:56Z</time>
</trkpt>
<trkpt lat="53.5876270" lon="17.8714523">
<ele>145</ele>
<time>2017-12-04T12:30:02Z</time>
</trkpt>
<trkpt lat="53.5876270" lon="17.8714523">
<ele>145</ele>
<time>2017-12-04T12:30:08Z</time>
</trkpt>
<trkpt lat="53.5876309" lon="17.8713590">
<ele>144</ele>
<time>2017-12-04T12:30:14Z</time>
</trkpt>
<trkpt lat="53.5876755" lon="17.8713850">
<ele>142</ele>
<time>2017-12-04T12:30:20Z</time>
</trkpt>
<trkpt lat="53.5876755" lon="17.8713850">
<ele>142</ele>
<time>2017-12-04T12:30:26Z</time>
</trkpt>
<trkpt lat="53.5876755" lon="17.8713850">
<ele>142</ele>
<time>2017-12-04T12:30:32Z</time>
</trkpt>
<trkpt lat="53.5876755" lon="17.8713850">
<ele>142</ele>
<time>2017-12-04T12:30:38Z</time>
</trkpt>
<trkpt lat="53.5876755" lon="17.8713850">
<ele>142</ele>
<time>2017-12-04T12:30:44Z</time>
</trkpt>
<trkpt lat="53.5876755" lon="17.8713850">
<ele>142</ele>
<time>2017-12-04T12:30:50Z</time>
</trkpt>
<trkpt lat="53.5876755" lon="17.8713850">
<ele>142</ele>
<time>2017-12-04T12:30:56Z</time>
</trkpt>
<trkpt lat="53.5876755" lon="17.8713850">
<ele>142</ele>
<time>2017-12-04T12:31:02Z</time>
</trkpt>
<trkpt lat="53.5876755" lon="17.8713850">
<ele>142</ele>
<time>2017-12-04T12:31:08Z</time>
</trkpt>
<trkpt lat="53.5876755" lon="17.8713850">
<ele>142</ele>
<time>2017-12-04T12:31:14Z</time>
</trkpt>
<trkpt lat="53.5876755" lon="17.8713850">
<ele>142</ele>
<time>2017-12-04T12:31:20Z</time>
</trkpt>
<trkpt lat="53.5876755" lon="17.8713850">
<ele>142</ele>
<time>2017-12-04T12:31:26Z</time>
</trkpt>
<trkpt lat="53.5876958" lon="17.8713750">
<ele>143</ele>
<time>2017-12-04T12:31:32Z</time>
</trkpt>
<trkpt lat="53.5876979" lon="17.8713643">
<ele>144</ele>
<time>2017-12-04T12:31:38Z</time>
</trkpt>
<trkpt lat="53.5876979" lon="17.8713643">
<ele>144</ele>
<time>2017-12-04T12:31:44Z</time>
</trkpt>
<trkpt lat="53.5876979" lon="17.8713643">
<ele>144</ele>
<time>2017-12-04T12:31:50Z</time>
</trkpt>
<trkpt lat="53.5876979" lon="17.8713643">
<ele>144</ele>
<time>2017-12-04T12:31:56Z</time>
</trkpt>
<trkpt lat="53.5877351" lon="17.8713635">
<ele>143</ele>
<time>2017-12-04T12:32:02Z</time>
</trkpt>
<trkpt lat="53.5877943" lon="17.8714038">
<ele>141</ele>
<time>2017-12-04T12:32:08Z</time>
</trkpt>
<trkpt lat="53.5877921" lon="17.8714107">
<ele>140</ele>
<time>2017-12-04T12:32:14Z</time>
</trkpt>
<trkpt lat="53.5877907" lon="17.8714195">
<ele>141</ele>
<time>2017-12-04T12:32:20Z</time>
</trkpt>
<trkpt lat="53.5877845" lon="17.8714269">
<ele>141</ele>
<time>2017-12-04T12:32:26Z</time>
</trkpt>
<trkpt lat="53.5877845" lon="17.8714269">
<ele>141</ele>
<time>2017-12-04T12:32:32Z</time>
</trkpt>
<trkpt lat="53.5877845" lon="17.8714269">
<ele>141</ele>
<time>2017-12-04T12:32:38Z</time>
</trkpt>
<trkpt lat="53.5877845" lon="17.8714269">
<ele>141</ele>
<time>2017-12-04T12:32:44Z</time>
</trkpt>
<trkpt lat="53.5877845" lon="17.8714269">
<ele>141</ele>
<time>2017-12-04T12:32:50Z</time>
</trkpt>
<trkpt lat="53.5877845" lon="17.8714269">
<ele>141</ele>
<time>2017-12-04T12:32:56Z</time>
</trkpt>
<trkpt lat="53.5877845" lon="17.8714269">
<ele>141</ele>
<time>2017-12-04T12:33:02Z</time>
</trkpt>
<trkpt lat="53.5877845" lon="17.8714269">
<ele>141</ele>
<time>2017-12-04T12:33:08Z</time>
</trkpt>
<trkpt lat="53.5877845" lon="17.8714269">
<ele>141</ele>
<time>2017-12-04T12:33:14Z</time>
</trkpt>
<trkpt lat="53.5877845" lon="17.8714269">
<ele>141</ele>
<time>2017-12-04T12:33:20Z</time>
</trkpt>
<trkpt lat="53.5877736" lon="17.8714315">
<ele>141</ele>
<time>2017-12-04T12:33:26Z</time>
</trkpt>
<trkpt lat="53.5877755" lon="17.8714403">
<ele>141</ele>
<time>2017-12-04T12:33:32Z</time>
</trkpt>
<trkpt lat="53.5877755" lon="17.8714403">
<ele>141</ele>
<time>2017-12-04T12:33:38Z</time>
</trkpt>
<trkpt lat="53.5877755" lon="17.8714403">
<ele>141</ele>
<time>2017-12-04T12:33:44Z</time>
</trkpt>
<trkpt lat="53.5877755" lon="17.8714403">
<ele>141</ele>
<time>2017-12-04T12:33:50Z</time>
</trkpt>
<trkpt lat="53.5877755" lon="17.8714403">
<ele>141</ele>
<time>2017-12-04T12:33:56Z</time>
</trkpt>
<trkpt lat="53.5877755" lon="17.8714403">
<ele>141</ele>
<time>2017-12-04T12:34:02Z</time>
</trkpt>
<trkpt lat="53.5877755" lon="17.8714403">
<ele>141</ele>
<time>2017-12-04T12:34:08Z</time>
</trkpt>
<trkpt lat="53.5877755" lon="17.8714403">
<ele>141</ele>
<time>2017-12-04T12:34:14Z</time>
</trkpt>
<trkpt lat="53.5877755" lon="17.8714403">
<ele>141</ele>
<time>2017-12-04T12:34:20Z</time>
</trkpt>
<trkpt lat="53.5877755" lon="17.8714403">
<ele>141</ele>
<time>2017-12-04T12:34:26Z</time>
</trkpt>
<trkpt lat="53.5877755" lon="17.8714403">
<ele>141</ele>
<time>2017-12-04T12:34:32Z</time>
</trkpt>
<trkpt lat="53.5877755" lon="17.8714403">
<ele>141</ele>
<time>2017-12-04T12:34:38Z</time>
</trkpt>
<trkpt lat="53.5877755" lon="17.8714403">
<ele>141</ele>
<time>2017-12-04T12:34:44Z</time>
</trkpt>
<trkpt lat="53.5877755" lon="17.8714403">
<ele>141</ele>
<time>2017-12-04T12:34:50Z</time>
</trkpt>
<trkpt lat="53.5877563" lon="17.8714496">
<ele>141</ele>
<time>2017-12-04T12:34:56Z</time>
</trkpt>
<trkpt lat="53.5877563" lon="17.8714496">
<ele>141</ele>
<time>2017-12-04T12:35:02Z</time>
</trkpt>
<trkpt lat="53.5877563" lon="17.8714496">
<ele>141</ele>
<time>2017-12-04T12:35:08Z</time>
</trkpt>
<trkpt lat="53.5877563" lon="17.8714496">
<ele>141</ele>
<time>2017-12-04T12:35:14Z</time>
</trkpt>
<trkpt lat="53.5877563" lon="17.8714496">
<ele>141</ele>
<time>2017-12-04T12:35:20Z</time>
</trkpt>
<trkpt lat="53.5877563" lon="17.8714496">
<ele>141</ele>
<time>2017-12-04T12:35:26Z</time>
</trkpt>
<trkpt lat="53.5877563" lon="17.8714496">
<ele>141</ele>
<time>2017-12-04T12:35:32Z</time>
</trkpt>
<trkpt lat="53.5877563" lon="17.8714496">
<ele>141</ele>
<time>2017-12-04T12:35:38Z</time>
</trkpt>
<trkpt lat="53.5877563" lon="17.8714496">
<ele>141</ele>
<time>2017-12-04T12:35:44Z</time>
</trkpt>
<trkpt lat="53.5877563" lon="17.8714496">
<ele>141</ele>
<time>2017-12-04T12:35:50Z</time>
</trkpt>
<trkpt lat="53.5877563" lon="17.8714496">
<ele>141</ele>
<time>2017-12-04T12:35:56Z</time>
</trkpt>
<trkpt lat="53.5877622" lon="17.8714564">
<ele>141</ele>
<time>2017-12-04T12:36:02Z</time>
</trkpt>
<trkpt lat="53.5877622" lon="17.8714564">
<ele>141</ele>
<time>2017-12-04T12:36:08Z</time>
</trkpt>
<trkpt lat="53.5877622" lon="17.8714564">
<ele>141</ele>
<time>2017-12-04T12:36:14Z</time>
</trkpt>
<trkpt lat="53.5877622" lon="17.8714564">
<ele>141</ele>
<time>2017-12-04T12:36:20Z</time>
</trkpt>
<trkpt lat="53.5877622" lon="17.8714564">
<ele>141</ele>
<time>2017-12-04T12:36:26Z</time>
</trkpt>
<trkpt lat="53.5877622" lon="17.8714564">
<ele>141</ele>
<time>2017-12-04T12:36:32Z</time>
</trkpt>
<trkpt lat="53.5877488" lon="17.8714709">
<ele>142</ele>
<time>2017-12-04T12:36:38Z</time>
</trkpt>
<trkpt lat="53.5877314" lon="17.8715336">
<ele>143</ele>
<time>2017-12-04T12:36:44Z</time>
</trkpt>
<trkpt lat="53.5877416" lon="17.8715262">
<ele>143</ele>
<time>2017-12-04T12:36:50Z</time>
</trkpt>
<trkpt lat="53.5877319" lon="17.8715139">
<ele>143</ele>
<time>2017-12-04T12:36:56Z</time>
</trkpt>
<trkpt lat="53.5877319" lon="17.8715139">
<ele>143</ele>
<time>2017-12-04T12:37:02Z</time>
</trkpt>
<trkpt lat="53.5877319" lon="17.8715139">
<ele>143</ele>
<time>2017-12-04T12:37:08Z</time>
</trkpt>
<trkpt lat="53.5877319" lon="17.8715139">
<ele>143</ele>
<time>2017-12-04T12:37:14Z</time>
</trkpt>
<trkpt lat="53.5877319" lon="17.8715139">
<ele>143</ele>
<time>2017-12-04T12:37:20Z</time>
</trkpt>
<trkpt lat="53.5877340" lon="17.8715433">
<ele>142</ele>
<time>2017-12-04T12:37:26Z</time>
</trkpt>
<trkpt lat="53.5877340" lon="17.8715433">
<ele>142</ele>
<time>2017-12-04T12:37:32Z</time>
</trkpt>
<trkpt lat="53.5877333" lon="17.8715491">
<ele>143</ele>
<time>2017-12-04T12:37:38Z</time>
</trkpt>
<trkpt lat="53.5877333" lon="17.8715491">
<ele>143</ele>
<time>2017-12-04T12:37:44Z</time>
</trkpt>
<trkpt lat="53.5877333" lon="17.8715491">
<ele>143</ele>
<time>2017-12-04T12:37:50Z</time>
</trkpt>
<trkpt lat="53.5877167" lon="17.8715356">
<ele>145</ele>
<time>2017-12-04T12:37:56Z</time>
</trkpt>
<trkpt lat="53.5877167" lon="17.8715356">
<ele>145</ele>
<time>2017-12-04T12:38:02Z</time>
</trkpt>
<trkpt lat="53.5877167" lon="17.8715356">
<ele>145</ele>
<time>2017-12-04T12:38:08Z</time>
</trkpt>
<trkpt lat="53.5877167" lon="17.8715356">
<ele>145</ele>
<time>2017-12-04T12:38:14Z</time>
</trkpt>
<trkpt lat="53.5876935" lon="17.8714962">
<ele>147</ele>
<time>2017-12-04T12:38:20Z</time>
</trkpt>
<trkpt lat="53.5876481" lon="17.8714866">
<ele>144</ele>
<time>2017-12-04T12:38:26Z</time>
</trkpt>
<trkpt lat="53.5876580" lon="17.8715026">
<ele>143</ele>
<time>2017-12-04T12:38:32Z</time>
</trkpt>
<trkpt lat="53.5876472" lon="17.8714896">
<ele>143</ele>
<time>2017-12-04T12:38:38Z</time>
</trkpt>
<trkpt lat="53.5876472" lon="17.8714896">
<ele>143</ele>
<time>2017-12-04T12:38:44Z</time>
</trkpt>
<trkpt lat="53.5876769" lon="17.8714782">
<ele>143</ele>
<time>2017-12-04T12:38:50Z</time>
</trkpt>
<trkpt lat="53.5876772" lon="17.8714628">
<ele>143</ele>
<time>2017-12-04T12:38:56Z</time>
</trkpt>
<trkpt lat="53.5876560" lon="17.8714654">
<ele>143</ele>
<time>2017-12-04T12:39:02Z</time>
</trkpt>
<trkpt lat="53.5876560" lon="17.8714654">
<ele>143</ele>
<time>2017-12-04T12:39:08Z</time>
</trkpt>
<trkpt lat="53.5876391" lon="17.8714540">
<ele>147</ele>
<time>2017-12-04T12:39:14Z</time>
</trkpt>
<trkpt lat="53.5876391" lon="17.8714540">
<ele>147</ele>
<time>2017-12-04T12:39:20Z</time>
</trkpt>
<trkpt lat="53.5876391" lon="17.8714540">
<ele>147</ele>
<time>2017-12-04T12:39:26Z</time>
</trkpt>
<trkpt lat="53.5876391" lon="17.8714540">
<ele>147</ele>
<time>2017-12-04T12:39:32Z</time>
</trkpt>
<trkpt lat="53.5876391" lon="17.8714540">
<ele>147</ele>
<time>2017-12-04T12:39:38Z</time>
</trkpt>
<trkpt lat="53.5876391" lon="17.8714540">
<ele>147</ele>
<time>2017-12-04T12:39:44Z</time>
</trkpt>
<trkpt lat="53.5876391" lon="17.8714540">
<ele>147</ele>
<time>2017-12-04T12:39:50Z</time>
</trkpt>
<trkpt lat="53.5876391" lon="17.8714540">
<ele>147</ele>
<time>2017-12-04T12:39:56Z</time>
</trkpt>
<trkpt lat="53.5876391" lon="17.8714540">
<ele>147</ele>
<time>2017-12-04T12:40:02Z</time>
</trkpt>
<trkpt lat="53.5876391" lon="17.8714540">
<ele>147</ele>
<time>2017-12-04T12:40:08Z</time>
</trkpt>
<trkpt lat="53.5876391" lon="17.8714540">
<ele>147</ele>
<time>2017-12-04T12:40:14Z</time>
</trkpt>
<trkpt lat="53.5876391" lon="17.8714540">
<ele>147</ele>
<time>2017-12-04T12:40:20Z</time>
</trkpt>
<trkpt lat="53.5876391" lon="17.8714540">
<ele>147</ele>
<time>2017-12-04T12:40:26Z</time>
</trkpt>
<trkpt lat="53.5876391" lon="17.8714540">
<ele>147</ele>
<time>2017-12-04T12:40:32Z</time>
</trkpt>
<trkpt lat="53.5876391" lon="17.8714540">
<ele>147</ele>
<time>2017-12-04T12:40:38Z</time>
</trkpt>
<trkpt lat="53.5876391" lon="17.8714540">
<ele>147</ele>
<time>2017-12-04T12:40:44Z</time>
</trkpt>
<trkpt lat="53.5876391" lon="17.8714540">
<ele>147</ele>
<time>2017-12-04T12:40:50Z</time>
</trkpt>
<trkpt lat="53.5876391" lon="17.8714540">
<ele>147</ele>
<time>2017-12-04T12:40:56Z</time>
</trkpt>
<trkpt lat="53.5876" lon="17.8715">
<ele>147</ele>
<time>2017-12-04T12:41:14Z</time>
</trkpt>
<trkpt lat="53.5876" lon="17.8715">
<ele>147</ele>
<time>2017-12-04T12:41:20Z</time>
</trkpt>
<trkpt lat="53.5876" lon="17.8715">
<ele>147</ele>
<time>2017-12-04T12:41:26Z</time>
</trkpt>
<trkpt lat="53.5876" lon="17.8714">
<ele>147</ele>
<time>2017-12-04T12:41:32Z</time>
</trkpt>
<trkpt lat="53.5876" lon="17.8714">
<ele>146</ele>
<time>2017-12-04T12:41:38Z</time>
</trkpt>
<trkpt lat="53.5875867" lon="17.8714167">
<ele>146</ele>
<time>2017-12-04T12:41:44Z</time>
</trkpt>
<trkpt lat="53.5875" lon="17.8714">
<ele>147</ele>
<time>2017-12-04T12:42:02Z</time>
</trkpt>
<trkpt lat="53.5875" lon="17.8714">
<ele>147</ele>
<time>2017-12-04T12:42:08Z</time>
</trkpt>
<trkpt lat="53.5876" lon="17.8714">
<ele>146</ele>
<time>2017-12-04T12:42:14Z</time>
</trkpt>
<trkpt lat="53.5877" lon="17.8713">
<ele>145</ele>
<time>2017-12-04T12:42:20Z</time>
</trkpt>
<trkpt lat="53.5877414" lon="17.8713019">
<ele>143</ele>
<time>2017-12-04T12:42:26Z</time>
</trkpt>
<trkpt lat="53.5876893" lon="17.8712616">
<ele>143</ele>
<time>2017-12-04T12:42:32Z</time>
</trkpt>
<trkpt lat="53.5876243" lon="17.8712863">
<ele>144</ele>
<time>2017-12-04T12:42:38Z</time>
</trkpt>
<trkpt lat="53.5875810" lon="17.8712347">
<ele>146</ele>
<time>2017-12-04T12:42:44Z</time>
</trkpt>
<trkpt lat="53.5875810" lon="17.8712347">
<ele>146</ele>
<time>2017-12-04T12:42:50Z</time>
</trkpt>
<trkpt lat="53.5875985" lon="17.8712862">
<ele>148</ele>
<time>2017-12-04T12:42:56Z</time>
</trkpt>
<trkpt lat="53.5875543" lon="17.8712158">
<ele>147</ele>
<time>2017-12-04T12:43:02Z</time>
</trkpt>
<trkpt lat="53.5875659" lon="17.8710959">
<ele>146</ele>
<time>2017-12-04T12:43:08Z</time>
</trkpt>
<trkpt lat="53.5875659" lon="17.8710959">
<ele>146</ele>
<time>2017-12-04T12:43:14Z</time>
</trkpt>
<trkpt lat="53.5875659" lon="17.8710959">
<ele>146</ele>
<time>2017-12-04T12:43:20Z</time>
</trkpt>
<trkpt lat="53.5875659" lon="17.8710959">
<ele>146</ele>
<time>2017-12-04T12:43:26Z</time>
</trkpt>
<trkpt lat="53.5875659" lon="17.8710959">
<ele>146</ele>
<time>2017-12-04T12:43:32Z</time>
</trkpt>
<trkpt lat="53.5875659" lon="17.8710959">
<ele>146</ele>
<time>2017-12-04T12:43:38Z</time>
</trkpt>
<trkpt lat="53.5875327" lon="17.8712300">
<ele>152</ele>
<time>2017-12-04T12:43:44Z</time>
</trkpt>
<trkpt lat="53.5875327" lon="17.8712300">
<ele>152</ele>
<time>2017-12-04T12:43:50Z</time>
</trkpt>
<trkpt lat="53.5875327" lon="17.8712300">
<ele>152</ele>
<time>2017-12-04T12:43:56Z</time>
</trkpt>
<trkpt lat="53.5875327" lon="17.8712300">
<ele>152</ele>
<time>2017-12-04T12:44:02Z</time>
</trkpt>
<trkpt lat="53.5875327" lon="17.8712300">
<ele>152</ele>
<time>2017-12-04T12:44:08Z</time>
</trkpt>
<trkpt lat="53.5875327" lon="17.8712300">
<ele>152</ele>
<time>2017-12-04T12:44:14Z</time>
</trkpt>
<trkpt lat="53.5875327" lon="17.8712300">
<ele>152</ele>
<time>2017-12-04T12:44:20Z</time>
</trkpt>
<trkpt lat="53.5875327" lon="17.8712300">
<ele>152</ele>
<time>2017-12-04T12:44:26Z</time>
</trkpt>
<trkpt lat="53.5875327" lon="17.8712300">
<ele>152</ele>
<time>2017-12-04T12:44:32Z</time>
</trkpt>
<trkpt lat="53.5875327" lon="17.8712300">
<ele>152</ele>
<time>2017-12-04T12:44:38Z</time>
</trkpt>
<trkpt lat="53.5875081" lon="17.8712182">
<ele>152</ele>
<time>2017-12-04T12:44:44Z</time>
</trkpt>
<trkpt lat="53.5875081" lon="17.8712182">
<ele>152</ele>
<time>2017-12-04T12:44:56Z</time>
</trkpt>
<trkpt lat="53.5875081" lon="17.8712182">
<ele>152</ele>
<time>2017-12-04T12:45:02Z</time>
</trkpt>
<trkpt lat="53.5875081" lon="17.8712182">
<ele>152</ele>
<time>2017-12-04T12:45:08Z</time>
</trkpt>
<trkpt lat="53.5875081" lon="17.8712182">
<ele>152</ele>
<time>2017-12-04T12:45:14Z</time>
</trkpt>
<trkpt lat="53.5875081" lon="17.8712182">
<ele>152</ele>
<time>2017-12-04T12:45:20Z</time>
</trkpt>
<trkpt lat="53.5874871" lon="17.8712398">
<ele>153</ele>
<time>2017-12-04T12:45:26Z</time>
</trkpt>
<trkpt lat="53.5873920" lon="17.8713379">
<ele>155</ele>
<time>2017-12-04T12:45:32Z</time>
</trkpt>
<trkpt lat="53.5873099" lon="17.8713852">
<ele>154</ele>
<time>2017-12-04T12:45:38Z</time>
</trkpt>
<trkpt lat="53.5872095" lon="17.8714363">
<ele>154</ele>
<time>2017-12-04T12:45:44Z</time>
</trkpt>
<trkpt lat="53.5871270" lon="17.8714651">
<ele>154</ele>
<time>2017-12-04T12:45:50Z</time>
</trkpt>
<trkpt lat="53.5871059" lon="17.8714967">
<ele>152</ele>
<time>2017-12-04T12:45:56Z</time>
</trkpt>
<trkpt lat="53.5870838" lon="17.8715771">
<ele>149</ele>
<time>2017-12-04T12:46:02Z</time>
</trkpt>
<trkpt lat="53.5870694" lon="17.8715980">
<ele>151</ele>
<time>2017-12-04T12:46:08Z</time>
</trkpt>
<trkpt lat="53.5870833" lon="17.8715966">
<ele>152</ele>
<time>2017-12-04T12:46:14Z</time>
</trkpt>
<trkpt lat="53.5870833" lon="17.8715966">
<ele>152</ele>
<time>2017-12-04T12:46:20Z</time>
</trkpt>
<trkpt lat="53.5870833" lon="17.8715966">
<ele>152</ele>
<time>2017-12-04T12:46:26Z</time>
</trkpt>
<trkpt lat="53.5870833" lon="17.8715966">
<ele>152</ele>
<time>2017-12-04T12:46:32Z</time>
</trkpt>
<trkpt lat="53.5870833" lon="17.8715966">
<ele>152</ele>
<time>2017-12-04T12:46:44Z</time>
</trkpt>
<trkpt lat="53.5871180" lon="17.8716476">
<ele>152</ele>
<time>2017-12-04T12:46:50Z</time>
</trkpt>
<trkpt lat="53.5871180" lon="17.8716476">
<ele>152</ele>
<time>2017-12-04T12:46:56Z</time>
</trkpt>
<trkpt lat="53.5871190" lon="17.8716934">
<ele>154</ele>
<time>2017-12-04T12:47:02Z</time>
</trkpt>
<trkpt lat="53.5871190" lon="17.8716934">
<ele>154</ele>
<time>2017-12-04T12:47:08Z</time>
</trkpt>
<trkpt lat="53.5871190" lon="17.8716934">
<ele>154</ele>
<time>2017-12-04T12:47:14Z</time>
</trkpt>
<trkpt lat="53.5871190" lon="17.8716934">
<ele>154</ele>
<time>2017-12-04T12:47:20Z</time>
</trkpt>
<trkpt lat="53.5871190" lon="17.8716934">
<ele>154</ele>
<time>2017-12-04T12:47:26Z</time>
</trkpt>
<trkpt lat="53.5871190" lon="17.8716934">
<ele>154</ele>
<time>2017-12-04T12:47:32Z</time>
</trkpt>
<trkpt lat="53.5871190" lon="17.8716934">
<ele>154</ele>
<time>2017-12-04T12:47:38Z</time>
</trkpt>
<trkpt lat="53.5871190" lon="17.8716934">
<ele>154</ele>
<time>2017-12-04T12:47:44Z</time>
</trkpt>
<trkpt lat="53.5871190" lon="17.8716934">
<ele>154</ele>
<time>2017-12-04T12:47:50Z</time>
</trkpt>
<trkpt lat="53.5871190" lon="17.8716934">
<ele>154</ele>
<time>2017-12-04T12:47:56Z</time>
</trkpt>
<trkpt lat="53.5871190" lon="17.8716934">
<ele>154</ele>
<time>2017-12-04T12:48:02Z</time>
</trkpt>
<trkpt lat="53.5871190" lon="17.8716934">
<ele>154</ele>
<time>2017-12-04T12:48:08Z</time>
</trkpt>
<trkpt lat="53.5871190" lon="17.8716934">
<ele>154</ele>
<time>2017-12-04T12:48:14Z</time>
</trkpt>
<trkpt lat="53.5871190" lon="17.8716934">
<ele>154</ele>
<time>2017-12-04T12:48:20Z</time>
</trkpt>
<trkpt lat="53.5871190" lon="17.8716934">
<ele>154</ele>
<time>2017-12-04T12:48:26Z</time>
</trkpt>
<trkpt lat="53.5871190" lon="17.8716934">
<ele>154</ele>
<time>2017-12-04T12:48:32Z</time>
</trkpt>
<trkpt lat="53.5871190" lon="17.8716934">
<ele>154</ele>
<time>2017-12-04T12:48:38Z</time>
</trkpt>
<trkpt lat="53.5871190" lon="17.8716934">
<ele>154</ele>
<time>2017-12-04T12:48:44Z</time>
</trkpt>
<trkpt lat="53.5871190" lon="17.8716934">
<ele>154</ele>
<time>2017-12-04T12:48:50Z</time>
</trkpt>
<trkpt lat="53.5871190" lon="17.8716934">
<ele>154</ele>
<time>2017-12-04T12:48:56Z</time>
</trkpt>
<trkpt lat="53.5871190" lon="17.8716934">
<ele>154</ele>
<time>2017-12-04T12:49:02Z</time>
</trkpt>
<trkpt lat="53.5871190" lon="17.8716934">
<ele>154</ele>
<time>2017-12-04T12:49:08Z</time>
</trkpt>
<trkpt lat="53.5871190" lon="17.8716934">
<ele>154</ele>
<time>2017-12-04T12:49:14Z</time>
</trkpt>
<trkpt lat="53.5871190" lon="17.8716934">
<ele>154</ele>
<time>2017-12-04T12:49:20Z</time>
</trkpt>
<trkpt lat="53.5871190" lon="17.8716934">
<ele>154</ele>
<time>2017-12-04T12:49:26Z</time>
</trkpt>
<trkpt lat="53.5871190" lon="17.8716934">
<ele>154</ele>
<time>2017-12-04T12:49:32Z</time>
</trkpt>
<trkpt lat="53.5871190" lon="17.8716934">
<ele>154</ele>
<time>2017-12-04T12:49:38Z</time>
</trkpt>
<trkpt lat="53.5871190" lon="17.8716934">
<ele>154</ele>
<time>2017-12-04T12:49:44Z</time>
</trkpt>
<trkpt lat="53.5871190" lon="17.8716934">
<ele>154</ele>
<time>2017-12-04T12:49:50Z</time>
</trkpt>
<trkpt lat="53.5871190" lon="17.8716934">
<ele>154</ele>
<time>2017-12-04T12:49:56Z</time>
</trkpt>
<trkpt lat="53.5871190" lon="17.8716934">
<ele>154</ele>
<time>2017-12-04T12:50:02Z</time>
</trkpt>
<trkpt lat="53.5871190" lon="17.8716934">
<ele>154</ele>
<time>2017-12-04T12:50:08Z</time>
</trkpt>
<trkpt lat="53.5871190" lon="17.8716934">
<ele>154</ele>
<time>2017-12-04T12:50:14Z</time>
</trkpt>
<trkpt lat="53.5871190" lon="17.8716934">
<ele>154</ele>
<time>2017-12-04T12:50:20Z</time>
</trkpt>
<trkpt lat="53.5871190" lon="17.8716934">
<ele>154</ele>
<time>2017-12-04T12:50:26Z</time>
</trkpt>
<trkpt lat="53.5871190" lon="17.8716934">
<ele>154</ele>
<time>2017-12-04T12:50:32Z</time>
</trkpt>
<trkpt lat="53.5871190" lon="17.8716934">
<ele>154</ele>
<time>2017-12-04T12:50:38Z</time>
</trkpt>
<trkpt lat="53.5871190" lon="17.8716934">
<ele>154</ele>
<time>2017-12-04T12:50:44Z</time>
</trkpt>
<trkpt lat="53.5871190" lon="17.8716934">
<ele>154</ele>
<time>2017-12-04T12:50:50Z</time>
</trkpt>
<trkpt lat="53.5871190" lon="17.8716934">
<ele>154</ele>
<time>2017-12-04T12:50:56Z</time>
</trkpt>
<trkpt lat="53.5871" lon="17.8717">
<ele>154</ele>
<time>2017-12-04T12:51:14Z</time>
</trkpt>
<trkpt lat="53.5871" lon="17.8717">
<ele>154</ele>
<time>2017-12-04T12:51:20Z</time>
</trkpt>
<trkpt lat="53.5871" lon="17.8717">
<ele>154</ele>
<time>2017-12-04T12:51:26Z</time>
</trkpt>
<trkpt lat="53.5871" lon="17.8717">
<ele>154</ele>
<time>2017-12-04T12:51:32Z</time>
</trkpt>
<trkpt lat="53.5871" lon="17.8717">
<ele>154</ele>
<time>2017-12-04T12:51:38Z</time>
</trkpt>
<trkpt lat="53.5871" lon="17.8717">
<ele>154</ele>
<time>2017-12-04T12:51:44Z</time>
</trkpt>
<trkpt lat="53.5871" lon="17.8717">
<ele>154</ele>
<time>2017-12-04T12:51:50Z</time>
</trkpt>
<trkpt lat="53.5871" lon="17.8717">
<ele>154</ele>
<time>2017-12-04T12:51:56Z</time>
</trkpt>
<trkpt lat="53.5871" lon="17.8717">
<ele>154</ele>
<time>2017-12-04T12:52:02Z</time>
</trkpt>
<trkpt lat="53.5871" lon="17.8717">
<ele>154</ele>
<time>2017-12-04T12:52:08Z</time>
</trkpt>
<trkpt lat="53.5871" lon="17.8717">
<ele>154</ele>
<time>2017-12-04T12:52:14Z</time>
</trkpt>
<trkpt lat="53.5871" lon="17.8717">
<ele>154</ele>
<time>2017-12-04T12:52:20Z</time>
</trkpt>
<trkpt lat="53.5871" lon="17.8717">
<ele>154</ele>
<time>2017-12-04T12:52:26Z</time>
</trkpt>
<trkpt lat="53.5871" lon="17.8717">
<ele>154</ele>
<time>2017-12-04T12:52:32Z</time>
</trkpt>
<trkpt lat="53.5871" lon="17.8717">
<ele>154</ele>
<time>2017-12-04T12:52:38Z</time>
</trkpt>
<trkpt lat="53.5871" lon="17.8717">
<ele>154</ele>
<time>2017-12-04T12:52:44Z</time>
</trkpt>
<trkpt lat="53.5871" lon="17.8717">
<ele>154</ele>
<time>2017-12-04T12:52:50Z</time>
</trkpt>
<trkpt lat="53.5871" lon="17.8717">
<ele>154</ele>
<time>2017-12-04T12:52:56Z</time>
</trkpt>
<trkpt lat="53.5871" lon="17.8717">
<ele>154</ele>
<time>2017-12-04T12:53:02Z</time>
</trkpt>
<trkpt lat="53.5871" lon="17.8717">
<ele>154</ele>
<time>2017-12-04T12:53:08Z</time>
</trkpt>
<trkpt lat="53.5871" lon="17.8717">
<ele>154</ele>
<time>2017-12-04T12:53:14Z</time>
</trkpt>
<trkpt lat="53.5871" lon="17.8717">
<ele>154</ele>
<time>2017-12-04T12:53:20Z</time>
</trkpt>
<trkpt lat="53.5871" lon="17.8717">
<ele>154</ele>
<time>2017-12-04T12:53:26Z</time>
</trkpt>
<trkpt lat="53.5871" lon="17.8717">
<ele>154</ele>
<time>2017-12-04T12:53:32Z</time>
</trkpt>
<trkpt lat="53.5871" lon="17.8717">
<ele>154</ele>
<time>2017-12-04T12:53:38Z</time>
</trkpt>
<trkpt lat="53.5871" lon="17.8717">
<ele>154</ele>
<time>2017-12-04T12:53:44Z</time>
</trkpt>
<trkpt lat="53.5871" lon="17.8717">
<ele>154</ele>
<time>2017-12-04T12:53:50Z</time>
</trkpt>
<trkpt lat="53.5871" lon="17.8717">
<ele>154</ele>
<time>2017-12-04T12:53:56Z</time>
</trkpt>
<trkpt lat="53.5871" lon="17.8717">
<ele>154</ele>
<time>2017-12-04T12:54:02Z</time>
</trkpt>
<trkpt lat="53.5871" lon="17.8717">
<ele>154</ele>
<time>2017-12-04T12:54:08Z</time>
</trkpt>
<trkpt lat="53.5871" lon="17.8717">
<ele>154</ele>
<time>2017-12-04T12:54:14Z</time>
</trkpt>
<trkpt lat="53.5871" lon="17.8717">
<ele>154</ele>
<time>2017-12-04T12:54:20Z</time>
</trkpt>
<trkpt lat="53.5871" lon="17.8717">
<ele>154</ele>
<time>2017-12-04T12:54:26Z</time>
</trkpt>
<trkpt lat="53.5871" lon="17.8717">
<ele>154</ele>
<time>2017-12-04T12:54:32Z</time>
</trkpt>
<trkpt lat="53.5871" lon="17.8717">
<ele>154</ele>
<time>2017-12-04T12:54:38Z</time>
</trkpt>
<trkpt lat="53.5871" lon="17.8717">
<ele>154</ele>
<time>2017-12-04T12:54:44Z</time>
</trkpt>
<trkpt lat="53.5871" lon="17.8717">
<ele>154</ele>
<time>2017-12-04T12:54:50Z</time>
</trkpt>
<trkpt lat="53.5871" lon="17.8717">
<ele>154</ele>
<time>2017-12-04T12:54:56Z</time>
</trkpt>
<trkpt lat="53.5871" lon="17.8717">
<ele>154</ele>
<time>2017-12-04T12:55:02Z</time>
</trkpt>
<trkpt lat="53.5871" lon="17.8717">
<ele>154</ele>
<time>2017-12-04T12:55:08Z</time>
</trkpt>
<trkpt lat="53.5871" lon="17.8717">
<ele>154</ele>
<time>2017-12-04T12:55:14Z</time>
</trkpt>
<trkpt lat="53.5871" lon="17.8717">
<ele>154</ele>
<time>2017-12-04T12:55:20Z</time>
</trkpt>
<trkpt lat="53.5871" lon="17.8717">
<ele>154</ele>
<time>2017-12-04T12:55:26Z</time>
</trkpt>
<trkpt lat="53.5871" lon="17.8717">
<ele>154</ele>
<time>2017-12-04T12:55:32Z</time>
</trkpt>
<trkpt lat="53.5871" lon="17.8717">
<ele>154</ele>
<time>2017-12-04T12:55:38Z</time>
</trkpt>
<trkpt lat="53.5871" lon="17.8717">
<ele>154</ele>
<time>2017-12-04T12:55:44Z</time>
</trkpt>
<trkpt lat="53.5871" lon="17.8717">
<ele>154</ele>
<time>2017-12-04T12:55:50Z</time>
</trkpt>
<trkpt lat="53.5871" lon="17.8717">
<ele>154</ele>
<time>2017-12-04T12:55:56Z</time>
</trkpt>
<trkpt lat="53.5871" lon="17.8717">
<ele>154</ele>
<time>2017-12-04T12:56:02Z</time>
</trkpt>
<trkpt lat="53.5871" lon="17.8717">
<ele>154</ele>
<time>2017-12-04T12:56:08Z</time>
</trkpt>
<trkpt lat="53.5871" lon="17.8717">
<ele>154</ele>
<time>2017-12-04T12:56:14Z</time>
</trkpt>
<trkpt lat="53.5871" lon="17.8717">
<ele>154</ele>
<time>2017-12-04T12:56:20Z</time>
</trkpt>
<trkpt lat="53.5871" lon="17.8717">
<ele>154</ele>
<time>2017-12-04T12:56:26Z</time>
</trkpt>
<trkpt lat="53.5871" lon="17.8717">
<ele>154</ele>
<time>2017-12-04T12:56:32Z</time>
</trkpt>
<trkpt lat="53.5871" lon="17.8717">
<ele>154</ele>
<time>2017-12-04T12:56:38Z</time>
</trkpt>
<trkpt lat="53.5871" lon="17.8717">
<ele>154</ele>
<time>2017-12-04T12:56:44Z</time>
</trkpt>
<trkpt lat="53.5871" lon="17.8717">
<ele>154</ele>
<time>2017-12-04T12:56:50Z</time>
</trkpt>
<trkpt lat="53.5871" lon="17.8717">
<ele>154</ele>
<time>2017-12-04T12:56:56Z</time>
</trkpt>
<trkpt lat="53.5871" lon="17.8717">
<ele>154</ele>
<time>2017-12-04T12:57:02Z</time>
</trkpt>
<trkpt lat="53.5871" lon="17.8717">
<ele>154</ele>
<time>2017-12-04T12:57:08Z</time>
</trkpt>
<trkpt lat="53.5871" lon="17.8717">
<ele>154</ele>
<time>2017-12-04T12:57:14Z</time>
</trkpt>
<trkpt lat="53.5871" lon="17.8717">
<ele>154</ele>
<time>2017-12-04T12:57:20Z</time>
</trkpt>
<trkpt lat="53.5871" lon="17.8717">
<ele>154</ele>
<time>2017-12-04T12:57:26Z</time>
</trkpt>
<trkpt lat="53.5871" lon="17.8717">
<ele>154</ele>
<time>2017-12-04T12:57:32Z</time>
</trkpt>
<trkpt lat="53.5871" lon="17.8717">
<ele>154</ele>
<time>2017-12-04T12:57:38Z</time>
</trkpt>
<trkpt lat="53.5871" lon="17.8717">
<ele>154</ele>
<time>2017-12-04T12:57:44Z</time>
</trkpt>
<trkpt lat="53.5871" lon="17.8717">
<ele>154</ele>
<time>2017-12-04T12:57:50Z</time>
</trkpt>
<trkpt lat="53.5871" lon="17.8717">
<ele>154</ele>
<time>2017-12-04T12:57:56Z</time>
</trkpt>
<trkpt lat="53.5871" lon="17.8717">
<ele>154</ele>
<time>2017-12-04T12:58:02Z</time>
</trkpt>
<trkpt lat="53.5871" lon="17.8717">
<ele>154</ele>
<time>2017-12-04T12:58:08Z</time>
</trkpt>
<trkpt lat="53.5871" lon="17.8717">
<ele>154</ele>
<time>2017-12-04T12:58:14Z</time>
</trkpt>
<trkpt lat="53.5871" lon="17.8717">
<ele>154</ele>
<time>2017-12-04T12:58:20Z</time>
</trkpt>
<trkpt lat="53.5871" lon="17.8717">
<ele>154</ele>
<time>2017-12-04T12:58:26Z</time>
</trkpt>
<trkpt lat="53.5871" lon="17.8717">
<ele>154</ele>
<time>2017-12-04T12:58:32Z</time>
</trkpt>
<trkpt lat="53.5871" lon="17.8717">
<ele>154</ele>
<time>2017-12-04T12:58:38Z</time>
</trkpt>
<trkpt lat="53.5871" lon="17.8717">
<ele>154</ele>
<time>2017-12-04T12:58:44Z</time>
</trkpt>
<trkpt lat="53.5871" lon="17.8717">
<ele>154</ele>
<time>2017-12-04T12:58:50Z</time>
</trkpt>
<trkpt lat="53.5871" lon="17.8717">
<ele>154</ele>
<time>2017-12-04T12:58:56Z</time>
</trkpt>
<trkpt lat="53.5871" lon="17.8717">
<ele>154</ele>
<time>2017-12-04T12:59:02Z</time>
</trkpt>
<trkpt lat="53.5871" lon="17.8717">
<ele>154</ele>
<time>2017-12-04T12:59:08Z</time>
</trkpt>
<trkpt lat="53.5871" lon="17.8717">
<ele>154</ele>
<time>2017-12-04T12:59:14Z</time>
</trkpt>
<trkpt lat="53.5871" lon="17.8717">
<ele>154</ele>
<time>2017-12-04T12:59:20Z</time>
</trkpt>
<trkpt lat="53.5871" lon="17.8717">
<ele>154</ele>
<time>2017-12-04T12:59:26Z</time>
</trkpt>
<trkpt lat="53.5871" lon="17.8717">
<ele>154</ele>
<time>2017-12-04T12:59:32Z</time>
</trkpt>
<trkpt lat="53.5871" lon="17.8717">
<ele>154</ele>
<time>2017-12-04T12:59:38Z</time>
</trkpt>
<trkpt lat="53.5871" lon="17.8717">
<ele>154</ele>
<time>2017-12-04T12:59:44Z</time>
</trkpt>
<trkpt lat="53.5871" lon="17.8717">
<ele>154</ele>
<time>2017-12-04T12:59:50Z</time>
</trkpt>
<trkpt lat="53.5871" lon="17.8717">
<ele>154</ele>
<time>2017-12-04T12:59:56Z</time>
</trkpt>
<trkpt lat="53.5871" lon="17.8717">
<ele>154</ele>
<time>2017-12-04T13:00:02Z</time>
</trkpt>
<trkpt lat="53.5871" lon="17.8717">
<ele>154</ele>
<time>2017-12-04T13:00:08Z</time>
</trkpt>
<trkpt lat="53.5871" lon="17.8717">
<ele>154</ele>
<time>2017-12-04T13:00:14Z</time>
</trkpt>
<trkpt lat="53.5871" lon="17.8717">
<ele>154</ele>
<time>2017-12-04T13:00:20Z</time>
</trkpt>
<trkpt lat="53.5871" lon="17.8717">
<ele>154</ele>
<time>2017-12-04T13:00:26Z</time>
</trkpt>
<trkpt lat="53.5871" lon="17.8717">
<ele>154</ele>
<time>2017-12-04T13:00:32Z</time>
</trkpt>
<trkpt lat="53.5871" lon="17.8717">
<ele>154</ele>
<time>2017-12-04T13:00:38Z</time>
</trkpt>
<trkpt lat="53.5871" lon="17.8717">
<ele>154</ele>
<time>2017-12-04T13:00:44Z</time>
</trkpt>
<trkpt lat="53.5871" lon="17.8717">
<ele>154</ele>
<time>2017-12-04T13:00:50Z</time>
</trkpt>
<trkpt lat="53.5871" lon="17.8717">
<ele>154</ele>
<time>2017-12-04T13:00:56Z</time>
</trkpt>
<trkpt lat="53.5871" lon="17.8717">
<ele>154</ele>
<time>2017-12-04T13:01:02Z</time>
</trkpt>
<trkpt lat="53.5871" lon="17.8717">
<ele>154</ele>
<time>2017-12-04T13:01:08Z</time>
</trkpt>
<trkpt lat="53.5871" lon="17.8717">
<ele>154</ele>
<time>2017-12-04T13:01:14Z</time>
</trkpt>
<trkpt lat="53.5871" lon="17.8717">
<ele>154</ele>
<time>2017-12-04T13:01:20Z</time>
</trkpt>
<trkpt lat="53.5871" lon="17.8717">
<ele>154</ele>
<time>2017-12-04T13:01:26Z</time>
</trkpt>
<trkpt lat="53.5871" lon="17.8717">
<ele>154</ele>
<time>2017-12-04T13:01:32Z</time>
</trkpt>
<trkpt lat="53.5871" lon="17.8717">
<ele>154</ele>
<time>2017-12-04T13:01:38Z</time>
</trkpt>
<trkpt lat="53.5871" lon="17.8717">
<ele>154</ele>
<time>2017-12-04T13:01:44Z</time>
</trkpt>
<trkpt lat="53.5871" lon="17.8717">
<ele>154</ele>
<time>2017-12-04T13:01:50Z</time>
</trkpt>
<trkpt lat="53.5871" lon="17.8717">
<ele>154</ele>
<time>2017-12-04T13:01:56Z</time>
</trkpt>
<trkpt lat="53.5871" lon="17.8717">
<ele>154</ele>
<time>2017-12-04T13:02:02Z</time>
</trkpt>
<trkpt lat="53.5871" lon="17.8717">
<ele>154</ele>
<time>2017-12-04T13:02:08Z</time>
</trkpt>
<trkpt lat="53.5871" lon="17.8717">
<ele>154</ele>
<time>2017-12-04T13:02:14Z</time>
</trkpt>
<trkpt lat="53.5871" lon="17.8717">
<ele>154</ele>
<time>2017-12-04T13:02:20Z</time>
</trkpt>
<trkpt lat="53.5871" lon="17.8717">
<ele>154</ele>
<time>2017-12-04T13:02:26Z</time>
</trkpt>
<trkpt lat="53.5871" lon="17.8717">
<ele>154</ele>
<time>2017-12-04T13:02:32Z</time>
</trkpt>
<trkpt lat="53.5871" lon="17.8717">
<ele>154</ele>
<time>2017-12-04T13:02:38Z</time>
</trkpt>
<trkpt lat="53.5871" lon="17.8717">
<ele>154</ele>
<time>2017-12-04T13:02:44Z</time>
</trkpt>
<trkpt lat="53.5871" lon="17.8717">
<ele>154</ele>
<time>2017-12-04T13:02:50Z</time>
</trkpt>
<trkpt lat="53.5871" lon="17.8717">
<ele>154</ele>
<time>2017-12-04T13:02:56Z</time>
</trkpt>
<trkpt lat="53.5871" lon="17.8717">
<ele>154</ele>
<time>2017-12-04T13:03:02Z</time>
</trkpt>
<trkpt lat="53.5871" lon="17.8717">
<ele>154</ele>
<time>2017-12-04T13:03:08Z</time>
</trkpt>
<trkpt lat="53.5871" lon="17.8717">
<ele>154</ele>
<time>2017-12-04T13:03:14Z</time>
</trkpt>
<trkpt lat="53.5871" lon="17.8717">
<ele>154</ele>
<time>2017-12-04T13:03:20Z</time>
</trkpt>
<trkpt lat="53.5871" lon="17.8717">
<ele>154</ele>
<time>2017-12-04T13:03:26Z</time>
</trkpt>
<trkpt lat="53.5871" lon="17.8717">
<ele>154</ele>
<time>2017-12-04T13:03:32Z</time>
</trkpt>
<trkpt lat="53.5871" lon="17.8717">
<ele>154</ele>
<time>2017-12-04T13:03:38Z</time>
</trkpt>
<trkpt lat="53.5871" lon="17.8717">
<ele>154</ele>
<time>2017-12-04T13:03:44Z</time>
</trkpt>
<trkpt lat="53.5871" lon="17.8717">
<ele>154</ele>
<time>2017-12-04T13:03:50Z</time>
</trkpt>
<trkpt lat="53.5871" lon="17.8717">
<ele>154</ele>
<time>2017-12-04T13:03:56Z</time>
</trkpt>
<trkpt lat="53.5871" lon="17.8717">
<ele>154</ele>
<time>2017-12-04T13:04:02Z</time>
</trkpt>
<trkpt lat="53.5871" lon="17.8717">
<ele>154</ele>
<time>2017-12-04T13:04:08Z</time>
</trkpt>
<trkpt lat="53.5871" lon="17.8717">
<ele>154</ele>
<time>2017-12-04T13:04:14Z</time>
</trkpt>
<trkpt lat="53.5871" lon="17.8717">
<ele>154</ele>
<time>2017-12-04T13:04:20Z</time>
</trkpt>
<trkpt lat="53.5871" lon="17.8717">
<ele>154</ele>
<time>2017-12-04T13:04:26Z</time>
</trkpt>
<trkpt lat="53.5871" lon="17.8717">
<ele>154</ele>
<time>2017-12-04T13:04:32Z</time>
</trkpt>
<trkpt lat="53.5871" lon="17.8717">
<ele>154</ele>
<time>2017-12-04T13:04:38Z</time>
</trkpt>
<trkpt lat="53.5871" lon="17.8717">
<ele>154</ele>
<time>2017-12-04T13:04:44Z</time>
</trkpt>
<trkpt lat="53.5871" lon="17.8717">
<ele>154</ele>
<time>2017-12-04T13:04:50Z</time>
</trkpt>
<trkpt lat="53.5871" lon="17.8717">
<ele>154</ele>
<time>2017-12-04T13:04:56Z</time>
</trkpt>
<trkpt lat="53.5871" lon="17.8717">
<ele>154</ele>
<time>2017-12-04T13:05:02Z</time>
</trkpt>
<trkpt lat="53.5871" lon="17.8717">
<ele>154</ele>
<time>2017-12-04T13:05:08Z</time>
</trkpt>
<trkpt lat="53.5871" lon="17.8717">
<ele>154</ele>
<time>2017-12-04T13:05:14Z</time>
</trkpt>
<trkpt lat="53.5871" lon="17.8717">
<ele>154</ele>
<time>2017-12-04T13:05:20Z</time>
</trkpt>
<trkpt lat="53.5871" lon="17.8717">
<ele>154</ele>
<time>2017-12-04T13:05:26Z</time>
</trkpt>
<trkpt lat="53.5871" lon="17.8717">
<ele>154</ele>
<time>2017-12-04T13:05:32Z</time>
</trkpt>
<trkpt lat="53.5871" lon="17.8717">
<ele>154</ele>
<time>2017-12-04T13:05:38Z</time>
</trkpt>
<trkpt lat="53.5871" lon="17.8717">
<ele>154</ele>
<time>2017-12-04T13:05:44Z</time>
</trkpt>
<trkpt lat="53.5871" lon="17.8717">
<ele>154</ele>
<time>2017-12-04T13:05:50Z</time>
</trkpt>
<trkpt lat="53.5871" lon="17.8717">
<ele>154</ele>
<time>2017-12-04T13:05:56Z</time>
</trkpt>
<trkpt lat="53.5871" lon="17.8717">
<ele>154</ele>
<time>2017-12-04T13:06:02Z</time>
</trkpt>
<trkpt lat="53.5871" lon="17.8717">
<ele>154</ele>
<time>2017-12-04T13:06:08Z</time>
</trkpt>
<trkpt lat="53.5871" lon="17.8717">
<ele>154</ele>
<time>2017-12-04T13:06:14Z</time>
</trkpt>
<trkpt lat="53.5871" lon="17.8717">
<ele>154</ele>
<time>2017-12-04T13:06:20Z</time>
</trkpt>
<trkpt lat="53.5871" lon="17.8717">
<ele>154</ele>
<time>2017-12-04T13:06:26Z</time>
</trkpt>
<trkpt lat="53.5871190" lon="17.8716934">
<ele>154</ele>
<time>2017-12-04T13:06:32Z</time>
</trkpt>
<trkpt lat="53.5871190" lon="17.8716934">
<ele>154</ele>
<time>2017-12-04T13:06:38Z</time>
</trkpt>
<trkpt lat="53.5871190" lon="17.8716934">
<ele>154</ele>
<time>2017-12-04T13:06:44Z</time>
</trkpt>
<trkpt lat="53.5871190" lon="17.8716934">
<ele>154</ele>
<time>2017-12-04T13:06:50Z</time>
</trkpt>
<trkpt lat="53.5871190" lon="17.8716934">
<ele>154</ele>
<time>2017-12-04T13:06:56Z</time>
</trkpt>
<trkpt lat="53.5871190" lon="17.8716934">
<ele>154</ele>
<time>2017-12-04T13:07:02Z</time>
</trkpt>
<trkpt lat="53.5871190" lon="17.8716934">
<ele>154</ele>
<time>2017-12-04T13:07:08Z</time>
</trkpt>
<trkpt lat="53.5871190" lon="17.8716934">
<ele>154</ele>
<time>2017-12-04T13:07:14Z</time>
</trkpt>
<trkpt lat="53.5871190" lon="17.8716934">
<ele>154</ele>
<time>2017-12-04T13:07:20Z</time>
</trkpt>
<trkpt lat="53.5871190" lon="17.8716934">
<ele>154</ele>
<time>2017-12-04T13:07:26Z</time>
</trkpt>
<trkpt lat="53.5871190" lon="17.8716934">
<ele>154</ele>
<time>2017-12-04T13:07:32Z</time>
</trkpt>
<trkpt lat="53.5871190" lon="17.8716934">
<ele>154</ele>
<time>2017-12-04T13:07:38Z</time>
</trkpt>
<trkpt lat="53.5871190" lon="17.8716934">
<ele>154</ele>
<time>2017-12-04T13:07:44Z</time>
</trkpt>
<trkpt lat="53.5871190" lon="17.8716934">
<ele>154</ele>
<time>2017-12-04T13:07:50Z</time>
</trkpt>
<trkpt lat="53.5871190" lon="17.8716934">
<ele>154</ele>
<time>2017-12-04T13:07:56Z</time>
</trkpt>
<trkpt lat="53.5871190" lon="17.8716934">
<ele>154</ele>
<time>2017-12-04T13:08:02Z</time>
</trkpt>
<trkpt lat="53.5871235" lon="17.8716954">
<ele>154</ele>
<time>2017-12-04T13:08:08Z</time>
</trkpt>
<trkpt lat="53.5870474" lon="17.8716159">
<ele>153</ele>
<time>2017-12-04T13:08:20Z</time>
</trkpt>
<trkpt lat="53.5871824" lon="17.8710795">
<ele>150</ele>
<time>2017-12-04T13:08:32Z</time>
</trkpt>
<trkpt lat="53.5873992" lon="17.8706221">
<ele>150</ele>
<time>2017-12-04T13:08:38Z</time>
</trkpt>
<trkpt lat="53.5876212" lon="17.8700758">
<ele>151</ele>
<time>2017-12-04T13:08:44Z</time>
</trkpt>
<trkpt lat="53.5878826" lon="17.8695504">
<ele>150</ele>
<time>2017-12-04T13:08:50Z</time>
</trkpt>
<trkpt lat="53.5881632" lon="17.8690303">
<ele>151</ele>
<time>2017-12-04T13:08:56Z</time>
</trkpt>
<trkpt lat="53.5885078" lon="17.8683885">
<ele>153</ele>
<time>2017-12-04T13:09:02Z</time>
</trkpt>
<trkpt lat="53.5887975" lon="17.8679171">
<ele>153</ele>
<time>2017-12-04T13:09:08Z</time>
</trkpt>
<trkpt lat="53.5889863" lon="17.8675611">
<ele>154</ele>
<time>2017-12-04T13:09:14Z</time>
</trkpt>
<trkpt lat="53.5890349" lon="17.8674469">
<ele>153</ele>
<time>2017-12-04T13:09:20Z</time>
</trkpt>
<trkpt lat="53.5890349" lon="17.8674469">
<ele>153</ele>
<time>2017-12-04T13:09:26Z</time>
</trkpt>
<trkpt lat="53.5890349" lon="17.8674469">
<ele>153</ele>
<time>2017-12-04T13:09:32Z</time>
</trkpt>
<trkpt lat="53.5890349" lon="17.8674469">
<ele>153</ele>
<time>2017-12-04T13:09:38Z</time>
</trkpt>
<trkpt lat="53.5890349" lon="17.8674469">
<ele>153</ele>
<time>2017-12-04T13:09:44Z</time>
</trkpt>
<trkpt lat="53.5890349" lon="17.8674469">
<ele>153</ele>
<time>2017-12-04T13:09:50Z</time>
</trkpt>
<trkpt lat="53.5890349" lon="17.8674469">
<ele>153</ele>
<time>2017-12-04T13:09:56Z</time>
</trkpt>
<trkpt lat="53.5890349" lon="17.8674469">
<ele>153</ele>
<time>2017-12-04T13:10:02Z</time>
</trkpt>
<trkpt lat="53.5890349" lon="17.8674469">
<ele>153</ele>
<time>2017-12-04T13:10:08Z</time>
</trkpt>
<trkpt lat="53.5890360" lon="17.8674378">
<ele>153</ele>
<time>2017-12-04T13:10:14Z</time>
</trkpt>
<trkpt lat="53.5891797" lon="17.8671582">
<ele>152</ele>
<time>2017-12-04T13:10:20Z</time>
</trkpt>
<trkpt lat="53.5894342" lon="17.8667409">
<ele>151</ele>
<time>2017-12-04T13:10:26Z</time>
</trkpt>
<trkpt lat="53.5897903" lon="17.8662637">
<ele>150</ele>
<time>2017-12-04T13:10:32Z</time>
</trkpt>
<trkpt lat="53.5902091" lon="17.8656655">
<ele>151</ele>
<time>2017-12-04T13:10:38Z</time>
</trkpt>
<trkpt lat="53.5905890" lon="17.8651326">
<ele>150</ele>
<time>2017-12-04T13:10:44Z</time>
</trkpt>
<trkpt lat="53.5908288" lon="17.8649534">
<ele>149</ele>
<time>2017-12-04T13:10:50Z</time>
</trkpt>
<trkpt lat="53.5911063" lon="17.8653798">
<ele>147</ele>
<time>2017-12-04T13:10:56Z</time>
</trkpt>
<trkpt lat="53.5915571" lon="17.8657708">
<ele>145</ele>
<time>2017-12-04T13:11:02Z</time>
</trkpt>
<trkpt lat="53.5920447" lon="17.8661757">
<ele>147</ele>
<time>2017-12-04T13:11:08Z</time>
</trkpt>
<trkpt lat="53.5924699" lon="17.8662617">
<ele>148</ele>
<time>2017-12-04T13:11:14Z</time>
</trkpt>
<trkpt lat="53.5928922" lon="17.8657917">
<ele>152</ele>
<time>2017-12-04T13:11:20Z</time>
</trkpt>
<trkpt lat="53.5931190" lon="17.8649784">
<ele>150</ele>
<time>2017-12-04T13:11:26Z</time>
</trkpt>
<trkpt lat="53.5931995" lon="17.8639327">
<ele>151</ele>
<time>2017-12-04T13:11:32Z</time>
</trkpt>
<trkpt lat="53.5931650" lon="17.8628579">
<ele>151</ele>
<time>2017-12-04T13:11:38Z</time>
</trkpt>
<trkpt lat="53.5931885" lon="17.8617540">
<ele>152</ele>
<time>2017-12-04T13:11:44Z</time>
</trkpt>
<trkpt lat="53.5932151" lon="17.8606537">
<ele>147</ele>
<time>2017-12-04T13:11:50Z</time>
</trkpt>
<trkpt lat="53.5932015" lon="17.8594932">
<ele>145</ele>
<time>2017-12-04T13:11:56Z</time>
</trkpt>
<trkpt lat="53.5931770" lon="17.8583225">
<ele>142</ele>
<time>2017-12-04T13:12:02Z</time>
</trkpt>
<trkpt lat="53.5931010" lon="17.8572360">
<ele>141</ele>
<time>2017-12-04T13:12:08Z</time>
</trkpt>
<trkpt lat="53.5931258" lon="17.8561589">
<ele>139</ele>
<time>2017-12-04T13:12:14Z</time>
</trkpt>
<trkpt lat="53.5935018" lon="17.8552849">
<ele>140</ele>
<time>2017-12-04T13:12:20Z</time>
</trkpt>
<trkpt lat="53.5938967" lon="17.8544065">
<ele>141</ele>
<time>2017-12-04T13:12:26Z</time>
</trkpt>
<trkpt lat="53.5942405" lon="17.8533826">
<ele>143</ele>
<time>2017-12-04T13:12:32Z</time>
</trkpt>
<trkpt lat="53.5946222" lon="17.8522831">
<ele>144</ele>
<time>2017-12-04T13:12:38Z</time>
</trkpt>
<trkpt lat="53.5950343" lon="17.8510878">
<ele>146</ele>
<time>2017-12-04T13:12:44Z</time>
</trkpt>
<trkpt lat="53.5954480" lon="17.8498642">
<ele>147</ele>
<time>2017-12-04T13:12:50Z</time>
</trkpt>
<trkpt lat="53.5958813" lon="17.8486180">
<ele>149</ele>
<time>2017-12-04T13:12:56Z</time>
</trkpt>
<trkpt lat="53.5961833" lon="17.8473067">
<ele>150</ele>
<time>2017-12-04T13:13:02Z</time>
</trkpt>
<trkpt lat="53.5961455" lon="17.8458118">
<ele>148</ele>
<time>2017-12-04T13:13:08Z</time>
</trkpt>
<trkpt lat="53.5961435" lon="17.8443031">
<ele>150</ele>
<time>2017-12-04T13:13:14Z</time>
</trkpt>
<trkpt lat="53.5961450" lon="17.8427938">
<ele>150</ele>
<time>2017-12-04T13:13:20Z</time>
</trkpt>
<trkpt lat="53.5961306" lon="17.8412139">
<ele>150</ele>
<time>2017-12-04T13:13:26Z</time>
</trkpt>
<trkpt lat="53.5961159" lon="17.8395484">
<ele>151</ele>
<time>2017-12-04T13:13:32Z</time>
</trkpt>
<trkpt lat="53.5960967" lon="17.8378414">
<ele>154</ele>
<time>2017-12-04T13:13:38Z</time>
</trkpt>
<trkpt lat="53.5960662" lon="17.8361368">
<ele>156</ele>
<time>2017-12-04T13:13:44Z</time>
</trkpt>
<trkpt lat="53.5959939" lon="17.8344242">
<ele>156</ele>
<time>2017-12-04T13:13:50Z</time>
</trkpt>
<trkpt lat="53.5959304" lon="17.8326953">
<ele>157</ele>
<time>2017-12-04T13:13:56Z</time>
</trkpt>
<trkpt lat="53.5958609" lon="17.8308871">
<ele>158</ele>
<time>2017-12-04T13:14:02Z</time>
</trkpt>
<trkpt lat="53.5957993" lon="17.8290760">
<ele>161</ele>
<time>2017-12-04T13:14:08Z</time>
</trkpt>
<trkpt lat="53.5957360" lon="17.8273110">
<ele>163</ele>
<time>2017-12-04T13:14:14Z</time>
</trkpt>
<trkpt lat="53.5956815" lon="17.8256277">
<ele>165</ele>
<time>2017-12-04T13:14:20Z</time>
</trkpt>
<trkpt lat="53.5956252" lon="17.8240039">
<ele>166</ele>
<time>2017-12-04T13:14:26Z</time>
</trkpt>
<trkpt lat="53.5955699" lon="17.8224388">
<ele>167</ele>
<time>2017-12-04T13:14:32Z</time>
</trkpt>
<trkpt lat="53.5954341" lon="17.8210107">
<ele>167</ele>
<time>2017-12-04T13:14:38Z</time>
</trkpt>
<trkpt lat="53.5951763" lon="17.8197520">
<ele>165</ele>
<time>2017-12-04T13:14:44Z</time>
</trkpt>
<trkpt lat="53.5949578" lon="17.8187099">
<ele>165</ele>
<time>2017-12-04T13:14:50Z</time>
</trkpt>
<trkpt lat="53.5952947" lon="17.8178579">
<ele>168</ele>
<time>2017-12-04T13:14:56Z</time>
</trkpt>
<trkpt lat="53.5958139" lon="17.8171449">
<ele>168</ele>
<time>2017-12-04T13:15:02Z</time>
</trkpt>
<trkpt lat="53.5964677" lon="17.8165806">
<ele>169</ele>
<time>2017-12-04T13:15:08Z</time>
</trkpt>
<trkpt lat="53.5971832" lon="17.8159510">
<ele>171</ele>
<time>2017-12-04T13:15:14Z</time>
</trkpt>
<trkpt lat="53.5979388" lon="17.8152608">
<ele>173</ele>
<time>2017-12-04T13:15:20Z</time>
</trkpt>
<trkpt lat="53.5986660" lon="17.8142909">
<ele>175</ele>
<time>2017-12-04T13:15:26Z</time>
</trkpt>
<trkpt lat="53.5993939" lon="17.8132910">
<ele>175</ele>
<time>2017-12-04T13:15:32Z</time>
</trkpt>
<trkpt lat="53.6002350" lon="17.8122050">
<ele>175</ele>
<time>2017-12-04T13:15:38Z</time>
</trkpt>
<trkpt lat="53.6011007" lon="17.8110577">
<ele>176</ele>
<time>2017-12-04T13:15:44Z</time>
</trkpt>
<trkpt lat="53.6019779" lon="17.8098821">
<ele>177</ele>
<time>2017-12-04T13:15:50Z</time>
</trkpt>
<trkpt lat="53.6028677" lon="17.8086794">
<ele>177</ele>
<time>2017-12-04T13:15:56Z</time>
</trkpt>
<trkpt lat="53.6037061" lon="17.8075492">
<ele>177</ele>
<time>2017-12-04T13:16:02Z</time>
</trkpt>
<trkpt lat="53.6043795" lon="17.8061851">
<ele>180</ele>
<time>2017-12-04T13:16:08Z</time>
</trkpt>
<trkpt lat="53.6046592" lon="17.8045113">
<ele>181</ele>
<time>2017-12-04T13:16:14Z</time>
</trkpt>
<trkpt lat="53.6049903" lon="17.8028421">
<ele>182</ele>
<time>2017-12-04T13:16:20Z</time>
</trkpt>
<trkpt lat="53.6053564" lon="17.8011171">
<ele>181</ele>
<time>2017-12-04T13:16:26Z</time>
</trkpt>
<trkpt lat="53.6057507" lon="17.7993576">
<ele>181</ele>
<time>2017-12-04T13:16:32Z</time>
</trkpt>
<trkpt lat="53.6061292" lon="17.7975920">
<ele>180</ele>
<time>2017-12-04T13:16:38Z</time>
</trkpt>
<trkpt lat="53.6066148" lon="17.7958774">
<ele>178</ele>
<time>2017-12-04T13:16:44Z</time>
</trkpt>
<trkpt lat="53.6071871" lon="17.7941915">
<ele>177</ele>
<time>2017-12-04T13:16:50Z</time>
</trkpt>
<trkpt lat="53.6083299" lon="17.7907480">
<ele>173</ele>
<time>2017-12-04T13:17:02Z</time>
</trkpt>
<trkpt lat="53.6077636" lon="17.7924801">
<ele>175</ele>
<time>2017-12-04T13:16:56Z</time>
</trkpt>
<trkpt lat="53.6089045" lon="17.7889972">
<ele>172</ele>
<time>2017-12-04T13:17:08Z</time>
</trkpt>
<trkpt lat="53.6094757" lon="17.7872486">
<ele>172</ele>
<time>2017-12-04T13:17:14Z</time>
</trkpt>
<trkpt lat="53.6100347" lon="17.7855459">
<ele>173</ele>
<time>2017-12-04T13:17:20Z</time>
</trkpt>
<trkpt lat="53.6105800" lon="17.7839077">
<ele>172</ele>
<time>2017-12-04T13:17:26Z</time>
</trkpt>
<trkpt lat="53.6110854" lon="17.7823330">
<ele>173</ele>
<time>2017-12-04T13:17:32Z</time>
</trkpt>
<trkpt lat="53.6115497" lon="17.7809270">
<ele>172</ele>
<time>2017-12-04T13:17:38Z</time>
</trkpt>
<trkpt lat="53.6119979" lon="17.7795435">
<ele>172</ele>
<time>2017-12-04T13:17:44Z</time>
</trkpt>
<trkpt lat="53.6124479" lon="17.7782071">
<ele>174</ele>
<time>2017-12-04T13:17:50Z</time>
</trkpt>
<trkpt lat="53.6129086" lon="17.7769434">
<ele>171</ele>
<time>2017-12-04T13:17:56Z</time>
</trkpt>
<trkpt lat="53.6134242" lon="17.7757453">
<ele>169</ele>
<time>2017-12-04T13:18:02Z</time>
</trkpt>
<trkpt lat="53.6139323" lon="17.7745527">
<ele>168</ele>
<time>2017-12-04T13:18:08Z</time>
</trkpt>
<trkpt lat="53.6144320" lon="17.7733530">
<ele>167</ele>
<time>2017-12-04T13:18:14Z</time>
</trkpt>
<trkpt lat="53.6150981" lon="17.7724351">
<ele>169</ele>
<time>2017-12-04T13:18:20Z</time>
</trkpt>
<trkpt lat="53.6159468" lon="17.7719409">
<ele>169</ele>
<time>2017-12-04T13:18:26Z</time>
</trkpt>
<trkpt lat="53.6168153" lon="17.7713846">
<ele>168</ele>
<time>2017-12-04T13:18:32Z</time>
</trkpt>
<trkpt lat="53.6177230" lon="17.7707968">
<ele>166</ele>
<time>2017-12-04T13:18:38Z</time>
</trkpt>
<trkpt lat="53.6186717" lon="17.7701878">
<ele>163</ele>
<time>2017-12-04T13:18:44Z</time>
</trkpt>
<trkpt lat="53.6196233" lon="17.7695708">
<ele>161</ele>
<time>2017-12-04T13:18:50Z</time>
</trkpt>
<trkpt lat="53.6205786" lon="17.7689578">
<ele>160</ele>
<time>2017-12-04T13:18:56Z</time>
</trkpt>
<trkpt lat="53.6215458" lon="17.7683501">
<ele>161</ele>
<time>2017-12-04T13:19:02Z</time>
</trkpt>
<trkpt lat="53.6225479" lon="17.7677000">
<ele>161</ele>
<time>2017-12-04T13:19:08Z</time>
</trkpt>
<trkpt lat="53.6235490" lon="17.7670281">
<ele>163</ele>
<time>2017-12-04T13:19:14Z</time>
</trkpt>
<trkpt lat="53.6244967" lon="17.7662636">
<ele>160</ele>
<time>2017-12-04T13:19:20Z</time>
</trkpt>
<trkpt lat="53.6251403" lon="17.7647243">
<ele>158</ele>
<time>2017-12-04T13:19:26Z</time>
</trkpt>
<trkpt lat="53.6257486" lon="17.7630829">
<ele>162</ele>
<time>2017-12-04T13:19:32Z</time>
</trkpt>
<trkpt lat="53.6263529" lon="17.7615103">
<ele>165</ele>
<time>2017-12-04T13:19:38Z</time>
</trkpt>
<trkpt lat="53.6269587" lon="17.7599336">
<ele>166</ele>
<time>2017-12-04T13:19:44Z</time>
</trkpt>
<trkpt lat="53.6276018" lon="17.7583301">
<ele>165</ele>
<time>2017-12-04T13:19:50Z</time>
</trkpt>
<trkpt lat="53.6282543" lon="17.7567141">
<ele>165</ele>
<time>2017-12-04T13:19:56Z</time>
</trkpt>
<trkpt lat="53.6289152" lon="17.7550858">
<ele>163</ele>
<time>2017-12-04T13:20:02Z</time>
</trkpt>
<trkpt lat="53.6295760" lon="17.7534530">
<ele>162</ele>
<time>2017-12-04T13:20:08Z</time>
</trkpt>
<trkpt lat="53.6302224" lon="17.7518257">
<ele>161</ele>
<time>2017-12-04T13:20:14Z</time>
</trkpt>
<trkpt lat="53.6308815" lon="17.7502016">
<ele>161</ele>
<time>2017-12-04T13:20:20Z</time>
</trkpt>
<trkpt lat="53.6315405" lon="17.7485786">
<ele>161</ele>
<time>2017-12-04T13:20:26Z</time>
</trkpt>
<trkpt lat="53.6321838" lon="17.7469733">
<ele>161</ele>
<time>2017-12-04T13:20:32Z</time>
</trkpt>
<trkpt lat="53.6328283" lon="17.7453770">
<ele>161</ele>
<time>2017-12-04T13:20:38Z</time>
</trkpt>
<trkpt lat="53.6334666" lon="17.7437829">
<ele>161</ele>
<time>2017-12-04T13:20:44Z</time>
</trkpt>
<trkpt lat="53.6340958" lon="17.7421898">
<ele>161</ele>
<time>2017-12-04T13:20:50Z</time>
</trkpt>
<trkpt lat="53.6347443" lon="17.7406232">
<ele>161</ele>
<time>2017-12-04T13:20:56Z</time>
</trkpt>
<trkpt lat="53.6353597" lon="17.7390592">
<ele>161</ele>
<time>2017-12-04T13:21:02Z</time>
</trkpt>
<trkpt lat="53.6359438" lon="17.7374627">
<ele>161</ele>
<time>2017-12-04T13:21:08Z</time>
</trkpt>
<trkpt lat="53.6365382" lon="17.7358719">
<ele>160</ele>
<time>2017-12-04T13:21:14Z</time>
</trkpt>
<trkpt lat="53.6371314" lon="17.7342775">
<ele>159</ele>
<time>2017-12-04T13:21:20Z</time>
</trkpt>
<trkpt lat="53.6377296" lon="17.7326964">
<ele>159</ele>
<time>2017-12-04T13:21:26Z</time>
</trkpt>
<trkpt lat="53.6383273" lon="17.7311047">
<ele>159</ele>
<time>2017-12-04T13:21:32Z</time>
</trkpt>
<trkpt lat="53.6389245" lon="17.7294918">
<ele>158</ele>
<time>2017-12-04T13:21:38Z</time>
</trkpt>
<trkpt lat="53.6395218" lon="17.7278944">
<ele>154</ele>
<time>2017-12-04T13:21:44Z</time>
</trkpt>
<trkpt lat="53.6400246" lon="17.7262338">
<ele>151</ele>
<time>2017-12-04T13:21:50Z</time>
</trkpt>
<trkpt lat="53.6403030" lon="17.7243074">
<ele>150</ele>
<time>2017-12-04T13:21:56Z</time>
</trkpt>
<trkpt lat="53.6406547" lon="17.7224445">
<ele>149</ele>
<time>2017-12-04T13:22:02Z</time>
</trkpt>
<trkpt lat="53.6412134" lon="17.7207056">
<ele>151</ele>
<time>2017-12-04T13:22:08Z</time>
</trkpt>
<trkpt lat="53.6418031" lon="17.7189855">
<ele>156</ele>
<time>2017-12-04T13:22:14Z</time>
</trkpt>
<trkpt lat="53.6424802" lon="17.7174920">
<ele>160</ele>
<time>2017-12-04T13:22:20Z</time>
</trkpt>
<trkpt lat="53.6432060" lon="17.7161189">
<ele>162</ele>
<time>2017-12-04T13:22:26Z</time>
</trkpt>
<trkpt lat="53.6439020" lon="17.7147787">
<ele>162</ele>
<time>2017-12-04T13:22:32Z</time>
</trkpt>
<trkpt lat="53.6445674" lon="17.7135139">
<ele>162</ele>
<time>2017-12-04T13:22:38Z</time>
</trkpt>
<trkpt lat="53.6451359" lon="17.7122185">
<ele>161</ele>
<time>2017-12-04T13:22:44Z</time>
</trkpt>
<trkpt lat="53.6456350" lon="17.7109840">
<ele>160</ele>
<time>2017-12-04T13:22:50Z</time>
</trkpt>
<trkpt lat="53.6461388" lon="17.7097954">
<ele>159</ele>
<time>2017-12-04T13:22:56Z</time>
</trkpt>
<trkpt lat="53.6466370" lon="17.7086207">
<ele>160</ele>
<time>2017-12-04T13:23:02Z</time>
</trkpt>
<trkpt lat="53.6472058" lon="17.7076263">
<ele>161</ele>
<time>2017-12-04T13:23:08Z</time>
</trkpt>
<trkpt lat="53.6477243" lon="17.7066029">
<ele>162</ele>
<time>2017-12-04T13:23:14Z</time>
</trkpt>
<trkpt lat="53.6481839" lon="17.7055583">
<ele>162</ele>
<time>2017-12-04T13:23:20Z</time>
</trkpt>
<trkpt lat="53.6486697" lon="17.7044822">
<ele>161</ele>
<time>2017-12-04T13:23:26Z</time>
</trkpt>
<trkpt lat="53.6491195" lon="17.7033740">
<ele>161</ele>
<time>2017-12-04T13:23:32Z</time>
</trkpt>
<trkpt lat="53.6495165" lon="17.7021930">
<ele>162</ele>
<time>2017-12-04T13:23:38Z</time>
</trkpt>
<trkpt lat="53.6499259" lon="17.7010195">
<ele>163</ele>
<time>2017-12-04T13:23:44Z</time>
</trkpt>
<trkpt lat="53.6504239" lon="17.6999096">
<ele>163</ele>
<time>2017-12-04T13:23:50Z</time>
</trkpt>
<trkpt lat="53.6509125" lon="17.6988256">
<ele>165</ele>
<time>2017-12-04T13:23:56Z</time>
</trkpt>
<trkpt lat="53.6514356" lon="17.6977926">
<ele>165</ele>
<time>2017-12-04T13:24:02Z</time>
</trkpt>
<trkpt lat="53.6520597" lon="17.6967355">
<ele>165</ele>
<time>2017-12-04T13:24:08Z</time>
</trkpt>
<trkpt lat="53.6527001" lon="17.6956316">
<ele>165</ele>
<time>2017-12-04T13:24:14Z</time>
</trkpt>
<trkpt lat="53.6533428" lon="17.6945145">
<ele>167</ele>
<time>2017-12-04T13:24:20Z</time>
</trkpt>
<trkpt lat="53.6539666" lon="17.6934392">
<ele>170</ele>
<time>2017-12-04T13:24:26Z</time>
</trkpt>
<trkpt lat="53.6545654" lon="17.6924083">
<ele>170</ele>
<time>2017-12-04T13:24:32Z</time>
</trkpt>
<trkpt lat="53.6551770" lon="17.6913560">
<ele>171</ele>
<time>2017-12-04T13:24:38Z</time>
</trkpt>
<trkpt lat="53.6558106" lon="17.6902842">
<ele>171</ele>
<time>2017-12-04T13:24:44Z</time>
</trkpt>
<trkpt lat="53.6564761" lon="17.6891165">
<ele>173</ele>
<time>2017-12-04T13:24:50Z</time>
</trkpt>
<trkpt lat="53.6571886" lon="17.6878789">
<ele>174</ele>
<time>2017-12-04T13:24:56Z</time>
</trkpt>
<trkpt lat="53.6579444" lon="17.6865975">
<ele>174</ele>
<time>2017-12-04T13:25:02Z</time>
</trkpt>
<trkpt lat="53.6587117" lon="17.6852371">
<ele>175</ele>
<time>2017-12-04T13:25:08Z</time>
</trkpt>
<trkpt lat="53.6595024" lon="17.6838906">
<ele>177</ele>
<time>2017-12-04T13:25:14Z</time>
</trkpt>
<trkpt lat="53.6602825" lon="17.6825302">
<ele>179</ele>
<time>2017-12-04T13:25:20Z</time>
</trkpt>
<trkpt lat="53.6608346" lon="17.6808826">
<ele>181</ele>
<time>2017-12-04T13:25:26Z</time>
</trkpt>
<trkpt lat="53.6612850" lon="17.6790263">
<ele>181</ele>
<time>2017-12-04T13:25:32Z</time>
</trkpt>
<trkpt lat="53.6617908" lon="17.6771476">
<ele>183</ele>
<time>2017-12-04T13:25:38Z</time>
</trkpt>
<trkpt lat="53.6622877" lon="17.6752441">
<ele>184</ele>
<time>2017-12-04T13:25:44Z</time>
</trkpt>
<trkpt lat="53.6627752" lon="17.6733062">
<ele>185</ele>
<time>2017-12-04T13:25:50Z</time>
</trkpt>
<trkpt lat="53.6633017" lon="17.6713999">
<ele>183</ele>
<time>2017-12-04T13:25:56Z</time>
</trkpt>
<trkpt lat="53.6640740" lon="17.6697162">
<ele>181</ele>
<time>2017-12-04T13:26:02Z</time>
</trkpt>
<trkpt lat="53.6649292" lon="17.6681341">
<ele>181</ele>
<time>2017-12-04T13:26:08Z</time>
</trkpt>
<trkpt lat="53.6657874" lon="17.6665244">
<ele>183</ele>
<time>2017-12-04T13:26:14Z</time>
</trkpt>
<trkpt lat="53.6666342" lon="17.6649171">
<ele>183</ele>
<time>2017-12-04T13:26:20Z</time>
</trkpt>
<trkpt lat="53.6674738" lon="17.6633268">
<ele>183</ele>
<time>2017-12-04T13:26:26Z</time>
</trkpt>
<trkpt lat="53.6682826" lon="17.6617748">
<ele>184</ele>
<time>2017-12-04T13:26:32Z</time>
</trkpt>
<trkpt lat="53.6690726" lon="17.6602598">
<ele>184</ele>
<time>2017-12-04T13:26:38Z</time>
</trkpt>
<trkpt lat="53.6698437" lon="17.6587968">
<ele>184</ele>
<time>2017-12-04T13:26:44Z</time>
</trkpt>
<trkpt lat="53.6706293" lon="17.6573308">
<ele>185</ele>
<time>2017-12-04T13:26:50Z</time>
</trkpt>
<trkpt lat="53.6714124" lon="17.6558465">
<ele>185</ele>
<time>2017-12-04T13:26:56Z</time>
</trkpt>
<trkpt lat="53.6721999" lon="17.6543677">
<ele>186</ele>
<time>2017-12-04T13:27:02Z</time>
</trkpt>
<trkpt lat="53.6729824" lon="17.6528921">
<ele>188</ele>
<time>2017-12-04T13:27:08Z</time>
</trkpt>
<trkpt lat="53.6736937" lon="17.6515439">
<ele>191</ele>
<time>2017-12-04T13:27:14Z</time>
</trkpt>
<trkpt lat="53.6743462" lon="17.6503055">
<ele>193</ele>
<time>2017-12-04T13:27:20Z</time>
</trkpt>
<trkpt lat="53.6750208" lon="17.6490368">
<ele>195</ele>
<time>2017-12-04T13:27:26Z</time>
</trkpt>
<trkpt lat="53.6757168" lon="17.6477166">
<ele>198</ele>
<time>2017-12-04T13:27:32Z</time>
</trkpt>
<trkpt lat="53.6764379" lon="17.6463510">
<ele>199</ele>
<time>2017-12-04T13:27:38Z</time>
</trkpt>
<trkpt lat="53.6772513" lon="17.6449920">
<ele>199</ele>
<time>2017-12-04T13:27:44Z</time>
</trkpt>
<trkpt lat="53.6782587" lon="17.6439933">
<ele>193</ele>
<time>2017-12-04T13:27:50Z</time>
</trkpt>
<trkpt lat="53.6792452" lon="17.6429668">
<ele>191</ele>
<time>2017-12-04T13:27:56Z</time>
</trkpt>
<trkpt lat="53.6801747" lon="17.6419919">
<ele>193</ele>
<time>2017-12-04T13:28:02Z</time>
</trkpt>
<trkpt lat="53.6809892" lon="17.6411098">
<ele>195</ele>
<time>2017-12-04T13:28:08Z</time>
</trkpt>
<trkpt lat="53.6816111" lon="17.6400869">
<ele>195</ele>
<time>2017-12-04T13:28:14Z</time>
</trkpt>
<trkpt lat="53.6820954" lon="17.6388213">
<ele>193</ele>
<time>2017-12-04T13:28:20Z</time>
</trkpt>
<trkpt lat="53.6825769" lon="17.6375701">
<ele>194</ele>
<time>2017-12-04T13:28:26Z</time>
</trkpt>
<trkpt lat="53.6830451" lon="17.6364023">
<ele>196</ele>
<time>2017-12-04T13:28:32Z</time>
</trkpt>
<trkpt lat="53.6835369" lon="17.6351881">
<ele>196</ele>
<time>2017-12-04T13:28:38Z</time>
</trkpt>
<trkpt lat="53.6840658" lon="17.6339341">
<ele>197</ele>
<time>2017-12-04T13:28:44Z</time>
</trkpt>
<trkpt lat="53.6847204" lon="17.6330068">
<ele>197</ele>
<time>2017-12-04T13:28:50Z</time>
</trkpt>
<trkpt lat="53.6854206" lon="17.6320956">
<ele>199</ele>
<time>2017-12-04T13:28:56Z</time>
</trkpt>
<trkpt lat="53.6860451" lon="17.6310605">
<ele>200</ele>
<time>2017-12-04T13:29:02Z</time>
</trkpt>
<trkpt lat="53.6865958" lon="17.6298755">
<ele>201</ele>
<time>2017-12-04T13:29:08Z</time>
</trkpt>
<trkpt lat="53.6870496" lon="17.6285242">
<ele>202</ele>
<time>2017-12-04T13:29:14Z</time>
</trkpt>
<trkpt lat="53.6875075" lon="17.6270155">
<ele>202</ele>
<time>2017-12-04T13:29:20Z</time>
</trkpt>
<trkpt lat="53.6879609" lon="17.6254596">
<ele>203</ele>
<time>2017-12-04T13:29:26Z</time>
</trkpt>
<trkpt lat="53.6883463" lon="17.6238737">
<ele>205</ele>
<time>2017-12-04T13:29:32Z</time>
</trkpt>
<trkpt lat="53.6887304" lon="17.6222710">
<ele>207</ele>
<time>2017-12-04T13:29:38Z</time>
</trkpt>
<trkpt lat="53.6891378" lon="17.6206354">
<ele>209</ele>
<time>2017-12-04T13:29:44Z</time>
</trkpt>
<trkpt lat="53.6895165" lon="17.6190464">
<ele>210</ele>
<time>2017-12-04T13:29:50Z</time>
</trkpt>
<trkpt lat="53.6897894" lon="17.6179630">
<ele>209</ele>
<time>2017-12-04T13:29:56Z</time>
</trkpt>
<trkpt lat="53.6900333" lon="17.6175947">
<ele>208</ele>
<time>2017-12-04T13:30:02Z</time>
</trkpt>
<trkpt lat="53.6904209" lon="17.6178908">
<ele>206</ele>
<time>2017-12-04T13:30:08Z</time>
</trkpt>
<trkpt lat="53.6907595" lon="17.6182483">
<ele>205</ele>
<time>2017-12-04T13:30:14Z</time>
</trkpt>
<trkpt lat="53.6908542" lon="17.6189856">
<ele>204</ele>
<time>2017-12-04T13:30:20Z</time>
</trkpt>
<trkpt lat="53.6904930" lon="17.6194628">
<ele>199</ele>
<time>2017-12-04T13:30:26Z</time>
</trkpt>
<trkpt lat="53.6899962" lon="17.6191856">
<ele>202</ele>
<time>2017-12-04T13:30:32Z</time>
</trkpt>
<trkpt lat="53.6895679" lon="17.6186471">
<ele>204</ele>
<time>2017-12-04T13:30:38Z</time>
</trkpt>
<trkpt lat="53.6890487" lon="17.6179776">
<ele>205</ele>
<time>2017-12-04T13:30:44Z</time>
</trkpt>
<trkpt lat="53.6884880" lon="17.6170404">
<ele>205</ele>
<time>2017-12-04T13:30:50Z</time>
</trkpt>
<trkpt lat="53.6878812" lon="17.6158264">
<ele>205</ele>
<time>2017-12-04T13:30:56Z</time>
</trkpt>
<trkpt lat="53.6872727" lon="17.6143681">
<ele>206</ele>
<time>2017-12-04T13:31:02Z</time>
</trkpt>
<trkpt lat="53.6866631" lon="17.6126360">
<ele>208</ele>
<time>2017-12-04T13:31:08Z</time>
</trkpt>
<trkpt lat="53.6860297" lon="17.6108094">
<ele>210</ele>
<time>2017-12-04T13:31:14Z</time>
</trkpt>
<trkpt lat="53.6853790" lon="17.6089708">
<ele>210</ele>
<time>2017-12-04T13:31:20Z</time>
</trkpt>
<trkpt lat="53.6847368" lon="17.6071778">
<ele>208</ele>
<time>2017-12-04T13:31:26Z</time>
</trkpt>
<trkpt lat="53.6841157" lon="17.6054610">
<ele>207</ele>
<time>2017-12-04T13:31:32Z</time>
</trkpt>
<trkpt lat="53.6835196" lon="17.6037906">
<ele>206</ele>
<time>2017-12-04T13:31:38Z</time>
</trkpt>
<trkpt lat="53.6829127" lon="17.6021079">
<ele>204</ele>
<time>2017-12-04T13:31:44Z</time>
</trkpt>
<trkpt lat="53.6822807" lon="17.6003394">
<ele>203</ele>
<time>2017-12-04T13:31:50Z</time>
</trkpt>
<trkpt lat="53.6816508" lon="17.5985602">
<ele>202</ele>
<time>2017-12-04T13:31:56Z</time>
</trkpt>
<trkpt lat="53.6810381" lon="17.5967628">
<ele>201</ele>
<time>2017-12-04T13:32:02Z</time>
</trkpt>
<trkpt lat="53.6804821" lon="17.5949262">
<ele>199</ele>
<time>2017-12-04T13:32:08Z</time>
</trkpt>
<trkpt lat="53.6799995" lon="17.5930408">
<ele>199</ele>
<time>2017-12-04T13:32:14Z</time>
</trkpt>
<trkpt lat="53.6796172" lon="17.5911280">
<ele>198</ele>
<time>2017-12-04T13:32:20Z</time>
</trkpt>
<trkpt lat="53.6793082" lon="17.5891777">
<ele>197</ele>
<time>2017-12-04T13:32:26Z</time>
</trkpt>
<trkpt lat="53.6791019" lon="17.5871904">
<ele>196</ele>
<time>2017-12-04T13:32:32Z</time>
</trkpt>
<trkpt lat="53.6789651" lon="17.5851289">
<ele>195</ele>
<time>2017-12-04T13:32:38Z</time>
</trkpt>
<trkpt lat="53.6789458" lon="17.5830344">
<ele>194</ele>
<time>2017-12-04T13:32:44Z</time>
</trkpt>
<trkpt lat="53.6790077" lon="17.5809316">
<ele>194</ele>
<time>2017-12-04T13:32:50Z</time>
</trkpt>
<trkpt lat="53.6791618" lon="17.5788440">
<ele>194</ele>
<time>2017-12-04T13:32:56Z</time>
</trkpt>
<trkpt lat="53.6794019" lon="17.5767860">
<ele>194</ele>
<time>2017-12-04T13:33:02Z</time>
</trkpt>
<trkpt lat="53.6797013" lon="17.5747689">
<ele>193</ele>
<time>2017-12-04T13:33:08Z</time>
</trkpt>
<trkpt lat="53.6799546" lon="17.5727261">
<ele>193</ele>
<time>2017-12-04T13:33:14Z</time>
</trkpt>
<trkpt lat="53.6802383" lon="17.5706829">
<ele>192</ele>
<time>2017-12-04T13:33:20Z</time>
</trkpt>
<trkpt lat="53.6805281" lon="17.5686084">
<ele>189</ele>
<time>2017-12-04T13:33:26Z</time>
</trkpt>
<trkpt lat="53.6806572" lon="17.5664553">
<ele>186</ele>
<time>2017-12-04T13:33:32Z</time>
</trkpt>
<trkpt lat="53.6806702" lon="17.5642590">
<ele>184</ele>
<time>2017-12-04T13:33:38Z</time>
</trkpt>
<trkpt lat="53.6805816" lon="17.5620145">
<ele>182</ele>
<time>2017-12-04T13:33:44Z</time>
</trkpt>
<trkpt lat="53.6804768" lon="17.5597432">
<ele>182</ele>
<time>2017-12-04T13:33:50Z</time>
</trkpt>
<trkpt lat="53.6803578" lon="17.5574931">
<ele>183</ele>
<time>2017-12-04T13:33:56Z</time>
</trkpt>
<trkpt lat="53.6802637" lon="17.5553053">
<ele>185</ele>
<time>2017-12-04T13:34:02Z</time>
</trkpt>
<trkpt lat="53.6802859" lon="17.5531547">
<ele>188</ele>
<time>2017-12-04T13:34:08Z</time>
</trkpt>
<trkpt lat="53.6804336" lon="17.5509902">
<ele>190</ele>
<time>2017-12-04T13:34:14Z</time>
</trkpt>
<trkpt lat="53.6806872" lon="17.5488616">
<ele>192</ele>
<time>2017-12-04T13:34:20Z</time>
</trkpt>
<trkpt lat="53.6809576" lon="17.5467152">
<ele>194</ele>
<time>2017-12-04T13:34:26Z</time>
</trkpt>
<trkpt lat="53.6812239" lon="17.5445495">
<ele>196</ele>
<time>2017-12-04T13:34:32Z</time>
</trkpt>
<trkpt lat="53.6814840" lon="17.5424001">
<ele>198</ele>
<time>2017-12-04T13:34:38Z</time>
</trkpt>
<trkpt lat="53.6817542" lon="17.5402441">
<ele>199</ele>
<time>2017-12-04T13:34:44Z</time>
</trkpt>
<trkpt lat="53.6820264" lon="17.5380385">
<ele>198</ele>
<time>2017-12-04T13:34:50Z</time>
</trkpt>
<trkpt lat="53.6822976" lon="17.5357715">
<ele>197</ele>
<time>2017-12-04T13:34:56Z</time>
</trkpt>
<trkpt lat="53.6825857" lon="17.5334795">
<ele>196</ele>
<time>2017-12-04T13:35:02Z</time>
</trkpt>
<trkpt lat="53.6828462" lon="17.5312552">
<ele>194</ele>
<time>2017-12-04T13:35:08Z</time>
</trkpt>
<trkpt lat="53.6830366" lon="17.5290352">
<ele>193</ele>
<time>2017-12-04T13:35:14Z</time>
</trkpt>
<trkpt lat="53.6832155" lon="17.5267845">
<ele>194</ele>
<time>2017-12-04T13:35:20Z</time>
</trkpt>
<trkpt lat="53.6833395" lon="17.5245341">
<ele>195</ele>
<time>2017-12-04T13:35:26Z</time>
</trkpt>
<trkpt lat="53.6834446" lon="17.5223150">
<ele>197</ele>
<time>2017-12-04T13:35:32Z</time>
</trkpt>
<trkpt lat="53.6835513" lon="17.5200900">
<ele>198</ele>
<time>2017-12-04T13:35:38Z</time>
</trkpt>
<trkpt lat="53.6836730" lon="17.5178605">
<ele>199</ele>
<time>2017-12-04T13:35:44Z</time>
</trkpt>
<trkpt lat="53.6837845" lon="17.5156279">
<ele>199</ele>
<time>2017-12-04T13:35:50Z</time>
</trkpt>
<trkpt lat="53.6838851" lon="17.5133323">
<ele>199</ele>
<time>2017-12-04T13:35:56Z</time>
</trkpt>
<trkpt lat="53.6840083" lon="17.5110259">
<ele>200</ele>
<time>2017-12-04T13:36:02Z</time>
</trkpt>
<trkpt lat="53.6841349" lon="17.5087387">
<ele>201</ele>
<time>2017-12-04T13:36:08Z</time>
</trkpt>
<trkpt lat="53.6842516" lon="17.5064743">
<ele>201</ele>
<time>2017-12-04T13:36:14Z</time>
</trkpt>
<trkpt lat="53.6843685" lon="17.5042087">
<ele>200</ele>
<time>2017-12-04T13:36:20Z</time>
</trkpt>
<trkpt lat="53.6844921" lon="17.5019295">
<ele>199</ele>
<time>2017-12-04T13:36:26Z</time>
</trkpt>
<trkpt lat="53.6846077" lon="17.4996046">
<ele>197</ele>
<time>2017-12-04T13:36:32Z</time>
</trkpt>
<trkpt lat="53.6847171" lon="17.4972502">
<ele>196</ele>
<time>2017-12-04T13:36:38Z</time>
</trkpt>
<trkpt lat="53.6848523" lon="17.4949265">
<ele>197</ele>
<time>2017-12-04T13:36:44Z</time>
</trkpt>
<trkpt lat="53.6850471" lon="17.4926404">
<ele>197</ele>
<time>2017-12-04T13:36:50Z</time>
</trkpt>
<trkpt lat="53.6853220" lon="17.4904052">
<ele>199</ele>
<time>2017-12-04T13:36:56Z</time>
</trkpt>
<trkpt lat="53.6856617" lon="17.4881579">
<ele>200</ele>
<time>2017-12-04T13:37:02Z</time>
</trkpt>
<trkpt lat="53.6860712" lon="17.4859453">
<ele>201</ele>
<time>2017-12-04T13:37:08Z</time>
</trkpt>
<trkpt lat="53.6865447" lon="17.4837813">
<ele>201</ele>
<time>2017-12-04T13:37:14Z</time>
</trkpt>
<trkpt lat="53.6870755" lon="17.4817083">
<ele>201</ele>
<time>2017-12-04T13:37:20Z</time>
</trkpt>
<trkpt lat="53.6875820" lon="17.4798787">
<ele>202</ele>
<time>2017-12-04T13:37:26Z</time>
</trkpt>
<trkpt lat="53.6880162" lon="17.4782008">
<ele>204</ele>
<time>2017-12-04T13:37:32Z</time>
</trkpt>
<trkpt lat="53.6882980" lon="17.4767846">
<ele>205</ele>
<time>2017-12-04T13:37:38Z</time>
</trkpt>
<trkpt lat="53.6884659" lon="17.4757824">
<ele>205</ele>
<time>2017-12-04T13:37:44Z</time>
</trkpt>
<trkpt lat="53.6885326" lon="17.4754252">
<ele>206</ele>
<time>2017-12-04T13:37:50Z</time>
</trkpt>
<trkpt lat="53.6885462" lon="17.4753660">
<ele>207</ele>
<time>2017-12-04T13:37:56Z</time>
</trkpt>
<trkpt lat="53.6885462" lon="17.4753660">
<ele>207</ele>
<time>2017-12-04T13:38:02Z</time>
</trkpt>
<trkpt lat="53.6885891" lon="17.4750698">
<ele>207</ele>
<time>2017-12-04T13:38:08Z</time>
</trkpt>
<trkpt lat="53.6886562" lon="17.4745869">
<ele>207</ele>
<time>2017-12-04T13:38:14Z</time>
</trkpt>
<trkpt lat="53.6887266" lon="17.4739610">
<ele>207</ele>
<time>2017-12-04T13:38:20Z</time>
</trkpt>
<trkpt lat="53.6888102" lon="17.4730457">
<ele>208</ele>
<time>2017-12-04T13:38:26Z</time>
</trkpt>
<trkpt lat="53.6888814" lon="17.4717173">
<ele>208</ele>
<time>2017-12-04T13:38:32Z</time>
</trkpt>
<trkpt lat="53.6889067" lon="17.4702379">
<ele>209</ele>
<time>2017-12-04T13:38:38Z</time>
</trkpt>
<trkpt lat="53.6887016" lon="17.4667714">
<ele>209</ele>
<time>2017-12-04T13:38:50Z</time>
</trkpt>
<trkpt lat="53.6888388" lon="17.4685338">
<ele>210</ele>
<time>2017-12-04T13:38:44Z</time>
</trkpt>
<trkpt lat="53.6885274" lon="17.4650160">
<ele>210</ele>
<time>2017-12-04T13:38:56Z</time>
</trkpt>
<trkpt lat="53.6883543" lon="17.4632316">
<ele>211</ele>
<time>2017-12-04T13:39:02Z</time>
</trkpt>
<trkpt lat="53.6881649" lon="17.4613581">
<ele>211</ele>
<time>2017-12-04T13:39:08Z</time>
</trkpt>
<trkpt lat="53.6879651" lon="17.4593532">
<ele>209</ele>
<time>2017-12-04T13:39:14Z</time>
</trkpt>
<trkpt lat="53.6877668" lon="17.4573097">
<ele>209</ele>
<time>2017-12-04T13:39:20Z</time>
</trkpt>
<trkpt lat="53.6875485" lon="17.4552769">
<ele>212</ele>
<time>2017-12-04T13:39:26Z</time>
</trkpt>
<trkpt lat="53.6873304" lon="17.4531665">
<ele>206</ele>
<time>2017-12-04T13:39:32Z</time>
</trkpt>
<trkpt lat="53.6871129" lon="17.4510669">
<ele>207</ele>
<time>2017-12-04T13:39:38Z</time>
</trkpt>
<trkpt lat="53.6869233" lon="17.4490541">
<ele>209</ele>
<time>2017-12-04T13:39:44Z</time>
</trkpt>
<trkpt lat="53.6867332" lon="17.4470762">
<ele>203</ele>
<time>2017-12-04T13:39:50Z</time>
</trkpt>
<trkpt lat="53.6865306" lon="17.4450908">
<ele>203</ele>
<time>2017-12-04T13:39:56Z</time>
</trkpt>
<trkpt lat="53.6863350" lon="17.4430972">
<ele>204</ele>
<time>2017-12-04T13:40:02Z</time>
</trkpt>
<trkpt lat="53.6861549" lon="17.4410867">
<ele>203</ele>
<time>2017-12-04T13:40:08Z</time>
</trkpt>
<trkpt lat="53.6857987" lon="17.4373175">
<ele>195</ele>
<time>2017-12-04T13:40:20Z</time>
</trkpt>
<trkpt lat="53.6859691" lon="17.4391978">
<ele>199</ele>
<time>2017-12-04T13:40:14Z</time>
</trkpt>
<trkpt lat="53.6856256" lon="17.4355151">
<ele>194</ele>
<time>2017-12-04T13:40:26Z</time>
</trkpt>
<trkpt lat="53.6854434" lon="17.4337585">
<ele>194</ele>
<time>2017-12-04T13:40:32Z</time>
</trkpt>
<trkpt lat="53.6852940" lon="17.4321072">
<ele>191</ele>
<time>2017-12-04T13:40:38Z</time>
</trkpt>
<trkpt lat="53.6851579" lon="17.4307157">
<ele>193</ele>
<time>2017-12-04T13:40:44Z</time>
</trkpt>
<trkpt lat="53.6850490" lon="17.4296289">
<ele>193</ele>
<time>2017-12-04T13:40:50Z</time>
</trkpt>
<trkpt lat="53.6849681" lon="17.4286657">
<ele>195</ele>
<time>2017-12-04T13:40:56Z</time>
</trkpt>
<trkpt lat="53.6848964" lon="17.4279867">
<ele>194</ele>
<time>2017-12-04T13:41:02Z</time>
</trkpt>
<trkpt lat="53.6848693" lon="17.4278555">
<ele>193</ele>
<time>2017-12-04T13:41:08Z</time>
</trkpt>
<trkpt lat="53.6848477" lon="17.4276992">
<ele>192</ele>
<time>2017-12-04T13:41:14Z</time>
</trkpt>
<trkpt lat="53.6847888" lon="17.4271659">
<ele>191</ele>
<time>2017-12-04T13:41:20Z</time>
</trkpt>
<trkpt lat="53.6846971" lon="17.4261641">
<ele>191</ele>
<time>2017-12-04T13:41:26Z</time>
</trkpt>
<trkpt lat="53.6845220" lon="17.4248805">
<ele>193</ele>
<time>2017-12-04T13:41:32Z</time>
</trkpt>
<trkpt lat="53.6842164" lon="17.4233523">
<ele>194</ele>
<time>2017-12-04T13:41:38Z</time>
</trkpt>
<trkpt lat="53.6838922" lon="17.4216830">
<ele>194</ele>
<time>2017-12-04T13:41:44Z</time>
</trkpt>
<trkpt lat="53.6835172" lon="17.4198355">
<ele>196</ele>
<time>2017-12-04T13:41:50Z</time>
</trkpt>
<trkpt lat="53.6831250" lon="17.4179200">
<ele>197</ele>
<time>2017-12-04T13:41:56Z</time>
</trkpt>
<trkpt lat="53.6827348" lon="17.4159657">
<ele>196</ele>
<time>2017-12-04T13:42:02Z</time>
</trkpt>
<trkpt lat="53.6823290" lon="17.4140329">
<ele>197</ele>
<time>2017-12-04T13:42:08Z</time>
</trkpt>
<trkpt lat="53.6819030" lon="17.4120842">
<ele>196</ele>
<time>2017-12-04T13:42:14Z</time>
</trkpt>
<trkpt lat="53.6815244" lon="17.4101888">
<ele>198</ele>
<time>2017-12-04T13:42:20Z</time>
</trkpt>
<trkpt lat="53.6811287" lon="17.4082642">
<ele>199</ele>
<time>2017-12-04T13:42:26Z</time>
</trkpt>
<trkpt lat="53.6807380" lon="17.4062658">
<ele>201</ele>
<time>2017-12-04T13:42:32Z</time>
</trkpt>
<trkpt lat="53.6803536" lon="17.4043193">
<ele>204</ele>
<time>2017-12-04T13:42:38Z</time>
</trkpt>
<trkpt lat="53.6799584" lon="17.4023395">
<ele>205</ele>
<time>2017-12-04T13:42:44Z</time>
</trkpt>
<trkpt lat="53.6795711" lon="17.4004037">
<ele>202</ele>
<time>2017-12-04T13:42:50Z</time>
</trkpt>
<trkpt lat="53.6792011" lon="17.3985371">
<ele>199</ele>
<time>2017-12-04T13:42:56Z</time>
</trkpt>
<trkpt lat="53.6788210" lon="17.3966515">
<ele>199</ele>
<time>2017-12-04T13:43:02Z</time>
</trkpt>
<trkpt lat="53.6784364" lon="17.3947756">
<ele>198</ele>
<time>2017-12-04T13:43:08Z</time>
</trkpt>
<trkpt lat="53.6780756" lon="17.3930053">
<ele>201</ele>
<time>2017-12-04T13:43:14Z</time>
</trkpt>
<trkpt lat="53.6777574" lon="17.3913709">
<ele>203</ele>
<time>2017-12-04T13:43:20Z</time>
</trkpt>
<trkpt lat="53.6774521" lon="17.3898124">
<ele>204</ele>
<time>2017-12-04T13:43:26Z</time>
</trkpt>
<trkpt lat="53.6771637" lon="17.3884083">
<ele>204</ele>
<time>2017-12-04T13:43:32Z</time>
</trkpt>
<trkpt lat="53.6768603" lon="17.3869333">
<ele>203</ele>
<time>2017-12-04T13:43:38Z</time>
</trkpt>
<trkpt lat="53.6765605" lon="17.3854784">
<ele>204</ele>
<time>2017-12-04T13:43:44Z</time>
</trkpt>
<trkpt lat="53.6762947" lon="17.3841930">
<ele>204</ele>
<time>2017-12-04T13:43:50Z</time>
</trkpt>
<trkpt lat="53.6760521" lon="17.3829814">
<ele>205</ele>
<time>2017-12-04T13:43:56Z</time>
</trkpt>
<trkpt lat="53.6757969" lon="17.3817519">
<ele>203</ele>
<time>2017-12-04T13:44:02Z</time>
</trkpt>
<trkpt lat="53.6755305" lon="17.3803811">
<ele>200</ele>
<time>2017-12-04T13:44:08Z</time>
</trkpt>
<trkpt lat="53.6752438" lon="17.3790109">
<ele>200</ele>
<time>2017-12-04T13:44:14Z</time>
</trkpt>
<trkpt lat="53.6749645" lon="17.3776645">
<ele>200</ele>
<time>2017-12-04T13:44:20Z</time>
</trkpt>
<trkpt lat="53.6746777" lon="17.3762900">
<ele>201</ele>
<time>2017-12-04T13:44:26Z</time>
</trkpt>
<trkpt lat="53.6744101" lon="17.3749452">
<ele>199</ele>
<time>2017-12-04T13:44:32Z</time>
</trkpt>
<trkpt lat="53.6741421" lon="17.3735670">
<ele>196</ele>
<time>2017-12-04T13:44:38Z</time>
</trkpt>
<trkpt lat="53.6738755" lon="17.3722698">
<ele>195</ele>
<time>2017-12-04T13:44:44Z</time>
</trkpt>
<trkpt lat="53.6736721" lon="17.3711803">
<ele>194</ele>
<time>2017-12-04T13:44:50Z</time>
</trkpt>
<trkpt lat="53.6734774" lon="17.3702480">
<ele>193</ele>
<time>2017-12-04T13:44:56Z</time>
</trkpt>
<trkpt lat="53.6733242" lon="17.3694363">
<ele>193</ele>
<time>2017-12-04T13:45:02Z</time>
</trkpt>
<trkpt lat="" lon="">
<ele></ele>
<time>2017-12-04TZ</time>
</trkpt>
</trkseg>
</trk>
<wpt lat="" lon="">
	<name></name>
	<desc></desc>
	<cmt></cmt>
	<photoid></photoid>
	<type></type>
</wpt>
</gpx>
